Provisional Data: Kitchen Creek near Huntington Mills, PA


Please select a monitoring station.
Please select start date.
Please select start date.

Toggle Unit: C/F Toggle Unit: C/F
Sample Time Temperature (C) Temperature (F) Specific Conductivity (mS/cm) pH   Turbidity (NTU+) DO (mg/L)
12/11/2021 12:00:00 AM 3.13 37.634 0.049 6.73 7.48 13.27
12/11/2021 12:15:00 AM 3.13 37.634 0.054 6.72 7.97 13.27
12/11/2021 12:30:00 AM 3.14 37.652 0.052 6.72 8 13.26
12/11/2021 12:45:00 AM 3.15 37.67 0.05 6.73 7.59 13.25
12/11/2021 1:00:00 AM 3.16 37.688 0.054 6.73 8.18 13.24
12/11/2021 1:15:00 AM 3.18 37.724 0.051 6.72 7.36 13.23
12/11/2021 1:30:00 AM 3.19 37.742 0.054 6.72 7.56 13.22
12/11/2021 1:45:00 AM 3.21 37.778 0.054 6.73 7.67 13.21
12/11/2021 2:00:00 AM 3.22 37.796 0.054 6.72 8.41 13.2
12/11/2021 2:15:00 AM 3.23 37.814 0.054 6.71 8.45 13.19
12/11/2021 2:30:00 AM 3.25 37.85 0.054 6.71 7.94 13.19
12/11/2021 2:45:00 AM 3.27 37.886 0.054 6.71 8.76 13.18
12/11/2021 3:00:00 AM 3.28 37.904 0.054 6.71 8.24 13.18
12/11/2021 3:15:00 AM 3.29 37.922 0.044 6.72 7.99 13.17
12/11/2021 3:30:00 AM 3.3 37.94 0.051 6.72 7.24 13.16
12/11/2021 3:45:00 AM 3.31 37.958 0.046 6.72 7.09 13.16
12/11/2021 4:00:00 AM 3.32 37.976 0.053 6.73 6.4 13.15
12/11/2021 4:15:00 AM 3.33 37.994 0.054 6.72 6.98 13.14
12/11/2021 4:30:00 AM 3.34 38.012 0.052 6.72 6.84 13.13
12/11/2021 4:45:00 AM 3.36 38.048 0.054 6.73 5.22 13.13
12/11/2021 5:00:00 AM 3.37 38.066 0.054 6.73 5.93 13.12
12/11/2021 5:15:00 AM 3.38 38.084 0.054 6.72 5.18 13.12
12/11/2021 5:30:00 AM 3.39 38.102 0.054 6.72 5.18 13.11
12/11/2021 5:45:00 AM 3.4 38.12 0.052 6.72 3.92 13.1
12/11/2021 6:00:00 AM 3.41 38.138 0.05 6.71 3.89 13.1
12/11/2021 6:15:00 AM 3.43 38.174 0.054 6.7 3.73 13.08
12/11/2021 6:30:00 AM 3.44 38.192 0.052 6.7 3.64 13.08
12/11/2021 6:45:00 AM 3.46 38.228 0.053 6.7 3.58 13.07
12/11/2021 7:00:00 AM 3.48 38.264 0.053 6.73 4.46 13.06
12/11/2021 7:15:00 AM 3.5 38.3 0.05 6.7 3.62 13.05
12/11/2021 7:30:00 AM 3.51 38.318 0.053 6.71 2.97 13.04
12/11/2021 7:45:00 AM 3.53 38.354 0.048 6.71 3.9 13.04
12/11/2021 8:00:00 AM 3.55 38.39 0.053 6.71 3.13 13.04
12/11/2021 8:15:00 AM 3.57 38.426 0.053 6.68 3.94 13.03
12/11/2021 8:30:00 AM 3.6 38.48 0.053 6.72 4.37 13.03
12/11/2021 8:45:00 AM 3.63 38.534 0.045 6.73 4.18 13.04
12/11/2021 9:00:00 AM 3.65 38.57 0.05 6.73 3.87 13.04
12/11/2021 9:15:00 AM 3.67 38.606 0.053 6.75 4.86 13.05
12/11/2021 9:30:00 AM 3.69 38.642 0.05 6.75 5.89 13.05
12/11/2021 9:45:00 AM 3.71 38.678 0.053 6.75 8.69 13.05
12/11/2021 10:00:00 AM 3.75 38.75 0.051 6.77 8.13 13.05
12/11/2021 10:15:00 AM 3.78 38.804 0.053 6.78 7.6 13.06
12/11/2021 10:30:00 AM 3.81 38.858 0.053 6.78 6.84 13.06
12/11/2021 10:45:00 AM 3.84 38.912 0.052 6.78 6.16 13.05
12/11/2021 11:00:00 AM 3.87 38.966 0.053 6.77 5.59 13.04
12/11/2021 11:15:00 AM 3.9 39.02 0.048 6.79 5.57 13.03
12/11/2021 11:30:00 AM 3.93 39.074 0.053 6.79 5.79 13.03
12/11/2021 11:45:00 AM 3.96 39.128 0.05 6.8 4.84 13.02
12/11/2021 12:00:00 PM 3.99 39.182 0.041 6.79 4.88 13.01
12/11/2021 12:15:00 PM 4.01 39.218 0.051 6.79 5.29 13.01
12/11/2021 12:30:00 PM 4.03 39.254 0.052 6.79 5.07 12.99
12/11/2021 12:45:00 PM 4.06 39.308 0.051 6.79 4.22 12.96
12/11/2021 1:00:00 PM 4.07 39.326 0.051 6.78 5.7 12.94
12/11/2021 1:15:00 PM 4.09 39.362 0.05 6.77 5.11 12.93
12/11/2021 1:30:00 PM 4.11 39.398 0.05 6.78 5.5 12.9
12/11/2021 1:45:00 PM 4.13 39.434 0.051 6.76 5.5 12.89
12/11/2021 2:00:00 PM 4.15 39.47 0.051 6.76 5.8 12.87
12/11/2021 2:15:00 PM 4.17 39.506 0.05 6.76 6.34 12.83
12/11/2021 2:30:00 PM 4.19 39.542 0.051 6.73 6.63 12.82
12/11/2021 2:45:00 PM 4.21 39.578 0.051 6.77 7.6 12.82
12/11/2021 3:00:00 PM 4.24 39.632 0.048 6.73 6.81 12.82
12/11/2021 3:15:00 PM 4.26 39.668 0.05 6.75 7.72 12.83
12/11/2021 3:30:00 PM 4.29 39.722 0.049 6.75 7.55 12.81
12/11/2021 3:45:00 PM 4.31 39.758 0.044 6.74 7.66 12.78
12/11/2021 4:00:00 PM 4.33 39.794 0.05 6.73 5.47 12.76
12/11/2021 4:15:00 PM 4.35 39.83 0.049 6.71 5.66 12.74
12/11/2021 4:30:00 PM 4.37 39.866 0.051 6.73 5.4 12.7
12/11/2021 4:45:00 PM 4.39 39.902 0.052 6.73 4.96 12.69
12/11/2021 5:00:00 PM 4.4 39.92 0.05 6.72 5.66 12.67
12/11/2021 5:15:00 PM 4.42 39.956 0.052 6.71 4.47 12.66
12/11/2021 5:30:00 PM 4.45 40.01 0.052 6.54 4.47 12.64
12/11/2021 5:45:00 PM 4.48 40.064 0.05 6.7 4.06 12.62
12/11/2021 6:00:00 PM 4.5 40.1 0.051 6.7 4.22 12.61
12/11/2021 6:15:00 PM 4.52 40.136 0.051 6.69 3.93 12.6
12/11/2021 6:30:00 PM 4.54 40.172 0.052 6.7 3.96 12.6
12/11/2021 6:45:00 PM 4.56 40.208 0.052 6.71 4.03 12.58
12/11/2021 7:00:00 PM 4.59 40.262 0.05 6.71 4.5 12.57
12/11/2021 7:15:00 PM 4.64 40.352 0.052 6.71 3.57 12.56
12/11/2021 7:30:00 PM 4.72 40.496 0.052 6.7 5.36 12.55
12/11/2021 7:45:00 PM 4.78 40.604 0.052 6.72 4.4 12.54
12/11/2021 8:00:00 PM 4.81 40.658 0.051 6.72 4.3 12.54
12/11/2021 8:15:00 PM 4.87 40.766 0.052 6.73 3.58 12.54
12/11/2021 8:30:00 PM 4.9 40.82 0.051 6.72 5.38 12.53
12/11/2021 8:45:00 PM 4.92 40.856 0.052 6.73 4.44 12.52
12/11/2021 9:00:00 PM 4.93 40.874 0.051 6.72 4.1 12.52
12/11/2021 9:15:00 PM 4.93 40.874 0.052 6.75 4.73 12.53
12/11/2021 9:30:00 PM 4.94 40.892 0.052 6.72 5.6 12.53
12/11/2021 9:45:00 PM 4.95 40.91 0.052 6.74 3.56 12.53
12/11/2021 10:00:00 PM 4.95 40.91 0.052 6.73 4.07 12.54
12/11/2021 10:15:00 PM 4.93 40.874 0.051 6.74 4.6 12.54
12/11/2021 10:30:00 PM 4.91 40.838 0.052 6.73 4.54 12.56
12/11/2021 10:45:00 PM 4.89 40.802 0.052 6.72 4.18 12.56
12/11/2021 11:00:00 PM 4.86 40.748 0.051 6.73 4.14 12.57
12/11/2021 11:15:00 PM 4.84 40.712 0.051 6.72 5.15 12.58
12/11/2021 11:30:00 PM 4.81 40.658 0.051 6.72 3.61 12.59
12/11/2021 11:45:00 PM 4.8 40.64 0.05 6.72 3.9 12.6
12/12/2021 12:00:00 AM 4.78 40.604 0.051 6.71 4.23 12.62
12/12/2021 12:15:00 AM 4.76 40.568 0.051 6.7 4.35 12.62
12/12/2021 12:30:00 AM 4.74 40.532 0.051 6.73 3.76 12.63
12/12/2021 12:45:00 AM 4.72 40.496 0.051 6.7 3.36 12.64
12/12/2021 1:00:00 AM 4.71 40.478 0.051 6.61 3 12.65
12/12/2021 1:15:00 AM 4.7 40.46 0.051 6.62 4.07 12.65
12/12/2021 1:30:00 AM 4.69 40.442 0.05 6.71 4.65 12.66
12/12/2021 1:45:00 AM 4.68 40.424 0.049 6.69 3.79 12.67
12/12/2021 2:00:00 AM 4.67 40.406 0.051 6.7 4.52 12.68
12/12/2021 2:15:00 AM 4.68 40.424 0.051 6.7 4.14 12.69
12/12/2021 2:30:00 AM 4.67 40.406 0.051 6.7 4.24 12.69
12/12/2021 2:45:00 AM 4.65 40.37 0.051 6.7 3.05 12.7
12/12/2021 3:00:00 AM 4.63 40.334 0.051 6.69 4.01 12.71
12/12/2021 3:15:00 AM 4.6 40.28 0.051 6.69 4.56 12.72
12/12/2021 3:30:00 AM 4.57 40.226 0.051 6.66 3.3 12.74
12/12/2021 3:45:00 AM 4.54 40.172 0.051 6.69 2.92 12.75
12/12/2021 4:00:00 AM 4.51 40.118 0.051 6.69 3.19 12.77
12/12/2021 4:15:00 AM 4.47 40.046 0.05 6.68 3.04 12.78
12/12/2021 4:30:00 AM 4.43 39.974 0.051 6.7 3.9 12.8
12/12/2021 4:45:00 AM 4.41 39.938 0.051 6.69 2.84 12.81
12/12/2021 5:00:00 AM 4.38 39.884 0.051 6.69 2.74 12.82
12/12/2021 5:15:00 AM 4.35 39.83 0.051 6.68 3.42 12.84
12/12/2021 5:30:00 AM 4.31 39.758 0.051 6.56 3.11 12.84
12/12/2021 5:45:00 AM 4.29 39.722 0.043 6.68 3.27 12.84
12/12/2021 6:00:00 AM 4.25 39.65 0.051 6.66 3.36 12.86
12/12/2021 6:15:00 AM 4.22 39.596 0.052 6.68 3.91 12.88
12/12/2021 6:30:00 AM 4.2 39.56 0.052 6.67 4.53 12.89
12/12/2021 6:45:00 AM 4.17 39.506 0.052 6.67 2.85 12.9
12/12/2021 7:00:00 AM 4.13 39.434 0.049 6.67 3.47 12.93
12/12/2021 7:15:00 AM 4.09 39.362 0.052 6.67 3.45 12.95
12/12/2021 7:30:00 AM 4.05 39.29 0.051 6.68 3.48 12.98
12/12/2021 7:45:00 AM 4.01 39.218 0.052 6.67 3.39 13.01
12/12/2021 8:00:00 AM 3.97 39.146 0.052 6.69 3.5 13.06
12/12/2021 8:15:00 AM 3.93 39.074 0.05 6.68 3.58 13.1
12/12/2021 8:30:00 AM 3.9 39.02 0.051 6.69 3.7 13.15
12/12/2021 8:45:00 AM 3.88 38.984 0.052 6.7 3.84 13.18
12/12/2021 9:00:00 AM 3.86 38.948 0.052 6.71 4.13 13.22
12/12/2021 9:15:00 AM 3.84 38.912 0.052 6.73 3.68 13.25
12/12/2021 9:30:00 AM 3.83 38.894 0.049 6.72 2.86 13.28
12/12/2021 9:45:00 AM 3.84 38.912 0.052 6.74 3.83 13.32
12/12/2021 10:00:00 AM 3.85 38.93 0.052 6.78 2.79 13.36
12/12/2021 10:15:00 AM 3.88 38.984 0.052 6.77 3.07 13.4
12/12/2021 10:30:00 AM 3.93 39.074 0.051 6.79 2.66 13.42
12/12/2021 10:45:00 AM 3.98 39.164 0.051 6.8 3.6 13.4
12/12/2021 11:00:00 AM 4.04 39.272 0.051 6.78 3.19 13.37
12/12/2021 11:15:00 AM 4.08 39.344 0.051 6.8 3.67 13.35
12/12/2021 11:30:00 AM 4.12 39.416 0.049 6.79 2.73 13.34
12/12/2021 11:45:00 AM 4.17 39.506 0.051 6.79 3.08 13.32
12/12/2021 12:00:00 PM 4.22 39.596 0.049 6.79 2.82 13.31
12/12/2021 12:15:00 PM 4.25 39.65 0.051 6.79 3.15 13.29
12/12/2021 12:30:00 PM 4.26 39.668 0.05 6.8 2.92 13.28
12/12/2021 12:45:00 PM 4.26 39.668 0.051 6.69 3.44 13.27
12/12/2021 1:00:00 PM 4.25 39.65 0.051 6.79 3.73 13.26
12/12/2021 1:15:00 PM 4.22 39.596 0.052 6.81 3.2 13.25
12/12/2021 1:30:00 PM 4.19 39.542 0.052 6.77 3.71 13.24
12/12/2021 1:45:00 PM 4.16 39.488 0.051 6.78 2.79 13.23
12/12/2021 2:00:00 PM 4.15 39.47 0.049 6.77 2.54 13.22
12/12/2021 2:15:00 PM 4.13 39.434 0.052 6.77 2.7 13.21
12/12/2021 2:30:00 PM 4.11 39.398 0.052 6.77 4.42 13.22
12/12/2021 2:45:00 PM 4.08 39.344 0.053 6.78 3.57 13.21
12/12/2021 3:00:00 PM 4.06 39.308 0.053 6.78 3.95 13.21
12/12/2021 3:15:00 PM 4.03 39.254 0.053 6.77 3.17 13.2
12/12/2021 3:30:00 PM 4 39.2 0.051 6.75 3.1 13.2
12/12/2021 3:45:00 PM 3.97 39.146 0.053 6.74 2.98 13.19
12/12/2021 4:00:00 PM 3.94 39.092 0.053 6.73 2.69 13.19
12/12/2021 4:15:00 PM 3.9 39.02 0.051 6.73 2.78 13.18
12/12/2021 4:30:00 PM 3.86 38.948 0.053 6.59 2.17 13.17
12/12/2021 4:45:00 PM 3.82 38.876 0.05 6.71 2.51 13.15
12/12/2021 5:00:00 PM 3.77 38.786 0.052 6.72 2.63 13.14
12/12/2021 5:15:00 PM 3.72 38.696 0.053 6.69 4.41 13.15
12/12/2021 5:30:00 PM 3.67 38.606 0.053 6.68 2.28 13.15
12/12/2021 5:45:00 PM 3.62 38.516 0.053 6.65 2.83 13.17
12/12/2021 6:00:00 PM 3.58 38.444 0.053 6.69 2.8 13.18
12/12/2021 6:15:00 PM 3.52 38.336 0.053 6.68 3.96 13.2
12/12/2021 6:30:00 PM 3.47 38.246 0.053 6.68 3.85 13.23
12/12/2021 6:45:00 PM 3.42 38.156 0.053 6.69 4.26 13.25
12/12/2021 7:00:00 PM 3.37 38.066 0.053 6.68 3.25 13.27
12/12/2021 7:15:00 PM 3.32 37.976 0.052 6.67 3.03 13.28
12/12/2021 7:30:00 PM 3.28 37.904 0.052 6.69 2.5 13.3
12/12/2021 7:45:00 PM 3.24 37.832 0.053 6.68 2.78 13.31
12/12/2021 8:00:00 PM 3.2 37.76 0.052 6.67 2.94 13.32
12/12/2021 8:15:00 PM 3.16 37.688 0.053 6.68 3.03 13.33
12/12/2021 8:30:00 PM 3.13 37.634 0.05 6.66 2.26 13.34
12/12/2021 8:45:00 PM 3.09 37.562 0.053 6.67 3.17 13.37
12/12/2021 9:00:00 PM 3.05 37.49 0.052 6.7 2.98 13.38
12/12/2021 9:15:00 PM 3.02 37.436 0.053 6.67 2.25 13.39
12/12/2021 9:30:00 PM 2.98 37.364 0.053 6.67 2.88 13.42
12/12/2021 9:45:00 PM 2.94 37.292 0.05 6.67 3.35 13.44
12/12/2021 10:00:00 PM 2.91 37.238 0.051 6.66 2.72 13.45
12/12/2021 10:15:00 PM 2.87 37.166 0.05 6.66 2.4 13.47
12/12/2021 10:30:00 PM 2.83 37.094 0.053 6.67 2.96 13.48
12/12/2021 10:45:00 PM 2.8 37.04 0.053 6.66 3.25 13.49
12/12/2021 11:00:00 PM 2.76 36.968 0.053 6.65 3.88 13.5
12/12/2021 11:15:00 PM 2.73 36.914 0.053 6.66 3.41 13.51
12/12/2021 11:30:00 PM 2.69 36.842 0.053 6.65 4.23 13.52
12/12/2021 11:45:00 PM 2.65 36.77 0.053 6.65 3.51 13.53
12/13/2021 12:00:00 AM 2.61 36.698 0.053 6.66 2.9 13.55
12/13/2021 12:15:00 AM 2.57 36.626 0.053 6.66 2.16 13.55
12/13/2021 12:30:00 AM 2.53 36.554 0.053 6.66 2.03 13.57
12/13/2021 12:45:00 AM 2.5 36.5 0.052 6.65 2.69 13.58
12/13/2021 1:00:00 AM 2.46 36.428 0.053 6.62 3.49 13.6
12/13/2021 1:15:00 AM 2.43 36.374 0.053 6.64 2.05 13.62
12/13/2021 1:30:00 AM 2.4 36.32 0.053 6.64 2.48 13.64
12/13/2021 1:45:00 AM 2.37 36.266 0.052 6.64 3.86 13.66
12/13/2021 2:00:00 AM 2.35 36.23 0.052 6.65 3.83 13.67
12/13/2021 2:15:00 AM 2.32 36.176 0.051 6.64 2.44 13.69
12/13/2021 2:30:00 AM 2.3 36.14 0.054 6.64 3.71 13.7
12/13/2021 2:45:00 AM 2.28 36.104 0.054 6.64 2.38 13.71
12/13/2021 3:00:00 AM 2.26 36.068 0.054 6.64 1.97 13.71
12/13/2021 3:15:00 AM 2.25 36.05 0.053 6.64 2.32 13.72
12/13/2021 3:30:00 AM 2.23 36.014 0.052 6.63 3.13 13.73
12/13/2021 3:45:00 AM 2.22 35.996 0.054 6.65 2.32 13.74
12/13/2021 4:00:00 AM 2.21 35.978 0.05 6.64 2.75 13.74
12/13/2021 4:15:00 AM 2.21 35.978 0.051 6.63 3.18 13.74
12/13/2021 4:30:00 AM 2.2 35.96 0.054 6.67 2.09 13.75
12/13/2021 4:45:00 AM 2.19 35.942 0.047 6.63 2.81 13.74
12/13/2021 5:00:00 AM 2.2 35.96 0.053 6.63 2.3 13.74
12/13/2021 5:15:00 AM 2.2 35.96 0.045 6.63 2.25 13.75
12/13/2021 5:30:00 AM 2.2 35.96 0.053 6.64 3.32 13.74
12/13/2021 5:45:00 AM 2.2 35.96 0.053 6.65 2.99 13.74
12/13/2021 6:00:00 AM 2.2 35.96 0.053 6.64 2.87 13.75
12/13/2021 6:15:00 AM 2.21 35.978 0.047 6.64 3.98 13.75
12/13/2021 6:30:00 AM 2.22 35.996 0.054 6.66 2.75 13.74
12/13/2021 6:45:00 AM 2.23 36.014 0.054 6.64 1.85 13.75
12/13/2021 7:00:00 AM 2.24 36.032 0.051 6.63 2.16 13.74
12/13/2021 7:15:00 AM 2.24 36.032 0.044 6.63 2.78 13.74
12/13/2021 7:30:00 AM 2.25 36.05 0.054 6.64 3.26 13.75
12/13/2021 7:45:00 AM 2.25 36.05 0.044 6.64 2.27 13.76
12/13/2021 8:00:00 AM 2.25 36.05 0.053 6.66 3.2 13.8
12/13/2021 8:15:00 AM 2.27 36.086 0.054 6.69 2.48 13.86
12/13/2021 8:30:00 AM 2.3 36.14 0.044 6.71 2.72 13.91
12/13/2021 8:45:00 AM 2.27 36.086 0.054 7.39 1.61 13.52
12/13/2021 9:00:00 AM 2.3 36.14 0.054 7.13 1.61 13.6
12/13/2021 9:15:00 AM 2.34 36.212 0.054 7.01 1.6 13.63
12/13/2021 9:30:00 AM 2.39 36.302 0.053 6.93 1.6 13.64
12/13/2021 9:45:00 AM 2.45 36.41 0.053 6.9 1.6 13.64
12/13/2021 10:00:00 AM 2.49 36.482 0.053 6.88 1.57 13.6
12/13/2021 10:15:00 AM 2.54 36.572 0.053 6.86 1.56 13.58
12/13/2021 10:30:00 AM 2.6 36.68 0.053 6.86 1.51 13.57
12/13/2021 10:45:00 AM 2.7 36.86 0.053 6.87 1.58 13.55
12/13/2021 11:00:00 AM 2.8 37.04 0.053 6.89 1.54 13.53
12/13/2021 11:15:00 AM 2.91 37.238 0.053 6.9 1.54 13.5
12/13/2021 11:30:00 AM 3.01 37.418 0.053 6.9 1.55 13.47
12/13/2021 11:45:00 AM 3.11 37.598 0.053 6.91 1.58 13.44
12/13/2021 12:00:00 PM 3.2 37.76 0.053 6.92 1.52 13.41
12/13/2021 12:15:00 PM 3.26 37.868 0.053 6.92 1.52 13.38
12/13/2021 12:30:00 PM 3.31 37.958 0.053 6.92 1.52 13.35
12/13/2021 12:45:00 PM 3.34 38.012 0.053 6.92 1.56 13.33
12/13/2021 1:00:00 PM 3.35 38.03 0.053 6.92 1.52 13.31
12/13/2021 1:15:00 PM 3.35 38.03 0.053 6.92 1.54 13.29
12/13/2021 1:30:00 PM 3.36 38.048 0.053 6.92 1.55 13.27
12/13/2021 1:45:00 PM 3.37 38.066 0.053 6.92 1.48 13.24
12/13/2021 2:00:00 PM 3.38 38.084 0.053 6.91 1.55 13.22
12/13/2021 2:15:00 PM 3.4 38.12 0.053 6.91 1.53 13.2
12/13/2021 2:30:00 PM 3.42 38.156 0.053 6.9 1.53 13.17
12/13/2021 2:45:00 PM 3.43 38.174 0.053 6.9 1.53 13.15
12/13/2021 3:00:00 PM 3.44 38.192 0.053 6.89 1.53 13.14
12/13/2021 3:15:00 PM 3.44 38.192 0.053 6.89 1.77 13.12
12/13/2021 3:30:00 PM 3.44 38.192 0.054 6.88 1.54 13.1
12/13/2021 3:45:00 PM 3.44 38.192 0.054 6.87 1.55 13.08
12/13/2021 4:00:00 PM 3.44 38.192 0.054 6.87 1.52 13.06
12/13/2021 4:15:00 PM 3.43 38.174 0.054 6.86 1.55 13.04
12/13/2021 4:30:00 PM 3.42 38.156 0.054 6.85 1.62 13.03
12/13/2021 4:45:00 PM 3.4 38.12 0.054 6.84 1.72 13
12/13/2021 5:00:00 PM 3.37 38.066 0.054 6.83 1.78 12.99
12/13/2021 5:15:00 PM 3.34 38.012 0.054 6.82 2 12.99
12/13/2021 5:30:00 PM 3.31 37.958 0.054 6.84 2.31 12.99
12/13/2021 5:45:00 PM 3.28 37.904 0.054 6.81 2.64 13
12/13/2021 6:00:00 PM 3.25 37.85 0.054 6.81 3.05 13.01
12/13/2021 6:15:00 PM 3.22 37.796 0.054 6.8 3.43 13.01
12/13/2021 6:30:00 PM 3.18 37.724 0.054 6.76 3.73 13.02
12/13/2021 6:45:00 PM 3.15 37.67 0.054 6.76 3.95 13.03
12/13/2021 7:00:00 PM 3.12 37.616 0.054 6.77 4.17 13.04
12/13/2021 7:15:00 PM 3.09 37.562 0.054 6.76 4.38 13.05
12/13/2021 7:30:00 PM 3.06 37.508 0.054 6.76 4.68 13.06
12/13/2021 7:45:00 PM 3.03 37.454 0.054 6.76 4.91 13.07
12/13/2021 8:00:00 PM 3 37.4 0.054 6.76 5.01 13.09
12/13/2021 8:15:00 PM 2.97 37.346 0.055 6.76 5.14 13.1
12/13/2021 8:30:00 PM 2.94 37.292 0.055 6.75 5.38 13.11
12/13/2021 8:45:00 PM 2.91 37.238 0.055 6.75 5.75 13.12
12/13/2021 9:00:00 PM 2.89 37.202 0.055 6.75 5.52 13.13
12/13/2021 9:15:00 PM 2.86 37.148 0.055 6.75 5.83 13.14
12/13/2021 9:30:00 PM 2.84 37.112 0.055 6.76 5.75 13.15
12/13/2021 9:45:00 PM 2.82 37.076 0.055 6.75 5.74 13.16
12/13/2021 10:00:00 PM 2.8 37.04 0.055 6.75 5.75 13.17
12/13/2021 10:15:00 PM 2.78 37.004 0.055 6.75 5.42 13.17
12/13/2021 10:30:00 PM 2.75 36.95 0.055 6.75 5.49 13.19
12/13/2021 10:45:00 PM 2.73 36.914 0.055 6.75 5.31 13.19
12/13/2021 11:00:00 PM 2.71 36.878 0.055 6.75 5.44 13.21
12/13/2021 11:15:00 PM 2.69 36.842 0.055 6.75 5.33 13.22
12/13/2021 11:30:00 PM 2.67 36.806 0.055 6.75 5.4 13.22
12/13/2021 11:45:00 PM 2.65 36.77 0.055 6.75 5.48 13.23
12/14/2021 12:00:00 AM 2.63 36.734 0.055 6.75 5.45 13.24
12/14/2021 12:15:00 AM 2.61 36.698 0.055 6.75 5.54 13.25
12/14/2021 12:30:00 AM 2.58 36.644 0.055 6.75 5.58 13.27
12/14/2021 12:45:00 AM 2.56 36.608 0.055 6.75 5.73 13.27
12/14/2021 1:00:00 AM 2.54 36.572 0.055 6.75 6.05 13.28
12/14/2021 1:15:00 AM 2.51 36.518 0.055 6.75 6.1 13.3
12/14/2021 1:30:00 AM 2.49 36.482 0.055 6.75 6.28 13.3
12/14/2021 1:45:00 AM 2.46 36.428 0.055 6.75 6.04 13.32
12/14/2021 2:00:00 AM 2.43 36.374 0.055 6.74 5.95 13.33
12/14/2021 2:15:00 AM 2.4 36.32 0.055 6.74 5.75 13.34
12/14/2021 2:30:00 AM 2.37 36.266 0.055 6.74 5.41 13.35
12/14/2021 2:45:00 AM 2.34 36.212 0.055 6.74 5.02 13.36
12/14/2021 3:00:00 AM 2.31 36.158 0.055 6.75 4.51 13.38
12/14/2021 3:15:00 AM 2.29 36.122 0.055 6.74 4.14 13.39
12/14/2021 3:30:00 AM 2.26 36.068 0.055 6.74 3.89 13.4
12/14/2021 3:45:00 AM 2.23 36.014 0.055 6.74 3.58 13.41
12/14/2021 4:00:00 AM 2.2 35.96 0.055 6.74 3.33 13.43
12/14/2021 4:15:00 AM 2.17 35.906 0.055 6.74 3.16 13.44
12/14/2021 4:30:00 AM 2.15 35.87 0.055 6.74 2.97 13.45
12/14/2021 4:45:00 AM 2.12 35.816 0.055 6.74 2.86 13.46
12/14/2021 5:00:00 AM 2.1 35.78 0.055 6.74 2.76 13.47
12/14/2021 5:15:00 AM 2.07 35.726 0.055 6.74 2.61 13.48
12/14/2021 5:30:00 AM 2.05 35.69 0.055 6.73 2.54 13.5
12/14/2021 5:45:00 AM 2.03 35.654 0.055 6.74 2.52 13.5
12/14/2021 6:00:00 AM 2.01 35.618 0.055 6.74 2.49 13.51
12/14/2021 6:15:00 AM 1.99 35.582 0.055 6.73 2.3 13.52
12/14/2021 6:30:00 AM 1.97 35.546 0.055 6.73 2.22 13.54
12/14/2021 6:45:00 AM 1.95 35.51 0.054 6.74 2.19 13.55
12/14/2021 7:00:00 AM 1.93 35.474 0.054 6.74 2.19 13.56
12/14/2021 7:15:00 AM 1.91 35.438 0.054 6.74 2.09 13.57
12/14/2021 7:30:00 AM 1.89 35.402 0.054 6.74 2.12 13.59
12/14/2021 7:45:00 AM 1.87 35.366 0.054 6.74 2.06 13.62
12/14/2021 8:00:00 AM 1.86 35.348 0.054 6.75 2.02 13.66
12/14/2021 8:15:00 AM 1.86 35.348 0.054 6.76 2.03 13.7
12/14/2021 8:30:00 AM 1.86 35.348 0.054 6.77 2.03 13.74
12/14/2021 8:45:00 AM 1.87 35.366 0.054 6.79 1.93 13.77
12/14/2021 9:00:00 AM 1.89 35.402 0.054 6.8 1.89 13.8
12/14/2021 9:15:00 AM 1.92 35.456 0.054 6.82 1.89 13.83
12/14/2021 9:30:00 AM 1.95 35.51 0.054 6.82 1.87 13.84
12/14/2021 9:45:00 AM 1.99 35.582 0.054 6.84 1.81 13.85
12/14/2021 10:00:00 AM 2.05 35.69 0.054 6.85 1.85 13.87
12/14/2021 10:15:00 AM 2.11 35.798 0.054 6.86 1.85 13.86
12/14/2021 10:30:00 AM 2.2 35.96 0.054 6.87 1.8 13.86
12/14/2021 10:45:00 AM 2.31 36.158 0.054 6.89 1.73 13.85
12/14/2021 11:00:00 AM 2.45 36.41 0.053 6.9 1.75 13.83
12/14/2021 11:15:00 AM 2.61 36.698 0.053 6.92 1.75 13.8
12/14/2021 11:30:00 AM 2.75 36.95 0.053 6.94 1.69 13.75
12/14/2021 11:45:00 AM 2.84 37.112 0.053 6.94 1.68 13.71
12/14/2021 12:00:00 PM 2.94 37.292 0.053 6.95 1.63 13.67
12/14/2021 12:15:00 PM 3.01 37.418 0.053 6.94 1.61 13.63
12/14/2021 12:30:00 PM 3.08 37.544 0.053 6.95 1.63 13.59
12/14/2021 12:45:00 PM 3.14 37.652 0.053 6.95 1.59 13.57
12/14/2021 1:00:00 PM 3.16 37.688 0.053 6.95 1.61 13.54
12/14/2021 1:15:00 PM 3.17 37.706 0.053 6.94 1.6 13.52
12/14/2021 1:30:00 PM 3.18 37.724 0.053 6.94 1.55 13.5
12/14/2021 1:45:00 PM 3.21 37.778 0.053 6.94 1.59 13.47
12/14/2021 2:00:00 PM 3.24 37.832 0.053 6.93 1.61 13.45
12/14/2021 2:15:00 PM 3.26 37.868 0.053 6.93 1.59 13.41
12/14/2021 2:30:00 PM 3.29 37.922 0.053 6.93 1.59 13.39
12/14/2021 2:45:00 PM 3.3 37.94 0.053 6.92 1.59 13.36
12/14/2021 3:00:00 PM 3.31 37.958 0.053 6.91 1.61 13.34
12/14/2021 3:15:00 PM 3.31 37.958 0.053 6.91 1.55 13.32
12/14/2021 3:30:00 PM 3.32 37.976 0.053 6.9 1.61 13.31
12/14/2021 3:45:00 PM 3.32 37.976 0.053 6.89 1.71 13.29
12/14/2021 4:00:00 PM 3.31 37.958 0.054 6.89 1.56 13.27
12/14/2021 4:15:00 PM 3.3 37.94 0.054 6.88 1.55 13.24
12/14/2021 4:30:00 PM 3.29 37.922 0.054 6.87 1.59 13.22
12/14/2021 4:45:00 PM 3.27 37.886 0.054 6.86 1.62 13.2
12/14/2021 5:00:00 PM 3.25 37.85 0.054 6.85 1.73 13.18
12/14/2021 5:15:00 PM 3.22 37.796 0.054 6.84 1.81 13.17
12/14/2021 5:30:00 PM 3.2 37.76 0.054 6.83 1.9 13.18
12/14/2021 5:45:00 PM 3.16 37.688 0.054 6.83 2.18 13.18
12/14/2021 6:00:00 PM 3.13 37.634 0.054 6.83 2.35 13.19
12/14/2021 6:15:00 PM 3.1 37.58 0.054 6.83 2.53 13.2
12/14/2021 6:30:00 PM 3.07 37.526 0.054 6.82 2.68 13.21
12/14/2021 6:45:00 PM 3.03 37.454 0.054 6.82 2.95 13.22
12/14/2021 7:00:00 PM 3 37.4 0.054 6.82 3.18 13.24
12/14/2021 7:15:00 PM 2.97 37.346 0.054 6.8 3.42 13.25
12/14/2021 7:30:00 PM 2.94 37.292 0.055 6.78 3.72 13.26
12/14/2021 7:45:00 PM 2.91 37.238 0.055 6.78 4.02 13.27
12/14/2021 8:00:00 PM 2.88 37.184 0.055 6.79 4.25 13.28
12/14/2021 8:15:00 PM 2.85 37.13 0.055 6.79 4.66 13.3
12/14/2021 8:30:00 PM 2.83 37.094 0.055 6.79 5.11 13.3
12/14/2021 8:45:00 PM 2.8 37.04 0.055 6.79 5.01 13.32
12/14/2021 9:00:00 PM 2.77 36.986 0.055 6.79 5.29 13.32
12/14/2021 9:15:00 PM 2.75 36.95 0.055 6.78 5.64 13.33
12/14/2021 9:30:00 PM 2.73 36.914 0.055 6.79 5.81 13.33
12/14/2021 9:45:00 PM 2.71 36.878 0.055 6.78 5.72 13.34
12/14/2021 10:00:00 PM 2.7 36.86 0.055 6.78 5.97 13.35
12/14/2021 10:15:00 PM 2.69 36.842 0.055 6.79 6.22 13.36
12/14/2021 10:30:00 PM 2.67 36.806 0.055 6.79 6.33 13.36
12/14/2021 10:45:00 PM 2.65 36.77 0.055 6.79 6.24 13.37
12/14/2021 11:00:00 PM 2.62 36.716 0.055 6.79 5.99 13.38
12/14/2021 11:15:00 PM 2.6 36.68 0.055 6.78 6.25 13.38
12/14/2021 11:30:00 PM 2.57 36.626 0.055 6.77 5.84 13.39
12/14/2021 11:45:00 PM 2.55 36.59 0.055 6.8 6.03 13.4
12/15/2021 12:00:00 AM 2.54 36.572 0.055 6.8 6.03 13.41
12/15/2021 12:15:00 AM 2.52 36.536 0.055 6.8 5.93 13.42
12/15/2021 12:30:00 AM 2.5 36.5 0.055 6.8 6 13.43
12/15/2021 12:45:00 AM 2.48 36.464 0.055 6.8 5.88 13.44
12/15/2021 1:00:00 AM 2.46 36.428 0.055 6.8 5.85 13.44
12/15/2021 1:15:00 AM 2.43 36.374 0.055 6.79 5.93 13.45
12/15/2021 1:30:00 AM 2.41 36.338 0.055 6.79 5.88 13.46
12/15/2021 1:45:00 AM 2.38 36.284 0.055 6.79 5.79 13.47
12/15/2021 2:00:00 AM 2.35 36.23 0.055 6.79 5.52 13.47
12/15/2021 2:15:00 AM 2.32 36.176 0.055 6.79 5.49 13.49
12/15/2021 2:30:00 AM 2.3 36.14 0.055 6.78 5.24 13.5
12/15/2021 2:45:00 AM 2.27 36.086 0.055 6.78 4.79 13.51
12/15/2021 3:00:00 AM 2.24 36.032 0.055 6.78 4.49 13.52
12/15/2021 3:15:00 AM 2.21 35.978 0.055 6.78 4.31 13.53
12/15/2021 3:30:00 AM 2.18 35.924 0.055 6.79 3.81 13.54
12/15/2021 3:45:00 AM 2.15 35.87 0.055 6.78 3.57 13.54
12/15/2021 4:00:00 AM 2.12 35.816 0.055 6.79 3.34 13.56
12/15/2021 4:15:00 AM 2.1 35.78 0.055 6.79 3.12 13.57
12/15/2021 4:30:00 AM 2.07 35.726 0.055 6.79 2.94 13.58
12/15/2021 4:45:00 AM 2.04 35.672 0.055 6.79 2.94 13.59
12/15/2021 5:00:00 AM 2.02 35.636 0.055 6.79 2.77 13.6
12/15/2021 5:15:00 AM 2.01 35.618 0.055 6.79 2.67 13.61
12/15/2021 5:30:00 AM 1.99 35.582 0.055 6.79 2.52 13.62
12/15/2021 5:45:00 AM 1.98 35.564 0.055 6.79 2.48 13.63
12/15/2021 6:00:00 AM 1.97 35.546 0.055 6.79 2.41 13.63
12/15/2021 6:15:00 AM 1.96 35.528 0.055 6.78 2.38 13.64
12/15/2021 6:30:00 AM 1.95 35.51 0.055 6.79 2.23 13.65
12/15/2021 6:45:00 AM 1.94 35.492 0.055 6.79 2.24 13.65
12/15/2021 7:00:00 AM 1.94 35.492 0.055 6.79 2.2 13.65
12/15/2021 7:15:00 AM 1.93 35.474 0.055 6.79 2.15 13.65
12/15/2021 7:30:00 AM 1.92 35.456 0.055 6.8 2.08 13.66
12/15/2021 7:45:00 AM 1.9 35.42 0.055 6.8 2.09 13.69
12/15/2021 8:00:00 AM 1.89 35.402 0.055 6.81 2.05 13.73
12/15/2021 8:15:00 AM 1.9 35.42 0.055 6.82 2 13.78
12/15/2021 8:30:00 AM 1.92 35.456 0.054 6.84 2 13.84
12/15/2021 8:45:00 AM 1.93 35.474 0.054 6.85 1.97 13.87
12/15/2021 9:00:00 AM 1.98 35.564 0.054 6.87 1.95 13.92
12/15/2021 9:15:00 AM 2.02 35.636 0.054 6.88 1.94 13.93
12/15/2021 9:30:00 AM 2.06 35.708 0.054 6.89 1.94 13.93
12/15/2021 9:45:00 AM 2.13 35.834 0.054 6.91 1.81 13.95
12/15/2021 10:00:00 AM 2.2 35.96 0.054 6.92 1.98 13.96
12/15/2021 10:15:00 AM 2.28 36.104 0.054 6.94 1.85 13.95
12/15/2021 10:30:00 AM 2.36 36.248 0.054 6.94 1.78 13.93
12/15/2021 10:45:00 AM 2.45 36.41 0.054 6.95 1.77 13.91
12/15/2021 11:00:00 AM 2.53 36.554 0.054 6.95 1.78 13.88
12/15/2021 11:15:00 AM 2.6 36.68 0.054 6.96 1.76 13.85
12/15/2021 11:30:00 AM 2.67 36.806 0.054 6.98 1.78 13.81
12/15/2021 11:45:00 AM 2.75 36.95 0.053 6.98 1.78 13.78
12/15/2021 12:00:00 PM 2.8 37.04 0.053 6.98 1.8 13.72
12/15/2021 12:15:00 PM 2.86 37.148 0.053 6.98 1.69 13.69
12/15/2021 12:30:00 PM 2.92 37.256 0.053 6.98 1.95 13.66
12/15/2021 12:45:00 PM 2.97 37.346 0.053 6.98 1.74 13.63
12/15/2021 1:00:00 PM 3.02 37.436 0.053 6.98 1.71 13.59
12/15/2021 1:15:00 PM 3.06 37.508 0.053 6.97 1.66 13.55
12/15/2021 1:30:00 PM 3.1 37.58 0.053 6.97 1.7 13.5
12/15/2021 1:45:00 PM 3.13 37.634 0.053 6.96 1.68 13.46
12/15/2021 2:00:00 PM 3.17 37.706 0.053 6.95 1.61 13.43
12/15/2021 2:15:00 PM 3.21 37.778 0.053 6.95 1.68 13.41
12/15/2021 2:30:00 PM 3.24 37.832 0.053 6.94 1.68 13.38
12/15/2021 2:45:00 PM 3.27 37.886 0.053 6.93 1.61 13.35
12/15/2021 3:00:00 PM 3.29 37.922 0.054 6.93 1.72 13.3
12/15/2021 3:15:00 PM 3.32 37.976 0.054 6.92 1.58 13.28
12/15/2021 3:30:00 PM 3.34 38.012 0.054 6.91 1.61 13.23
12/15/2021 3:45:00 PM 3.36 38.048 0.054 6.91 1.6 13.22
12/15/2021 4:00:00 PM 3.38 38.084 0.054 6.9 1.66 13.2
12/15/2021 4:15:00 PM 3.4 38.12 0.054 6.89 1.62 13.16
12/15/2021 4:30:00 PM 3.41 38.138 0.054 6.88 1.68 13.12
12/15/2021 4:45:00 PM 3.42 38.156 0.054 6.87 1.67 13.09
12/15/2021 5:00:00 PM 3.43 38.174 0.054 6.87 1.75 13.07
12/15/2021 5:15:00 PM 3.45 38.21 0.054 6.86 1.76 13.05
12/15/2021 5:30:00 PM 3.46 38.228 0.054 6.86 1.66 13.04
12/15/2021 5:45:00 PM 3.46 38.228 0.054 6.85 1.62 13.03
12/15/2021 6:00:00 PM 3.47 38.246 0.054 6.85 1.67 13.02
12/15/2021 6:15:00 PM 3.48 38.264 0.054 6.85 1.69 13.02
12/15/2021 6:30:00 PM 3.49 38.282 0.054 6.85 1.75 13
12/15/2021 6:45:00 PM 3.5 38.3 0.054 6.84 1.86 13
12/15/2021 7:00:00 PM 3.51 38.318 0.055 6.84 2.05 13
12/15/2021 7:15:00 PM 3.52 38.336 0.055 6.84 2.23 12.99
12/15/2021 7:30:00 PM 3.53 38.354 0.055 6.84 2.32 12.98
12/15/2021 7:45:00 PM 3.55 38.39 0.055 6.84 2.63 12.98
12/15/2021 8:00:00 PM 3.56 38.408 0.055 6.84 3.05 12.97
12/15/2021 8:15:00 PM 3.57 38.426 0.055 6.84 3.21 12.96
12/15/2021 8:30:00 PM 3.59 38.462 0.055 6.84 3.71 12.95
12/15/2021 8:45:00 PM 3.6 38.48 0.055 6.84 3.93 12.94
12/15/2021 9:00:00 PM 3.62 38.516 0.055 6.83 4.51 12.94
12/15/2021 9:15:00 PM 3.63 38.534 0.055 6.82 4.95 12.93
12/15/2021 9:30:00 PM 3.65 38.57 0.055 6.83 5.41 12.92
12/15/2021 9:45:00 PM 3.67 38.606 0.055 6.83 5.54 12.91
12/15/2021 10:00:00 PM 3.68 38.624 0.055 6.83 6.39 12.9
12/15/2021 10:15:00 PM 3.69 38.642 0.055 6.83 6.48 12.89
12/15/2021 10:30:00 PM 3.71 38.678 0.055 6.83 6.78 12.88
12/15/2021 10:45:00 PM 3.72 38.696 0.055 6.83 7.57 12.87
12/15/2021 11:00:00 PM 3.73 38.714 0.055 6.83 7.52 12.87
12/15/2021 11:15:00 PM 3.73 38.714 0.055 6.82 7.6 12.86
12/15/2021 11:30:00 PM 3.73 38.714 0.055 6.82 7.67 12.86
12/15/2021 11:45:00 PM 3.73 38.714 0.055 6.83 8.01 12.85
12/16/2021 12:00:00 AM 3.74 38.732 0.055 6.82 7.56 12.85
12/16/2021 12:15:00 AM 3.74 38.732 0.055 6.83 7.86 12.85
12/16/2021 12:30:00 AM 3.75 38.75 0.055 6.83 8.09 12.84
12/16/2021 12:45:00 AM 3.75 38.75 0.055 6.82 7.95 12.84
12/16/2021 1:00:00 AM 3.74 38.732 0.055 6.82 8.09 12.84
12/16/2021 1:15:00 AM 3.74 38.732 0.055 6.82 7.83 12.84
12/16/2021 1:30:00 AM 3.73 38.714 0.055 6.82 7.98 12.84
12/16/2021 1:45:00 AM 3.73 38.714 0.055 6.82 7.87 12.83
12/16/2021 2:00:00 AM 3.73 38.714 0.055 6.81 7.95 12.84
12/16/2021 2:15:00 AM 3.73 38.714 0.055 6.81 7.98 12.83
12/16/2021 2:30:00 AM 3.73 38.714 0.055 6.82 8.16 12.84
12/16/2021 2:45:00 AM 3.74 38.732 0.054 6.81 8.3 12.83
12/16/2021 3:00:00 AM 3.74 38.732 0.054 6.81 8.03 12.83
12/16/2021 3:15:00 AM 3.74 38.732 0.054 6.82 8.32 12.82
12/16/2021 3:30:00 AM 3.75 38.75 0.054 6.82 7.83 12.83
12/16/2021 3:45:00 AM 3.76 38.768 0.054 6.82 7.97 12.81
12/16/2021 4:00:00 AM 3.76 38.768 0.054 6.82 7.86 12.81
12/16/2021 4:15:00 AM 3.77 38.786 0.054 6.82 7.36 12.81
12/16/2021 4:30:00 AM 3.78 38.804 0.054 6.82 6.68 12.81
12/16/2021 4:45:00 AM 3.79 38.822 0.054 6.81 5.8 12.8
12/16/2021 5:00:00 AM 3.8 38.84 0.054 6.81 5.29 12.8
12/16/2021 5:15:00 AM 3.81 38.858 0.054 6.81 5.08 12.79
12/16/2021 5:30:00 AM 3.81 38.858 0.054 6.81 4.66 12.79
12/16/2021 5:45:00 AM 3.82 38.876 0.054 6.82 4.18 12.79
12/16/2021 6:00:00 AM 3.83 38.894 0.054 6.81 4.14 12.78
12/16/2021 6:15:00 AM 3.84 38.912 0.054 6.81 3.6 12.78
12/16/2021 6:30:00 AM 3.84 38.912 0.054 6.81 3.48 12.78
12/16/2021 6:45:00 AM 3.84 38.912 0.054 6.81 3.3 12.77
12/16/2021 7:00:00 AM 3.84 38.912 0.054 6.82 3.26 12.77
12/16/2021 7:15:00 AM 3.84 38.912 0.054 6.82 3.17 12.77
12/16/2021 7:30:00 AM 3.84 38.912 0.054 6.81 2.9 12.77
12/16/2021 7:45:00 AM 3.85 38.93 0.054 6.82 3.06 12.8
12/16/2021 8:00:00 AM 3.86 38.948 0.054 6.83 2.74 12.84
12/16/2021 8:15:00 AM 3.87 38.966 0.054 6.84 2.69 12.88
12/16/2021 8:30:00 AM 3.89 39.002 0.054 6.85 2.69 12.92
12/16/2021 8:45:00 AM 3.91 39.038 0.054 6.87 2.56 12.96
12/16/2021 9:00:00 AM 3.94 39.092 0.054 6.88 2.56 12.99
12/16/2021 9:15:00 AM 3.97 39.146 0.054 6.9 2.53 13.01
12/16/2021 9:30:00 AM 3.99 39.182 0.054 6.9 2.43 13.02
12/16/2021 9:45:00 AM 4.02 39.236 0.054 6.91 2.25 13.03
12/16/2021 10:00:00 AM 4.07 39.326 0.053 6.92 2.29 13.04
12/16/2021 10:15:00 AM 4.13 39.434 0.053 6.93 2.34 13.05
12/16/2021 10:30:00 AM 4.19 39.542 0.053 6.95 2.2 13.05
12/16/2021 10:45:00 AM 4.27 39.686 0.053 6.96 2.12 13.04
12/16/2021 11:00:00 AM 4.37 39.866 0.053 6.97 2.2 13.02
12/16/2021 11:15:00 AM 4.49 40.082 0.053 6.98 2.07 12.99
12/16/2021 11:30:00 AM 4.6 40.28 0.053 6.99 1.99 12.96
12/16/2021 11:45:00 AM 4.71 40.478 0.053 7 2.03 12.92
12/16/2021 12:00:00 PM 4.82 40.676 0.053 7.01 2.05 12.87
12/16/2021 12:15:00 PM 4.91 40.838 0.053 7.02 1.98 12.84
12/16/2021 12:30:00 PM 5 41 0.052 7.02 1.98 12.81
12/16/2021 12:45:00 PM 5.07 41.126 0.052 7.03 1.96 12.78
12/16/2021 1:00:00 PM 5.11 41.198 0.052 7.03 1.94 12.76
12/16/2021 1:15:00 PM 5.16 41.288 0.052 7.03 1.92 12.75
12/16/2021 1:30:00 PM 5.22 41.396 0.052 7.04 2.01 12.73
12/16/2021 1:45:00 PM 5.26 41.468 0.052 7.04 1.92 12.69
12/16/2021 2:00:00 PM 5.3 41.54 0.052 7.04 1.91 12.64
12/16/2021 2:15:00 PM 5.34 41.612 0.052 7.02 1.9 12.6
12/16/2021 2:30:00 PM 5.38 41.684 0.052 7.01 1.82 12.55
12/16/2021 2:45:00 PM 5.41 41.738 0.052 7 1.88 12.51
12/16/2021 3:00:00 PM 5.43 41.774 0.052 7 2.03 12.48
12/16/2021 3:15:00 PM 5.45 41.81 0.052 6.99 1.88 12.46
12/16/2021 3:30:00 PM 5.47 41.846 0.052 6.99 1.88 12.45
12/16/2021 3:45:00 PM 5.49 41.882 0.052 6.98 1.91 12.43
12/16/2021 4:00:00 PM 5.51 41.918 0.053 6.97 1.84 12.39
12/16/2021 4:15:00 PM 5.53 41.954 0.053 6.96 1.92 12.34
12/16/2021 4:30:00 PM 5.53 41.954 0.053 6.94 1.84 12.28
12/16/2021 4:45:00 PM 5.54 41.972 0.053 6.92 1.85 12.23
12/16/2021 5:00:00 PM 5.54 41.972 0.053 6.91 1.88 12.19
12/16/2021 5:15:00 PM 5.54 41.972 0.053 6.9 1.91 12.17
12/16/2021 5:30:00 PM 5.55 41.99 0.053 6.89 1.92 12.16
12/16/2021 5:45:00 PM 5.55 41.99 0.053 6.89 2.18 12.15
12/16/2021 6:00:00 PM 5.56 42.008 0.053 6.87 2.26 12.14
12/16/2021 6:15:00 PM 5.57 42.026 0.053 6.87 2.46 12.13
12/16/2021 6:30:00 PM 5.58 42.044 0.053 6.87 2.95 12.13
12/16/2021 6:45:00 PM 5.58 42.044 0.054 6.86 3.47 12.13
12/16/2021 7:00:00 PM 5.59 42.062 0.054 6.86 3.7 12.12
12/16/2021 7:15:00 PM 5.6 42.08 0.054 6.86 4.27 12.12
12/16/2021 7:30:00 PM 5.6 42.08 0.054 6.85 4.6 12.11
12/16/2021 7:45:00 PM 5.61 42.098 0.054 6.85 5.16 12.11
12/16/2021 8:00:00 PM 5.62 42.116 0.054 6.85 5.83 12.11
12/16/2021 8:15:00 PM 5.63 42.134 0.054 6.85 6.07 12.1
12/16/2021 8:30:00 PM 5.64 42.152 0.054 6.85 6.11 12.1
12/16/2021 8:45:00 PM 5.66 42.188 0.054 6.85 6.64 12.09
12/16/2021 9:00:00 PM 5.67 42.206 0.054 6.85 7.2 12.08
12/16/2021 9:15:00 PM 5.69 42.242 0.054 6.85 7.1 12.08
12/16/2021 9:30:00 PM 5.69 42.242 0.054 6.85 7.68 12.07
12/16/2021 9:45:00 PM 5.71 42.278 0.054 6.84 7.93 12.07
12/16/2021 10:00:00 PM 5.72 42.296 0.054 6.84 7.75 12.06
12/16/2021 10:15:00 PM 5.74 42.332 0.054 6.84 7.74 12.06
12/16/2021 10:30:00 PM 5.76 42.368 0.054 6.84 8.17 12.05
12/16/2021 10:45:00 PM 5.78 42.404 0.054 6.84 7.94 12.05
12/16/2021 11:00:00 PM 5.79 42.422 0.054 6.85 7.61 12.04
12/16/2021 11:15:00 PM 5.8 42.44 0.054 6.85 7.59 12.03
12/16/2021 11:30:00 PM 5.83 42.494 0.054 6.85 7.36 12.03
12/16/2021 11:45:00 PM 5.85 42.53 0.054 6.85 6.52 12.02
12/17/2021 12:00:00 AM 5.88 42.584 0.054 6.85 6.13 12.01
12/17/2021 12:15:00 AM 5.9 42.62 0.054 6.85 5.62 12
12/17/2021 12:30:00 AM 5.91 42.638 0.054 6.85 5.29 12
12/17/2021 12:45:00 AM 5.92 42.656 0.054 6.86 5.39 11.99
12/17/2021 1:00:00 AM 5.92 42.656 0.054 6.86 4.84 11.99
12/17/2021 1:15:00 AM 5.92 42.656 0.054 6.85 4.53 11.99
12/17/2021 1:30:00 AM 5.94 42.692 0.054 6.86 4.63 11.99
12/17/2021 1:45:00 AM 5.95 42.71 0.054 6.86 4.79 11.99
12/17/2021 2:00:00 AM 5.96 42.728 0.054 6.86 4.99 11.99
12/17/2021 2:15:00 AM 5.95 42.71 0.054 6.86 5 12
12/17/2021 2:30:00 AM 5.94 42.692 0.054 6.86 5.42 12.01
12/17/2021 2:45:00 AM 5.94 42.692 0.054 6.86 5.74 12
12/17/2021 3:00:00 AM 5.95 42.71 0.054 6.87 6.16 12.01
12/17/2021 3:15:00 AM 5.94 42.692 0.054 6.87 6.62 12.02
12/17/2021 3:30:00 AM 5.93 42.674 0.054 6.87 6.58 12.02
12/17/2021 3:45:00 AM 5.92 42.656 0.054 6.86 6.61 12.02
12/17/2021 4:00:00 AM 5.9 42.62 0.054 6.87 6.45 12.03
12/17/2021 4:15:00 AM 5.89 42.602 0.054 6.86 6.11 12.04
12/17/2021 4:30:00 AM 5.87 42.566 0.054 6.87 5.82 12.05
12/17/2021 4:45:00 AM 5.85 42.53 0.054 6.87 5.26 12.06
12/17/2021 5:00:00 AM 5.83 42.494 0.054 6.86 4.87 12.06
12/17/2021 5:15:00 AM 5.8 42.44 0.054 6.86 4.57 12.07
12/17/2021 5:30:00 AM 5.77 42.386 0.054 6.87 4.28 12.08
12/17/2021 5:45:00 AM 5.73 42.314 0.054 6.87 4 12.1
12/17/2021 6:00:00 AM 5.69 42.242 0.054 6.86 3.77 12.11
12/17/2021 6:15:00 AM 5.65 42.17 0.054 6.86 3.6 12.12
12/17/2021 6:30:00 AM 5.62 42.116 0.054 6.86 3.61 12.14
12/17/2021 6:45:00 AM 5.58 42.044 0.054 6.86 3.28 12.15
12/17/2021 7:00:00 AM 5.54 41.972 0.054 6.85 3.12 12.17
12/17/2021 7:15:00 AM 5.49 41.882 0.054 6.86 3.04 12.19
12/17/2021 7:30:00 AM 5.45 41.81 0.054 6.86 3.01 12.22
12/17/2021 7:45:00 AM 5.41 41.738 0.054 6.86 2.98 12.25
12/17/2021 8:00:00 AM 5.37 41.666 0.054 6.86 2.86 12.29
12/17/2021 8:15:00 AM 5.33 41.594 0.054 6.87 2.96 12.33
12/17/2021 8:30:00 AM 5.3 41.54 0.053 6.88 2.87 12.38
12/17/2021 8:45:00 AM 5.26 41.468 0.053 6.89 2.67 12.42
12/17/2021 9:00:00 AM 5.23 41.414 0.053 6.9 2.67 12.47
12/17/2021 9:15:00 AM 5.2 41.36 0.053 6.91 2.56 12.52
12/17/2021 9:30:00 AM 5.18 41.324 0.053 6.92 2.63 12.55
12/17/2021 9:45:00 AM 5.18 41.324 0.053 6.92 2.57 12.59
12/17/2021 10:00:00 AM 5.18 41.324 0.053 6.94 2.44 12.62
12/17/2021 10:15:00 AM 5.19 41.342 0.053 6.95 2.47 12.65
12/17/2021 10:30:00 AM 5.2 41.36 0.053 6.96 2.41 12.67
12/17/2021 10:45:00 AM 5.22 41.396 0.053 6.97 2.3 12.68
12/17/2021 11:00:00 AM 5.26 41.468 0.053 6.98 2.29 12.69
12/17/2021 11:15:00 AM 5.32 41.576 0.053 6.99 2.22 12.7
12/17/2021 11:30:00 AM 5.37 41.666 0.053 7.01 2.26 12.7
12/17/2021 11:45:00 AM 5.42 41.756 0.053 7.02 2.24 12.71
12/17/2021 12:00:00 PM 5.47 41.846 0.052 7.03 2.19 12.73
12/17/2021 12:15:00 PM 5.51 41.918 0.052 7.04 2.17 12.73
12/17/2021 12:30:00 PM 5.54 41.972 0.052 7.05 2.19 12.73
12/17/2021 12:45:00 PM 5.55 41.99 0.052 7.06 2.08 12.72
12/17/2021 1:00:00 PM 5.56 42.008 0.052 7.06 2.23 12.71
12/17/2021 1:15:00 PM 5.56 42.008 0.052 7.06 2.14 12.7
12/17/2021 1:30:00 PM 5.56 42.008 0.052 7.07 2.11 12.7
12/17/2021 1:45:00 PM 5.57 42.026 0.052 7.07 2.07 12.7
12/17/2021 2:00:00 PM 5.58 42.044 0.052 7.07 2.1 12.69
12/17/2021 2:15:00 PM 5.58 42.044 0.052 7.06 2.06 12.67
12/17/2021 2:30:00 PM 5.58 42.044 0.052 7.06 1.98 12.64
12/17/2021 2:45:00 PM 5.58 42.044 0.052 7.05 1.97 12.62
12/17/2021 3:00:00 PM 5.58 42.044 0.052 7.05 2.21 12.6
12/17/2021 3:15:00 PM 5.58 42.044 0.052 7.03 2.02 12.58
12/17/2021 3:30:00 PM 5.59 42.062 0.052 7.02 2.01 12.55
12/17/2021 3:45:00 PM 5.59 42.062 0.052 7.01 1.98 12.52
12/17/2021 4:00:00 PM 5.58 42.044 0.052 6.99 2.01 12.47
12/17/2021 4:15:00 PM 5.57 42.026 0.053 6.97 1.96 12.41
12/17/2021 4:30:00 PM 5.54 41.972 0.053 6.95 2.01 12.36
12/17/2021 4:45:00 PM 5.51 41.918 0.053 6.93 2.04 12.32
12/17/2021 5:00:00 PM 5.48 41.864 0.053 6.91 1.98 12.29
12/17/2021 5:15:00 PM 5.44 41.792 0.053 6.9 1.98 12.28
12/17/2021 5:30:00 PM 5.4 41.72 0.053 6.89 2.04 12.27
12/17/2021 5:45:00 PM 5.36 41.648 0.053 6.88 2.05 12.28
12/17/2021 6:00:00 PM 5.31 41.558 0.053 6.88 2.05 12.29
12/17/2021 6:15:00 PM 5.26 41.468 0.053 6.88 2.09 12.3
12/17/2021 6:30:00 PM 5.21 41.378 0.054 6.88 2.21 12.32
12/17/2021 6:45:00 PM 5.16 41.288 0.054 6.87 2.24 12.33
12/17/2021 7:00:00 PM 5.11 41.198 0.054 6.87 2.49 12.35
12/17/2021 7:15:00 PM 5.05 41.09 0.054 6.87 2.79 12.37
12/17/2021 7:30:00 PM 5 41 0.054 6.86 2.89 12.39
12/17/2021 7:45:00 PM 4.95 40.91 0.054 6.86 3.26 12.4
12/17/2021 8:00:00 PM 4.9 40.82 0.054 6.86 3.38 12.41
12/17/2021 8:15:00 PM 4.84 40.712 0.054 6.86 3.6 12.43
12/17/2021 8:30:00 PM 4.79 40.622 0.054 6.86 3.91 12.45
12/17/2021 8:45:00 PM 4.73 40.514 0.054 6.86 4.33 12.47
12/17/2021 9:00:00 PM 4.68 40.424 0.054 6.86 4.81 12.49
12/17/2021 9:15:00 PM 4.62 40.316 0.054 6.85 4.8 12.51
12/17/2021 9:30:00 PM 4.57 40.226 0.054 6.85 5.13 12.53
12/17/2021 9:45:00 PM 4.52 40.136 0.054 6.85 5.35 12.55
12/17/2021 10:00:00 PM 4.47 40.046 0.054 6.85 5.66 12.56
12/17/2021 10:15:00 PM 4.42 39.956 0.054 6.85 5.62 12.58
12/17/2021 10:30:00 PM 4.38 39.884 0.054 6.85 6.59 12.59
12/17/2021 10:45:00 PM 4.34 39.812 0.054 6.84 6.13 12.61
12/17/2021 11:00:00 PM 4.31 39.758 0.054 6.84 6.44 12.61
12/17/2021 11:15:00 PM 4.27 39.686 0.054 6.84 6.28 12.62
12/17/2021 11:30:00 PM 4.25 39.65 0.054 6.84 6.44 12.64
12/17/2021 11:45:00 PM 4.23 39.614 0.054 6.84 6.8 12.64
12/18/2021 12:00:00 AM 4.21 39.578 0.054 6.85 6.96 12.65
12/18/2021 12:15:00 AM 4.19 39.542 0.054 6.84 7.08 12.66
12/18/2021 12:30:00 AM 4.18 39.524 0.054 6.84 7.42 12.66
12/18/2021 12:45:00 AM 4.16 39.488 0.054 6.84 7.51 12.67
12/18/2021 1:00:00 AM 4.15 39.47 0.054 6.84 7.92 12.67
12/18/2021 1:15:00 AM 4.14 39.452 0.054 6.84 8.47 12.68
12/18/2021 1:30:00 AM 4.13 39.434 0.054 6.84 9.19 12.68
12/18/2021 1:45:00 AM 4.12 39.416 0.054 6.84 9.66 12.68
12/18/2021 2:00:00 AM 4.11 39.398 0.054 6.84 9.43 12.69
12/18/2021 2:15:00 AM 4.11 39.398 0.054 6.83 10.02 12.69
12/18/2021 2:30:00 AM 4.1 39.38 0.054 6.84 9.45 12.69
12/18/2021 2:45:00 AM 4.09 39.362 0.054 6.84 9.07 12.69
12/18/2021 3:00:00 AM 4.09 39.362 0.054 6.83 8.72 12.7
12/18/2021 3:15:00 AM 4.09 39.362 0.054 6.83 7.56 12.7
12/18/2021 3:30:00 AM 4.09 39.362 0.054 6.83 7.5 12.7
12/18/2021 3:45:00 AM 4.1 39.38 0.054 6.83 6.79 12.7
12/18/2021 4:00:00 AM 4.1 39.38 0.054 6.84 6.01 12.7
12/18/2021 4:15:00 AM 4.1 39.38 0.054 6.83 5.7 12.69
12/18/2021 4:30:00 AM 4.1 39.38 0.054 6.83 5.16 12.7
12/18/2021 4:45:00 AM 4.11 39.398 0.054 6.83 5 12.69
12/18/2021 5:00:00 AM 4.11 39.398 0.054 6.83 4.52 12.69
12/18/2021 5:15:00 AM 4.11 39.398 0.054 6.84 4.38 12.7
12/18/2021 5:30:00 AM 4.11 39.398 0.054 6.83 4 12.69
12/18/2021 5:45:00 AM 4.11 39.398 0.054 6.83 3.89 12.69
12/18/2021 6:00:00 AM 4.12 39.416 0.054 6.83 3.52 12.69
12/18/2021 6:15:00 AM 4.12 39.416 0.054 6.83 3.5 12.68
12/18/2021 6:30:00 AM 4.12 39.416 0.054 6.84 3.31 12.69
12/18/2021 6:45:00 AM 4.12 39.416 0.054 6.84 3.32 12.69
12/18/2021 7:00:00 AM 4.12 39.416 0.054 6.84 3.2 12.69
12/18/2021 7:15:00 AM 4.12 39.416 0.054 6.84 2.99 12.69
12/18/2021 7:30:00 AM 4.12 39.416 0.054 6.84 3.01 12.69
12/18/2021 7:45:00 AM 4.12 39.416 0.054 6.84 2.82 12.69
12/18/2021 8:00:00 AM 4.12 39.416 0.054 6.85 2.86 12.71
12/18/2021 8:15:00 AM 4.12 39.416 0.053 6.85 2.73 12.72
12/18/2021 8:30:00 AM 4.12 39.416 0.053 6.86 2.81 12.75
12/18/2021 8:45:00 AM 4.12 39.416 0.053 6.86 2.75 12.77
12/18/2021 9:00:00 AM 4.12 39.416 0.053 6.87 2.71 12.77
12/18/2021 9:15:00 AM 4.12 39.416 0.053 6.87 2.69 12.76
12/18/2021 9:30:00 AM 4.11 39.398 0.053 6.87 2.54 12.76
12/18/2021 9:45:00 AM 4.11 39.398 0.053 6.87 2.57 12.78
12/18/2021 10:00:00 AM 4.12 39.416 0.053 6.88 2.52 12.81
12/18/2021 10:15:00 AM 4.12 39.416 0.053 6.89 2.56 12.84
12/18/2021 10:30:00 AM 4.12 39.416 0.053 6.9 2.49 12.87
12/18/2021 10:45:00 AM 4.13 39.434 0.053 6.91 2.41 12.88
12/18/2021 11:00:00 AM 4.13 39.434 0.053 6.91 2.51 12.89
12/18/2021 11:15:00 AM 4.14 39.452 0.053 6.92 2.4 12.87
12/18/2021 11:30:00 AM 4.14 39.452 0.053 6.92 2.34 12.88
12/18/2021 11:45:00 AM 4.15 39.47 0.052 6.92 2.41 12.87
12/18/2021 12:00:00 PM 4.16 39.488 0.052 6.92 2.41 12.87
12/18/2021 12:15:00 PM 4.16 39.488 0.052 6.92 2.36 12.85
12/18/2021 12:30:00 PM 4.16 39.488 0.052 6.92 2.33 12.83
12/18/2021 12:45:00 PM 4.17 39.506 0.052 6.92 2.29 12.83
12/18/2021 1:00:00 PM 4.18 39.524 0.052 6.92 2.34 12.81
12/18/2021 1:15:00 PM 4.19 39.542 0.052 6.92 2.34 12.81
12/18/2021 1:30:00 PM 4.19 39.542 0.052 6.92 2.39 12.79
12/18/2021 1:45:00 PM 4.2 39.56 0.052 6.93 2.32 12.8
12/18/2021 2:00:00 PM 4.22 39.596 0.052 6.94 2.22 12.84
12/18/2021 2:15:00 PM 4.24 39.632 0.052 6.95 2.25 12.84
12/18/2021 2:30:00 PM 4.25 39.65 0.053 6.94 2.31 12.81
12/18/2021 2:45:00 PM 4.25 39.65 0.053 6.93 2.25 12.76
12/18/2021 3:00:00 PM 4.26 39.668 0.053 6.93 2.35 12.71
12/18/2021 3:15:00 PM 4.26 39.668 0.053 6.92 2.21 12.67
12/18/2021 3:30:00 PM 4.26 39.668 0.053 6.91 2.33 12.64
12/18/2021 3:45:00 PM 4.27 39.686 0.053 6.9 2.31 12.61
12/18/2021 4:00:00 PM 4.27 39.686 0.053 6.89 2.23 12.6
12/18/2021 4:15:00 PM 4.27 39.686 0.053 6.88 2.28 12.58
12/18/2021 4:30:00 PM 4.28 39.704 0.053 6.88 2.39 12.58
12/18/2021 4:45:00 PM 4.28 39.704 0.053 6.88 2.42 12.56
12/18/2021 5:00:00 PM 4.28 39.704 0.053 6.87 2.35 12.56
12/18/2021 5:15:00 PM 4.28 39.704 0.053 6.87 2.38 12.55
12/18/2021 5:30:00 PM 4.29 39.722 0.053 6.87 2.42 12.54
12/18/2021 5:45:00 PM 4.29 39.722 0.053 6.87 2.41 12.55
12/18/2021 6:00:00 PM 4.29 39.722 0.053 6.86 2.39 12.54
12/18/2021 6:15:00 PM 4.29 39.722 0.053 6.86 2.47 12.54
12/18/2021 6:30:00 PM 4.29 39.722 0.053 6.86 2.43 12.53
12/18/2021 6:45:00 PM 4.3 39.74 0.053 6.86 2.54 12.53
12/18/2021 7:00:00 PM 4.3 39.74 0.053 6.85 2.58 12.53
12/18/2021 7:15:00 PM 4.3 39.74 0.053 6.86 2.49 12.52
12/18/2021 7:30:00 PM 4.3 39.74 0.053 6.86 2.51 12.53
12/18/2021 7:45:00 PM 4.31 39.758 0.054 6.86 2.6 12.52
12/18/2021 8:00:00 PM 4.31 39.758 0.054 6.85 2.66 12.52
12/18/2021 8:15:00 PM 4.31 39.758 0.054 6.86 2.63 12.52
12/18/2021 8:30:00 PM 4.32 39.776 0.054 6.85 2.63 12.51
12/18/2021 8:45:00 PM 4.32 39.776 0.054 6.85 2.6 12.51
12/18/2021 9:00:00 PM 4.33 39.794 0.054 6.85 2.68 12.5
12/18/2021 9:15:00 PM 4.33 39.794 0.054 6.85 2.71 12.51
12/18/2021 9:30:00 PM 4.33 39.794 0.054 6.85 2.65 12.5
12/18/2021 9:45:00 PM 4.34 39.812 0.054 6.85 2.68 12.5
12/18/2021 10:00:00 PM 4.34 39.812 0.054 6.85 2.87 12.5
12/18/2021 10:15:00 PM 4.35 39.83 0.054 6.85 2.82 12.5
12/18/2021 10:30:00 PM 4.35 39.83 0.054 6.85 2.85 12.5
12/18/2021 10:45:00 PM 4.36 39.848 0.054 6.85 2.84 12.5
12/18/2021 11:00:00 PM 4.36 39.848 0.053 6.85 2.84 12.49
12/18/2021 11:15:00 PM 4.37 39.866 0.053 6.85 2.73 12.49
12/18/2021 11:30:00 PM 4.37 39.866 0.053 6.85 2.9 12.49
12/18/2021 11:45:00 PM 4.38 39.884 0.053 6.84 2.74 12.49
12/19/2021 12:00:00 AM 4.38 39.884 0.053 6.85 2.63 12.49
12/19/2021 12:15:00 AM 4.39 39.902 0.053 6.84 2.56 12.49
12/19/2021 12:30:00 AM 4.39 39.902 0.053 6.84 2.68 12.49
12/19/2021 12:45:00 AM 4.4 39.92 0.053 6.84 2.58 12.49
12/19/2021 1:00:00 AM 4.41 39.938 0.053 6.84 2.56 12.49
12/19/2021 1:15:00 AM 4.41 39.938 0.053 6.84 2.52 12.49
12/19/2021 1:30:00 AM 4.41 39.938 0.053 6.84 2.46 12.49
12/19/2021 1:45:00 AM 4.41 39.938 0.053 6.85 2.37 12.5
12/19/2021 2:00:00 AM 4.4 39.92 0.053 6.85 2.48 12.51
12/19/2021 2:15:00 AM 4.39 39.902 0.053 6.85 2.32 12.51
12/19/2021 2:30:00 AM 4.39 39.902 0.053 6.86 2.35 12.51
12/19/2021 2:45:00 AM 4.38 39.884 0.053 6.85 2.28 12.51
12/19/2021 3:00:00 AM 4.37 39.866 0.053 6.85 2.31 12.53
12/19/2021 3:15:00 AM 4.35 39.83 0.053 6.85 2.33 12.54
12/19/2021 3:30:00 AM 4.34 39.812 0.053 6.85 2.28 12.54
12/19/2021 3:45:00 AM 4.31 39.758 0.053 6.85 2.31 12.56
12/19/2021 4:00:00 AM 4.29 39.722 0.053 6.85 2.32 12.57
12/19/2021 4:15:00 AM 4.27 39.686 0.053 6.85 2.29 12.57
12/19/2021 4:30:00 AM 4.24 39.632 0.053 6.85 2.19 12.58
12/19/2021 4:45:00 AM 4.2 39.56 0.053 6.85 2.2 12.6
12/19/2021 5:00:00 AM 4.16 39.488 0.053 6.86 2.31 12.61
12/19/2021 5:15:00 AM 4.13 39.434 0.053 6.85 2.33 12.63
12/19/2021 5:30:00 AM 4.1 39.38 0.053 6.85 2.32 12.64
12/19/2021 5:45:00 AM 4.07 39.326 0.053 6.85 3.39 12.66
12/19/2021 6:00:00 AM 4.03 39.254 0.053 6.85 2.26 12.67
12/19/2021 6:15:00 AM 4 39.2 0.053 6.85 2.37 12.69
12/19/2021 6:30:00 AM 3.96 39.128 0.053 6.85 2.26 12.7
12/19/2021 6:45:00 AM 3.93 39.074 0.053 6.85 2.16 12.71
12/19/2021 7:00:00 AM 3.9 39.02 0.053 6.85 2.23 12.72
12/19/2021 7:15:00 AM 3.88 38.984 0.053 6.85 2.33 12.73
12/19/2021 7:30:00 AM 3.85 38.93 0.053 6.85 2.19 12.75
12/19/2021 7:45:00 AM 3.82 38.876 0.053 6.85 2.21 12.78
12/19/2021 8:00:00 AM 3.8 38.84 0.053 6.86 2.33 12.81
12/19/2021 8:15:00 AM 3.77 38.786 0.053 6.86 2.24 12.84
12/19/2021 8:30:00 AM 3.74 38.732 0.053 6.86 2.24 12.86
12/19/2021 8:45:00 AM 3.71 38.678 0.053 6.86 2.21 12.89
12/19/2021 9:00:00 AM 3.68 38.624 0.053 6.87 2.16 12.94
12/19/2021 9:15:00 AM 3.66 38.588 0.053 6.88 2.18 12.97
12/19/2021 9:30:00 AM 3.64 38.552 0.053 6.89 2.26 13.03
12/19/2021 9:45:00 AM 3.63 38.534 0.052 6.9 2.17 13.1
12/19/2021 10:00:00 AM 3.62 38.516 0.052 6.92 2.11 13.15
12/19/2021 10:15:00 AM 3.61 38.498 0.052 6.93 2.23 13.17
12/19/2021 10:30:00 AM 3.59 38.462 0.052 6.94 2.48 13.2
12/19/2021 10:45:00 AM 3.57 38.426 0.052 6.94 2.21 13.21
12/19/2021 11:00:00 AM 3.55 38.39 0.052 6.95 2.1 13.23
12/19/2021 11:15:00 AM 3.56 38.408 0.052 6.96 2.06 13.26
12/19/2021 11:30:00 AM 3.59 38.462 0.052 6.97 2.05 13.3
12/19/2021 11:45:00 AM 3.59 38.462 0.052 6.98 2.02 13.3
12/19/2021 12:00:00 PM 3.61 38.498 0.052 6.99 1.95 13.3
12/19/2021 12:15:00 PM 3.64 38.552 0.052 6.98 2.01 13.29
12/19/2021 12:30:00 PM 3.63 38.534 0.052 6.99 1.98 13.28
12/19/2021 12:45:00 PM 3.67 38.606 0.052 7 1.92 13.29
12/19/2021 1:00:00 PM 3.71 38.678 0.052 7 1.97 13.3
12/19/2021 1:15:00 PM 3.7 38.66 0.052 7 1.96 13.27
12/19/2021 1:30:00 PM 3.67 38.606 0.052 6.99 2.04 13.24
12/19/2021 1:45:00 PM 3.64 38.552 0.052 6.99 1.92 13.24
12/19/2021 2:00:00 PM 3.62 38.516 0.052 6.98 2.05 13.22
12/19/2021 2:15:00 PM 3.59 38.462 0.052 6.98 1.93 13.21
12/19/2021 2:30:00 PM 3.55 38.39 0.052 6.96 1.95 13.19
12/19/2021 2:45:00 PM 3.51 38.318 0.052 6.96 2.03 13.2
12/19/2021 3:00:00 PM 3.46 38.228 0.052 6.95 1.99 13.19
12/19/2021 3:15:00 PM 3.4 38.12 0.052 6.94 1.91 13.18
12/19/2021 3:30:00 PM 3.34 38.012 0.052 6.93 1.9 13.17
12/19/2021 3:45:00 PM 3.28 37.904 0.053 6.92 1.92 13.18
12/19/2021 4:00:00 PM 3.22 37.796 0.053 6.91 1.89 13.18
12/19/2021 4:15:00 PM 3.16 37.688 0.053 6.9 1.85 13.18
12/19/2021 4:30:00 PM 3.12 37.616 0.053 6.89 1.83 13.17
12/19/2021 4:45:00 PM 3.08 37.544 0.053 6.89 1.94 13.16
12/19/2021 5:00:00 PM 3.02 37.436 0.053 6.87 1.88 13.14
12/19/2021 5:15:00 PM 2.98 37.364 0.053 6.87 1.94 13.15
12/19/2021 5:30:00 PM 2.93 37.274 0.053 6.86 1.86 13.15
12/19/2021 5:45:00 PM 2.89 37.202 0.053 6.85 1.88 13.15
12/19/2021 6:00:00 PM 2.84 37.112 0.053 6.85 1.83 13.17
12/19/2021 6:15:00 PM 2.79 37.022 0.053 6.84 1.84 13.19
12/19/2021 6:30:00 PM 2.75 36.95 0.053 6.84 1.91 13.21
12/19/2021 6:45:00 PM 2.71 36.878 0.053 6.83 1.87 13.23
12/19/2021 7:00:00 PM 2.68 36.824 0.054 6.72 1.82 13.25
12/19/2021 7:15:00 PM 2.65 36.77 0.054 6.71 1.86 13.26
12/19/2021 7:30:00 PM 2.61 36.698 0.054 6.77 1.81 13.28
12/19/2021 7:45:00 PM 2.56 36.608 0.054 6.78 1.81 13.3
12/19/2021 8:00:00 PM 2.51 36.518 0.054 6.78 1.87 13.31
12/19/2021 8:15:00 PM 2.46 36.428 0.054 6.78 1.81 13.32
12/19/2021 8:30:00 PM 2.42 36.356 0.054 6.78 1.85 13.34
12/19/2021 8:45:00 PM 2.37 36.266 0.054 6.78 1.84 13.35
12/19/2021 9:00:00 PM 2.32 36.176 0.054 6.79 1.79 13.37
12/19/2021 9:15:00 PM 2.28 36.104 0.054 6.79 1.83 13.38
12/19/2021 9:30:00 PM 2.23 36.014 0.054 6.78 1.82 13.4
12/19/2021 9:45:00 PM 2.19 35.942 0.054 6.78 1.83 13.42
12/19/2021 10:00:00 PM 2.15 35.87 0.054 6.79 1.85 13.44
12/19/2021 10:15:00 PM 2.1 35.78 0.054 6.79 1.79 13.46
12/19/2021 10:30:00 PM 2.06 35.708 0.054 6.78 1.8 13.48
12/19/2021 10:45:00 PM 2.01 35.618 0.054 6.78 1.77 13.5
12/19/2021 11:00:00 PM 1.97 35.546 0.054 6.78 1.79 13.52
12/19/2021 11:15:00 PM 1.93 35.474 0.054 6.78 1.76 13.53
12/19/2021 11:30:00 PM 1.88 35.384 0.054 6.78 1.76 13.54
12/19/2021 11:45:00 PM 1.83 35.294 0.054 6.78 1.77 13.57
12/20/2021 12:00:00 AM 1.78 35.204 0.054 6.78 1.83 13.58
12/20/2021 12:15:00 AM 1.73 35.114 0.054 6.78 1.76 13.6
12/20/2021 12:30:00 AM 1.68 35.024 0.054 6.78 1.7 13.61
12/20/2021 12:45:00 AM 1.64 34.952 0.054 6.78 1.69 13.63
12/20/2021 1:00:00 AM 1.59 34.862 0.054 6.78 1.73 13.64
12/20/2021 1:15:00 AM 1.54 34.772 0.054 6.78 1.77 13.67
12/20/2021 1:30:00 AM 1.5 34.7 0.054 6.77 1.77 13.68
12/20/2021 1:45:00 AM 1.45 34.61 0.054 6.77 1.72 13.71
12/20/2021 2:00:00 AM 1.4 34.52 0.054 6.78 1.79 13.73
12/20/2021 2:15:00 AM 1.36 34.448 0.054 6.78 1.7 13.76
12/20/2021 2:30:00 AM 1.3 34.34 0.054 6.78 1.73 13.77
12/20/2021 2:45:00 AM 1.26 34.268 0.055 6.78 1.75 13.79
12/20/2021 3:00:00 AM 1.21 34.178 0.055 6.78 1.74 13.81
12/20/2021 3:15:00 AM 1.16 34.088 0.055 6.78 1.69 13.82
12/20/2021 3:30:00 AM 1.11 33.998 0.055 6.78 1.73 13.84
12/20/2021 3:45:00 AM 1.06 33.908 0.055 6.78 1.7 13.85
12/20/2021 4:00:00 AM 1.02 33.836 0.055 6.77 1.72 13.87
12/20/2021 4:15:00 AM 0.97 33.746 0.055 6.78 1.73 13.89
12/20/2021 4:30:00 AM 0.92 33.656 0.055 6.77 1.72 13.91
12/20/2021 4:45:00 AM 0.88 33.584 0.055 6.78 1.65 13.93
12/20/2021 5:00:00 AM 0.83 33.494 0.055 6.77 1.73 13.94
12/20/2021 5:15:00 AM 0.79 33.422 0.055 6.77 1.73 13.97
12/20/2021 5:30:00 AM 0.75 33.35 0.055 6.77 1.7 13.99
12/20/2021 5:45:00 AM 0.7 33.26 0.055 6.77 1.71 14.01
12/20/2021 6:00:00 AM 0.65 33.17 0.055 6.76 1.72 14.03
12/20/2021 6:15:00 AM 0.61 33.098 0.055 6.77 1.67 14.05
12/20/2021 6:30:00 AM 0.57 33.026 0.055 6.77 1.71 14.06
12/20/2021 6:45:00 AM 0.53 32.954 0.055 6.77 1.67 14.08
12/20/2021 7:00:00 AM 0.49 32.882 0.055 6.77 1.69 14.09
12/20/2021 7:15:00 AM 0.45 32.81 0.056 6.77 1.67 14.11
12/20/2021 7:30:00 AM 0.41 32.738 0.056 6.77 1.67 14.14
12/20/2021 7:45:00 AM 0.37 32.666 0.056 6.77 1.68 14.17
12/20/2021 8:00:00 AM 0.34 32.612 0.056 6.79 1.62 14.21
12/20/2021 8:15:00 AM 0.31 32.558 0.056 6.79 1.75 14.26
12/20/2021 8:30:00 AM 0.29 32.522 0.056 6.81 1.66 14.32
12/20/2021 8:45:00 AM 0.28 32.504 0.056 6.82 1.71 14.36
12/20/2021 9:00:00 AM 0.28 32.504 0.056 6.83 1.62 14.4
12/20/2021 9:15:00 AM 0.28 32.504 0.055 6.84 1.67 14.43
12/20/2021 9:30:00 AM 0.28 32.504 0.055 6.85 1.64 14.45
12/20/2021 9:45:00 AM 0.29 32.522 0.055 6.86 1.65 14.48
12/20/2021 10:00:00 AM 0.32 32.576 0.055 6.87 1.63 14.5
12/20/2021 10:15:00 AM 0.35 32.63 0.055 6.88 1.64 14.5
12/20/2021 10:30:00 AM 0.4 32.72 0.055 6.9 1.64 14.5
12/20/2021 10:45:00 AM 0.47 32.846 0.055 6.91 1.63 14.49
12/20/2021 11:00:00 AM 0.56 33.008 0.055 6.92 1.66 14.48
12/20/2021 11:15:00 AM 0.66 33.188 0.055 6.93 1.62 14.44
12/20/2021 11:30:00 AM 0.77 33.386 0.055 6.93 1.59 14.41
12/20/2021 11:45:00 AM 0.86 33.548 0.055 6.94 1.57 14.37
12/20/2021 12:00:00 PM 0.96 33.728 0.055 6.95 1.57 14.33
12/20/2021 12:15:00 PM 1.02 33.836 0.055 6.95 1.59 14.3
12/20/2021 12:30:00 PM 1.07 33.926 0.055 6.95 1.54 14.28
12/20/2021 12:45:00 PM 1.11 33.998 0.055 6.95 1.57 14.25
12/20/2021 1:00:00 PM 1.12 34.016 0.055 6.95 1.59 14.22
12/20/2021 1:15:00 PM 1.11 33.998 0.055 6.95 1.57 14.2
12/20/2021 1:30:00 PM 1.1 33.98 0.055 6.95 1.59 14.18
12/20/2021 1:45:00 PM 1.1 33.98 0.056 6.95 1.61 14.17
12/20/2021 2:00:00 PM 1.09 33.962 0.056 6.95 1.58 14.15
12/20/2021 2:15:00 PM 1.09 33.962 0.056 6.94 1.53 14.13
12/20/2021 2:30:00 PM 1.1 33.98 0.056 6.93 1.54 14.11
12/20/2021 2:45:00 PM 1.1 33.98 0.056 6.93 1.59 14.09
12/20/2021 3:00:00 PM 1.1 33.98 0.056 6.93 1.55 14.07
12/20/2021 3:15:00 PM 1.1 33.98 0.056 6.92 1.61 14.06
12/20/2021 3:30:00 PM 1.1 33.98 0.056 6.91 1.57 14.04
12/20/2021 3:45:00 PM 1.1 33.98 0.056 6.91 1.6 14.02
12/20/2021 4:00:00 PM 1.09 33.962 0.056 6.9 1.59 13.99
12/20/2021 4:15:00 PM 1.09 33.962 0.056 6.9 1.56 13.97
12/20/2021 4:30:00 PM 1.08 33.944 0.055 6.89 1.65 13.95
12/20/2021 4:45:00 PM 1.08 33.944 0.055 6.87 1.58 13.91
12/20/2021 5:00:00 PM 1.06 33.908 0.055 6.87 1.63 13.89
12/20/2021 5:15:00 PM 1.04 33.872 0.055 6.86 1.62 13.88
12/20/2021 5:30:00 PM 1.02 33.836 0.055 6.85 1.62 13.88
12/20/2021 5:45:00 PM 1 33.8 0.055 6.84 1.62 13.87
12/20/2021 6:00:00 PM 0.97 33.746 0.055 6.84 1.64 13.88
12/20/2021 6:15:00 PM 0.95 33.71 0.055 6.84 1.58 13.88
12/20/2021 6:30:00 PM 0.92 33.656 0.055 6.83 1.61 13.89
12/20/2021 6:45:00 PM 0.9 33.62 0.055 6.83 1.64 13.89
12/20/2021 7:00:00 PM 0.88 33.584 0.055 6.83 1.67 13.9
12/20/2021 7:15:00 PM 0.86 33.548 0.055 6.83 1.73 13.91
12/20/2021 7:30:00 PM 0.83 33.494 0.055 6.83 1.79 13.92
12/20/2021 7:45:00 PM 0.81 33.458 0.055 6.82 1.85 13.94
12/20/2021 8:00:00 PM 0.79 33.422 0.055 6.82 1.94 13.94
12/20/2021 8:15:00 PM 0.76 33.368 0.055 6.82 2.13 13.95
12/20/2021 8:30:00 PM 0.74 33.332 0.054 6.82 2.32 13.96
12/20/2021 8:45:00 PM 0.72 33.296 0.054 6.82 2.55 13.97
12/20/2021 9:00:00 PM 0.7 33.26 0.054 6.81 2.67 13.97
12/20/2021 9:15:00 PM 0.68 33.224 0.054 6.81 2.92 13.98
12/20/2021 9:30:00 PM 0.66 33.188 0.054 6.81 3.06 13.99
12/20/2021 9:45:00 PM 0.64 33.152 0.054 6.82 3.21 13.99
12/20/2021 10:00:00 PM 0.62 33.116 0.054 6.81 3.33 14
12/20/2021 10:15:00 PM 0.6 33.08 0.054 6.81 3.39 14.01
12/20/2021 10:30:00 PM 0.58 33.044 0.054 6.81 3.31 14.01
12/20/2021 10:45:00 PM 0.56 33.008 0.054 6.81 3.32 14.02
12/20/2021 11:00:00 PM 0.54 32.972 0.054 6.81 3.43 14.03
12/20/2021 11:15:00 PM 0.51 32.918 0.054 6.81 3.48 14.03
12/20/2021 11:30:00 PM 0.49 32.882 0.054 6.81 3.36 14.03
12/20/2021 11:45:00 PM 0.46 32.828 0.054 6.81 3.34 14.04
12/21/2021 12:00:00 AM 0.44 32.792 0.054 6.81 3.28 14.05
12/21/2021 12:15:00 AM 0.42 32.756 0.054 6.8 3.22 14.05
12/21/2021 12:30:00 AM 0.39 32.702 0.054 6.8 3.11 14.06
12/21/2021 12:45:00 AM 0.37 32.666 0.054 6.81 3.04 14.07
12/21/2021 1:00:00 AM 0.34 32.612 0.054 6.81 2.95 14.07
12/21/2021 1:15:00 AM 0.32 32.576 0.054 6.8 2.85 14.08
12/21/2021 1:30:00 AM 0.29 32.522 0.054 6.8 2.86 14.08
12/21/2021 1:45:00 AM 0.27 32.486 0.054 6.8 2.71 14.1
12/21/2021 2:00:00 AM 0.24 32.432 0.054 6.79 2.66 14.1
12/21/2021 2:15:00 AM 0.22 32.396 0.054 6.79 2.55 14.11
12/21/2021 2:30:00 AM 0.2 32.36 0.054 6.79 2.53 14.12
12/21/2021 2:45:00 AM 0.17 32.306 0.055 6.79 2.55 14.13
12/21/2021 3:00:00 AM 0.15 32.27 0.055 6.79 2.53 14.13
12/21/2021 3:15:00 AM 0.14 32.252 0.055 6.79 2.45 14.14
12/21/2021 3:30:00 AM 0.12 32.216 0.055 6.79 2.35 14.15
12/21/2021 3:45:00 AM 0.1 32.18 0.055 6.79 2.33 14.16
12/21/2021 4:00:00 AM 0.08 32.144 0.055 6.8 2.3 14.18
12/21/2021 4:15:00 AM 0.06 32.108 0.055 6.79 2.24 14.18
12/21/2021 4:30:00 AM 0.04 32.072 0.055 6.79 2.25 14.19
12/21/2021 4:45:00 AM 0.02 32.036 0.055 6.8 2.15 14.2
12/21/2021 5:00:00 AM 0.01 32.018 0.055 6.79 2.05 14.21
12/21/2021 5:15:00 AM -0.01 31.982 0.055 6.79 2.07 14.22
12/21/2021 5:30:00 AM -0.03 31.946 0.055 6.79 2.02 14.23
12/21/2021 5:45:00 AM -0.05 31.91 0.055 6.79 1.94 14.23
12/21/2021 6:00:00 AM -0.06 31.892 0.055 6.79 1.91 14.25
12/21/2021 6:15:00 AM -0.08 31.856 0.055 6.79 1.89 14.25
12/21/2021 6:30:00 AM -0.09 31.838 0.055 6.79 1.98 14.26
12/21/2021 6:45:00 AM -0.1 31.82 0.055 6.79 1.91 14.26
12/21/2021 7:00:00 AM -0.1 31.82 0.055 6.79 1.84 14.27
12/21/2021 7:15:00 AM -0.09 31.838 0.055 6.79 1.8 14.27
12/21/2021 7:30:00 AM -0.08 31.856 0.055 6.79 1.84 14.28
12/21/2021 7:45:00 AM -0.07 31.874 0.055 6.8 1.77 14.28
12/21/2021 8:00:00 AM -0.05 31.91 0.055 6.8 1.76 14.3
12/21/2021 8:15:00 AM -0.03 31.946 0.055 6.81 1.7 14.33
12/21/2021 8:30:00 AM -0.01 31.982 0.055 6.82 1.74 14.36
12/21/2021 8:45:00 AM 0.02 32.036 0.055 6.83 1.69 14.4
12/21/2021 9:00:00 AM 0.05 32.09 0.055 6.85 1.68 14.41
12/21/2021 9:15:00 AM 0.1 32.18 0.055 6.86 1.71 14.45
12/21/2021 9:30:00 AM 0.14 32.252 0.055 6.87 1.67 14.48
12/21/2021 9:45:00 AM 0.21 32.378 0.055 6.89 1.69 14.51
12/21/2021 10:00:00 AM 0.27 32.486 0.055 6.9 1.68 14.51
12/21/2021 10:15:00 AM 0.34 32.612 0.054 6.91 1.75 14.51
12/21/2021 10:30:00 AM 0.4 32.72 0.054 6.92 1.65 14.49
12/21/2021 10:45:00 AM 0.45 32.81 0.054 6.93 1.66 14.45
12/21/2021 11:00:00 AM 0.51 32.918 0.054 6.93 1.65 14.43
12/21/2021 11:15:00 AM 0.59 33.062 0.054 6.94 1.7 14.41
12/21/2021 11:30:00 AM 0.66 33.188 0.054 6.94 1.62 14.38
12/21/2021 11:45:00 AM 0.74 33.332 0.054 6.95 1.73 14.35
12/21/2021 12:00:00 PM 0.79 33.422 0.054 6.95 1.63 14.31
12/21/2021 12:15:00 PM 0.85 33.53 0.054 6.95 1.59 14.28
12/21/2021 12:30:00 PM 0.91 33.638 0.054 6.95 1.66 14.26
12/21/2021 12:45:00 PM 0.96 33.728 0.054 6.95 1.65 14.22
12/21/2021 1:00:00 PM 1.01 33.818 0.054 6.95 1.62 14.2
12/21/2021 1:15:00 PM 1.06 33.908 0.054 6.96 1.58 14.2
12/21/2021 1:30:00 PM 1.12 34.016 0.054 6.97 1.61 14.18
12/21/2021 1:45:00 PM 1.17 34.106 0.054 6.97 1.61 14.15
12/21/2021 2:00:00 PM 1.2 34.16 0.054 6.96 1.6 14.11
12/21/2021 2:15:00 PM 1.23 34.214 0.054 6.96 1.6 14.07
12/21/2021 2:30:00 PM 1.26 34.268 0.054 6.96 1.61 14.04
12/21/2021 2:45:00 PM 1.28 34.304 0.054 6.95 1.64 14
12/21/2021 3:00:00 PM 1.3 34.34 0.054 6.95 1.6 13.97
12/21/2021 3:15:00 PM 1.32 34.376 0.054 6.94 1.61 13.95
12/21/2021 3:30:00 PM 1.33 34.394 0.054 6.94 1.57 13.93
12/21/2021 3:45:00 PM 1.34 34.412 0.054 6.94 1.59 13.92
12/21/2021 4:00:00 PM 1.34 34.412 0.054 6.92 1.61 13.87
12/21/2021 4:15:00 PM 1.35 34.43 0.054 6.92 1.6 13.83
12/21/2021 4:30:00 PM 1.35 34.43 0.054 6.9 1.62 13.78
12/21/2021 4:45:00 PM 1.34 34.412 0.054 6.89 1.61 13.73
12/21/2021 5:00:00 PM 1.33 34.394 0.054 6.88 1.61 13.7
12/21/2021 5:15:00 PM 1.32 34.376 0.054 6.87 1.56 13.68
12/21/2021 5:30:00 PM 1.3 34.34 0.054 6.87 1.61 13.66
12/21/2021 5:45:00 PM 1.28 34.304 0.054 6.86 1.58 13.65
12/21/2021 6:00:00 PM 1.27 34.286 0.054 6.86 1.61 13.65
12/21/2021 6:15:00 PM 1.25 34.25 0.054 6.85 1.58 13.65
12/21/2021 6:30:00 PM 1.23 34.214 0.054 6.85 1.6 13.64
12/21/2021 6:45:00 PM 1.22 34.196 0.055 6.85 1.59 13.65
12/21/2021 7:00:00 PM 1.21 34.178 0.055 6.85 1.6 13.65
12/21/2021 7:15:00 PM 1.2 34.16 0.055 6.85 1.6 13.65
12/21/2021 7:30:00 PM 1.19 34.142 0.055 6.84 1.62 13.65
12/21/2021 7:45:00 PM 1.17 34.106 0.055 6.84 1.57 13.66
12/21/2021 8:00:00 PM 1.15 34.07 0.055 6.85 1.64 13.66
12/21/2021 8:15:00 PM 1.14 34.052 0.055 6.84 1.62 13.66
12/21/2021 8:30:00 PM 1.12 34.016 0.055 6.84 1.6 13.67
12/21/2021 8:45:00 PM 1.1 33.98 0.055 6.84 1.64 13.67
12/21/2021 9:00:00 PM 1.08 33.944 0.055 6.84 1.61 13.67
12/21/2021 9:15:00 PM 1.06 33.908 0.055 6.84 1.64 13.68
12/21/2021 9:30:00 PM 1.05 33.89 0.055 6.84 1.65 13.68
12/21/2021 9:45:00 PM 1.03 33.854 0.055 6.84 1.72 13.68
12/21/2021 10:00:00 PM 1.02 33.836 0.055 6.84 1.74 13.68
12/21/2021 10:15:00 PM 1 33.8 0.055 6.84 1.69 13.69
12/21/2021 10:30:00 PM 1 33.8 0.055 6.83 1.79 13.69
12/21/2021 10:45:00 PM 0.99 33.782 0.055 6.83 1.74 13.69
12/21/2021 11:00:00 PM 0.98 33.764 0.055 6.83 1.82 13.68
12/21/2021 11:15:00 PM 0.99 33.782 0.055 6.84 1.78 13.69
12/21/2021 11:30:00 PM 1 33.8 0.055 6.83 1.75 13.69
12/21/2021 11:45:00 PM 1.01 33.818 0.055 6.83 1.8 13.67
12/22/2021 12:00:00 AM 1.02 33.836 0.055 6.83 1.8 13.67
12/22/2021 12:15:00 AM 1.03 33.854 0.055 6.83 1.86 13.66
12/22/2021 12:30:00 AM 1.04 33.872 0.055 6.83 1.89 13.65
12/22/2021 12:45:00 AM 1.06 33.908 0.055 6.84 1.87 13.65
12/22/2021 1:00:00 AM 1.07 33.926 0.055 6.83 1.84 13.64
12/22/2021 1:15:00 AM 1.07 33.926 0.055 6.83 1.92 13.63
12/22/2021 1:30:00 AM 1.07 33.926 0.055 6.83 1.92 13.63
12/22/2021 1:45:00 AM 1.06 33.908 0.055 6.83 2.01 13.63
12/22/2021 2:00:00 AM 1.04 33.872 0.055 6.83 2.02 13.63
12/22/2021 2:15:00 AM 1.02 33.836 0.055 6.83 2.06 13.63
12/22/2021 2:30:00 AM 1 33.8 0.055 6.83 2.05 13.63
12/22/2021 2:45:00 AM 0.97 33.746 0.055 6.83 2.04 13.64
12/22/2021 3:00:00 AM 0.95 33.71 0.055 6.83 2.06 13.65
12/22/2021 3:15:00 AM 0.93 33.674 0.055 6.82 2.12 13.65
12/22/2021 3:30:00 AM 0.92 33.656 0.055 6.83 2.19 13.66
12/22/2021 3:45:00 AM 0.91 33.638 0.055 6.82 2.1 13.66
12/22/2021 4:00:00 AM 0.9 33.62 0.055 6.83 2.16 13.66
12/22/2021 4:15:00 AM 0.9 33.62 0.055 6.83 2.21 13.66
12/22/2021 4:30:00 AM 0.9 33.62 0.055 6.82 2.12 13.66
12/22/2021 4:45:00 AM 0.9 33.62 0.055 6.83 2.1 13.66
12/22/2021 5:00:00 AM 0.9 33.62 0.055 6.82 2.09 13.66
12/22/2021 5:15:00 AM 0.9 33.62 0.055 6.83 2.05 13.65
12/22/2021 5:30:00 AM 0.89 33.602 0.055 6.83 1.99 13.66
12/22/2021 5:45:00 AM 0.89 33.602 0.055 6.82 1.92 13.66
12/22/2021 6:00:00 AM 0.88 33.584 0.055 6.82 1.9 13.67
12/22/2021 6:15:00 AM 0.85 33.53 0.055 6.82 1.85 13.68
12/22/2021 6:30:00 AM 0.85 33.53 0.055 6.82 1.85 13.68
12/22/2021 6:45:00 AM 0.85 33.53 0.055 6.82 1.83 13.68
12/22/2021 7:00:00 AM 0.83 33.494 0.055 6.82 1.88 13.69
12/22/2021 7:15:00 AM 0.83 33.494 0.055 6.83 1.78 13.69
12/22/2021 7:30:00 AM 0.83 33.494 0.055 6.82 1.69 13.69
12/22/2021 7:45:00 AM 0.82 33.476 0.055 6.82 1.74 13.72
12/22/2021 8:00:00 AM 0.81 33.458 0.054 6.83 1.8 13.76
12/22/2021 8:15:00 AM 0.82 33.476 0.054 6.84 1.69 13.81
12/22/2021 8:30:00 AM 0.84 33.512 0.054 6.85 1.68 13.84
12/22/2021 8:45:00 AM 0.86 33.548 0.054 6.86 1.68 13.88
12/22/2021 9:00:00 AM 0.88 33.584 0.054 6.88 1.62 13.92
12/22/2021 9:15:00 AM 0.9 33.62 0.054 6.89 1.67 13.97
12/22/2021 9:30:00 AM 0.94 33.692 0.054 6.91 1.63 13.99
12/22/2021 9:45:00 AM 0.99 33.782 0.054 6.92 1.62 14.01
12/22/2021 10:00:00 AM 1.04 33.872 0.054 6.93 1.61 14.01
12/22/2021 10:15:00 AM 1.09 33.962 0.054 6.94 1.57 14
12/22/2021 10:30:00 AM 1.13 34.034 0.054 6.94 1.66 13.97
12/22/2021 10:45:00 AM 1.19 34.142 0.054 6.95 1.61 13.97
12/22/2021 11:00:00 AM 1.31 34.358 0.054 6.96 1.57 13.96
12/22/2021 11:15:00 AM 1.45 34.61 0.054 6.97 1.52 13.92
12/22/2021 11:30:00 AM 1.57 34.826 0.053 6.98 1.59 13.9
12/22/2021 11:45:00 AM 1.6 34.88 0.053 6.98 1.58 13.85
12/22/2021 12:00:00 PM 1.64 34.952 0.053 6.99 1.57 13.84
12/22/2021 12:15:00 PM 1.67 35.006 0.053 6.99 1.55 13.83
12/22/2021 12:30:00 PM 1.69 35.042 0.053 6.98 1.52 13.79
12/22/2021 12:45:00 PM 1.72 35.096 0.053 6.98 1.54 13.77
12/22/2021 1:00:00 PM 1.82 35.276 0.053 6.99 1.5 13.77
12/22/2021 1:15:00 PM 1.88 35.384 0.053 7 1.56 13.77
12/22/2021 1:30:00 PM 1.9 35.42 0.053 7 1.51 13.74
12/22/2021 1:45:00 PM 1.92 35.456 0.053 7 1.49 13.72
12/22/2021 2:00:00 PM 1.9 35.42 0.053 6.99 1.54 13.66
12/22/2021 2:15:00 PM 1.91 35.438 0.053 6.99 1.51 13.66
12/22/2021 2:30:00 PM 1.96 35.528 0.053 6.99 1.5 13.67
12/22/2021 2:45:00 PM 1.98 35.564 0.053 7 1.48 13.65
12/22/2021 3:00:00 PM 1.99 35.582 0.053 6.99 1.54 13.63
12/22/2021 3:15:00 PM 1.98 35.564 0.053 6.98 1.52 13.61
12/22/2021 3:30:00 PM 1.96 35.528 0.053 6.97 1.53 13.6
12/22/2021 3:45:00 PM 1.95 35.51 0.053 6.98 1.5 13.57
12/22/2021 4:00:00 PM 1.94 35.492 0.054 6.96 1.48 13.52
12/22/2021 4:15:00 PM 1.93 35.474 0.054 6.94 1.57 13.49
12/22/2021 4:30:00 PM 1.91 35.438 0.054 6.93 1.56 13.46
12/22/2021 4:45:00 PM 1.87 35.366 0.054 6.92 1.59 13.44
12/22/2021 5:00:00 PM 1.85 35.33 0.054 6.91 1.58 13.43
12/22/2021 5:15:00 PM 1.82 35.276 0.054 6.9 1.51 13.42
12/22/2021 5:30:00 PM 1.79 35.222 0.054 6.89 1.55 13.42
12/22/2021 5:45:00 PM 1.76 35.168 0.054 6.89 1.59 13.43
12/22/2021 6:00:00 PM 1.73 35.114 0.054 6.87 1.59 13.43
12/22/2021 6:15:00 PM 1.7 35.06 0.054 6.88 1.58 13.44
12/22/2021 6:30:00 PM 1.68 35.024 0.054 6.88 1.53 13.45
12/22/2021 6:45:00 PM 1.65 34.97 0.054 6.87 1.56 13.47
12/22/2021 7:00:00 PM 1.62 34.916 0.055 6.87 1.54 13.48
12/22/2021 7:15:00 PM 1.59 34.862 0.055 6.87 1.55 13.47
12/22/2021 7:30:00 PM 1.57 34.826 0.055 6.86 1.52 13.5
12/22/2021 7:45:00 PM 1.52 34.736 0.055 6.86 1.57 13.51
12/22/2021 8:00:00 PM 1.48 34.664 0.055 6.86 1.59 13.51
12/22/2021 8:15:00 PM 1.44 34.592 0.055 6.87 1.57 13.53
12/22/2021 8:30:00 PM 1.4 34.52 0.055 6.86 1.61 13.55
12/22/2021 8:45:00 PM 1.36 34.448 0.055 6.86 1.63 13.57
12/22/2021 9:00:00 PM 1.32 34.376 0.055 6.86 1.56 13.59
12/22/2021 9:15:00 PM 1.29 34.322 0.055 6.86 1.55 13.6
12/22/2021 9:30:00 PM 1.26 34.268 0.055 6.85 1.63 13.61
12/22/2021 9:45:00 PM 1.23 34.214 0.055 6.86 1.59 13.63
12/22/2021 10:00:00 PM 1.22 34.196 0.055 6.86 1.6 13.64
12/22/2021 10:15:00 PM 1.19 34.142 0.055 6.85 1.66 13.65
12/22/2021 10:30:00 PM 1.17 34.106 0.055 6.86 1.65 13.67
12/22/2021 10:45:00 PM 1.13 34.034 0.055 6.86 1.65 13.68
12/22/2021 11:00:00 PM 1.1 33.98 0.055 6.85 1.64 13.7
12/22/2021 11:15:00 PM 1.09 33.962 0.055 6.85 1.66 13.71
12/22/2021 11:30:00 PM 1.08 33.944 0.055 6.85 1.67 13.72
12/22/2021 11:45:00 PM 1.07 33.926 0.055 6.85 1.73 13.72
12/23/2021 12:00:00 AM 1.06 33.908 0.055 6.85 1.74 13.74
12/23/2021 12:15:00 AM 1.05 33.89 0.055 6.85 1.71 13.74
12/23/2021 12:30:00 AM 1.04 33.872 0.055 6.85 1.78 13.75
12/23/2021 12:45:00 AM 1.02 33.836 0.055 6.85 1.81 13.75
12/23/2021 1:00:00 AM 1.01 33.818 0.055 6.85 1.76 13.76
12/23/2021 1:15:00 AM 1 33.8 0.055 6.84 1.82 13.77
12/23/2021 1:30:00 AM 0.98 33.764 0.055 6.84 1.82 13.77
12/23/2021 1:45:00 AM 0.97 33.746 0.055 6.85 1.89 13.78
12/23/2021 2:00:00 AM 0.94 33.692 0.055 6.84 1.84 13.79
12/23/2021 2:15:00 AM 0.92 33.656 0.055 6.84 1.86 13.81
12/23/2021 2:30:00 AM 0.9 33.62 0.055 6.84 1.84 13.81
12/23/2021 2:45:00 AM 0.88 33.584 0.055 6.84 1.8 13.83
12/23/2021 3:00:00 AM 0.87 33.566 0.055 6.84 1.81 13.84
12/23/2021 3:15:00 AM 0.84 33.512 0.055 6.84 1.77 13.85
12/23/2021 3:30:00 AM 0.82 33.476 0.055 6.84 1.81 13.85
12/23/2021 3:45:00 AM 0.81 33.458 0.055 6.84 1.83 13.87
12/23/2021 4:00:00 AM 0.78 33.404 0.055 6.84 1.82 13.88
12/23/2021 4:15:00 AM 0.77 33.386 0.055 6.84 1.77 13.89
12/23/2021 4:30:00 AM 0.76 33.368 0.055 6.84 1.77 13.9
12/23/2021 4:45:00 AM 0.75 33.35 0.055 6.84 1.71 13.9
12/23/2021 5:00:00 AM 0.75 33.35 0.055 6.84 1.75 13.91
12/23/2021 5:15:00 AM 0.74 33.332 0.055 6.84 1.73 13.91
12/23/2021 5:30:00 AM 0.74 33.332 0.055 6.84 1.72 13.92
12/23/2021 5:45:00 AM 0.73 33.314 0.055 6.84 1.68 13.92
12/23/2021 6:00:00 AM 0.73 33.314 0.055 6.84 1.64 13.93
12/23/2021 6:15:00 AM 0.72 33.296 0.055 6.84 1.66 13.93
12/23/2021 6:30:00 AM 0.71 33.278 0.055 6.84 1.7 13.94
12/23/2021 6:45:00 AM 0.7 33.26 0.055 6.84 1.62 13.94
12/23/2021 7:00:00 AM 0.7 33.26 0.055 6.84 1.61 13.95
12/23/2021 7:15:00 AM 0.69 33.242 0.055 6.84 1.62 13.96
12/23/2021 7:30:00 AM 0.67 33.206 0.055 6.84 1.58 13.98
12/23/2021 7:45:00 AM 0.66 33.188 0.055 6.84 1.59 14
12/23/2021 8:00:00 AM 0.65 33.17 0.055 6.85 1.64 14.04
12/23/2021 8:15:00 AM 0.64 33.152 0.055 6.86 1.59 14.1
12/23/2021 8:30:00 AM 0.63 33.134 0.055 6.88 1.6 14.15
12/23/2021 8:45:00 AM 0.63 33.134 0.055 6.89 1.62 14.21
12/23/2021 9:00:00 AM 0.63 33.134 0.054 6.91 1.58 14.26
12/23/2021 9:15:00 AM 0.63 33.134 0.054 6.92 1.59 14.29
12/23/2021 9:30:00 AM 0.63 33.134 0.054 6.92 1.64 14.31
12/23/2021 9:45:00 AM 0.65 33.17 0.054 6.93 1.55 14.34
12/23/2021 10:00:00 AM 0.66 33.188 0.054 6.94 1.59 14.36
12/23/2021 10:15:00 AM 0.67 33.206 0.054 6.95 1.56 14.36
12/23/2021 10:30:00 AM 0.7 33.26 0.054 6.95 1.57 14.36
12/23/2021 10:45:00 AM 0.75 33.35 0.054 6.96 1.51 14.36
12/23/2021 11:00:00 AM 0.78 33.404 0.054 6.97 1.58 14.36
12/23/2021 11:15:00 AM 0.84 33.512 0.054 6.97 1.6 14.37
12/23/2021 11:30:00 AM 0.89 33.602 0.054 6.98 1.56 14.36
12/23/2021 11:45:00 AM 0.93 33.674 0.054 6.99 1.58 14.35
12/23/2021 12:00:00 PM 0.96 33.728 0.054 6.99 1.57 14.33
12/23/2021 12:15:00 PM 0.99 33.782 0.054 6.99 1.54 14.32
12/23/2021 12:30:00 PM 1.01 33.818 0.054 6.99 1.53 14.3
12/23/2021 12:45:00 PM 1.02 33.836 0.053 6.99 1.57 14.26
12/23/2021 1:00:00 PM 1.03 33.854 0.053 6.98 1.54 14.25
12/23/2021 1:15:00 PM 1.1 33.98 0.053 6.99 1.52 14.25
12/23/2021 1:30:00 PM 1.11 33.998 0.053 6.99 1.52 14.22
12/23/2021 1:45:00 PM 1.1 33.98 0.053 6.98 1.54 14.19
12/23/2021 2:00:00 PM 1.08 33.944 0.054 6.98 1.57 14.16
12/23/2021 2:15:00 PM 1.07 33.926 0.054 6.97 1.53 14.15
12/23/2021 2:30:00 PM 1.08 33.944 0.054 6.97 1.51 14.15
12/23/2021 2:45:00 PM 1.09 33.962 0.054 6.97 1.53 14.15
12/23/2021 3:00:00 PM 1.1 33.98 0.054 6.97 1.53 14.14
12/23/2021 3:15:00 PM 1.1 33.98 0.054 6.96 1.48 14.14
12/23/2021 3:30:00 PM 1.09 33.962 0.054 6.95 1.49 14.13
12/23/2021 3:45:00 PM 1.08 33.944 0.054 6.94 1.5 14.1
12/23/2021 4:00:00 PM 1.08 33.944 0.054 6.93 1.45 14.07
12/23/2021 4:15:00 PM 1.08 33.944 0.054 6.92 1.54 14.03
12/23/2021 4:30:00 PM 1.08 33.944 0.054 6.91 1.51 13.99
12/23/2021 4:45:00 PM 1.07 33.926 0.054 6.9 1.53 13.95
12/23/2021 5:00:00 PM 1.04 33.872 0.054 6.89 1.55 13.91
12/23/2021 5:15:00 PM 1.03 33.854 0.054 6.89 1.49 13.88
12/23/2021 5:30:00 PM 1.01 33.818 0.054 6.87 1.6 13.87
12/23/2021 5:45:00 PM 1 33.8 0.054 6.87 1.53 13.86
12/23/2021 6:00:00 PM 0.99 33.782 0.054 6.86 1.49 13.86
12/23/2021 6:15:00 PM 0.98 33.764 0.054 6.86 1.57 13.87
12/23/2021 6:30:00 PM 0.97 33.746 0.054 6.86 1.53 13.87
12/23/2021 6:45:00 PM 0.96 33.728 0.054 6.86 1.48 13.87
12/23/2021 7:00:00 PM 0.95 33.71 0.055 6.86 1.54 13.88
12/23/2021 7:15:00 PM 0.94 33.692 0.055 6.86 1.5 13.88
12/23/2021 7:30:00 PM 0.93 33.674 0.055 6.85 1.51 13.88
12/23/2021 7:45:00 PM 0.93 33.674 0.055 6.86 1.47 13.88
12/23/2021 8:00:00 PM 0.92 33.656 0.055 6.85 1.47 13.88
12/23/2021 8:15:00 PM 0.92 33.656 0.055 6.86 1.53 13.88
12/23/2021 8:30:00 PM 0.92 33.656 0.055 6.86 1.49 13.87
12/23/2021 8:45:00 PM 0.92 33.656 0.055 6.86 1.49 13.87
12/23/2021 9:00:00 PM 0.92 33.656 0.055 6.85 1.52 13.87
12/23/2021 9:15:00 PM 0.91 33.638 0.055 6.85 1.49 13.86
12/23/2021 9:30:00 PM 0.91 33.638 0.055 6.85 1.52 13.87
12/23/2021 9:45:00 PM 0.91 33.638 0.055 6.86 1.51 13.87
12/23/2021 10:00:00 PM 0.91 33.638 0.055 6.85 1.53 13.87
12/23/2021 10:15:00 PM 0.91 33.638 0.055 6.85 1.51 13.87
12/23/2021 10:30:00 PM 0.91 33.638 0.055 6.85 1.56 13.86
12/23/2021 10:45:00 PM 0.91 33.638 0.055 6.85 1.52 13.86
12/23/2021 11:00:00 PM 0.91 33.638 0.055 6.85 1.54 13.86
12/23/2021 11:15:00 PM 0.91 33.638 0.055 6.85 1.55 13.86
12/23/2021 11:30:00 PM 0.92 33.656 0.055 6.85 1.52 13.85
12/23/2021 11:45:00 PM 0.92 33.656 0.055 6.85 1.55 13.85
12/24/2021 12:00:00 AM 0.93 33.674 0.055 6.85 1.53 13.85
12/24/2021 12:15:00 AM 0.93 33.674 0.055 6.85 1.51 13.84
12/24/2021 12:30:00 AM 0.94 33.692 0.055 6.85 1.56 13.84
12/24/2021 12:45:00 AM 0.93 33.674 0.055 6.85 1.52 13.84
12/24/2021 1:00:00 AM 0.89 33.602 0.055 6.85 1.63 13.84
12/24/2021 1:15:00 AM 0.69 33.242 0.055 6.85 1.56 13.86
12/24/2021 1:30:00 AM 0.51 32.918 0.055 6.84 1.58 13.89
12/24/2021 1:45:00 AM 0.4 32.72 0.055 6.84 1.58 13.93
12/24/2021 2:00:00 AM 0.39 32.702 0.055 6.84 1.55 13.96
12/24/2021 2:15:00 AM 0.44 32.792 0.055 6.84 1.55 13.98
12/24/2021 2:30:00 AM 0.48 32.864 0.055 6.84 1.53 13.98
12/24/2021 2:45:00 AM 0.5 32.9 0.055 6.84 1.53 13.99
12/24/2021 3:00:00 AM 0.5 32.9 0.055 6.84 1.57 14
12/24/2021 3:15:00 AM 0.51 32.918 0.055 6.84 1.55 14.01
12/24/2021 3:30:00 AM 0.53 32.954 0.055 6.83 1.52 13.99
12/24/2021 3:45:00 AM 0.56 33.008 0.055 6.84 1.55 13.98
12/24/2021 4:00:00 AM 0.59 33.062 0.055 6.84 1.51 13.97
12/24/2021 4:15:00 AM 0.62 33.116 0.055 6.84 1.5 13.96
12/24/2021 4:30:00 AM 0.64 33.152 0.055 6.84 1.5 13.95
12/24/2021 4:45:00 AM 0.65 33.17 0.055 6.84 1.51 13.95
12/24/2021 5:00:00 AM 0.65 33.17 0.055 6.84 1.52 13.94
12/24/2021 5:15:00 AM 0.66 33.188 0.055 6.84 1.51 13.95
12/24/2021 5:30:00 AM 0.66 33.188 0.055 6.84 1.54 13.95
12/24/2021 5:45:00 AM 0.67 33.206 0.055 6.84 1.48 13.94
12/24/2021 6:00:00 AM 0.68 33.224 0.055 6.84 1.46 13.94
12/24/2021 6:15:00 AM 0.7 33.26 0.055 6.84 1.56 13.93
12/24/2021 6:30:00 AM 0.71 33.278 0.055 6.84 1.51 13.93
12/24/2021 6:45:00 AM 0.73 33.314 0.055 6.84 1.49 13.92
12/24/2021 7:00:00 AM 0.74 33.332 0.055 6.84 1.48 13.91
12/24/2021 7:15:00 AM 0.76 33.368 0.055 6.84 1.49 13.91
12/24/2021 7:30:00 AM 0.78 33.404 0.055 6.83 1.54 13.91
12/24/2021 7:45:00 AM 0.79 33.422 0.055 6.85 1.46 13.91
12/24/2021 8:00:00 AM 0.81 33.458 0.055 6.85 1.47 13.93
12/24/2021 8:15:00 AM 0.83 33.494 0.055 6.85 1.5 13.95
12/24/2021 8:30:00 AM 0.85 33.53 0.055 6.86 1.49 13.98
12/24/2021 8:45:00 AM 0.87 33.566 0.055 6.87 1.44 14.01
12/24/2021 9:00:00 AM 0.89 33.602 0.055 6.89 1.47 14.04
12/24/2021 9:15:00 AM 0.92 33.656 0.054 6.89 1.5 14.06
12/24/2021 9:30:00 AM 0.95 33.71 0.054 6.9 1.44 14.09
12/24/2021 9:45:00 AM 0.99 33.782 0.054 6.91 1.53 14.11
12/24/2021 10:00:00 AM 1.02 33.836 0.054 6.93 1.49 14.14
12/24/2021 10:15:00 AM 1.07 33.926 0.054 6.93 1.49 14.16
12/24/2021 10:30:00 AM 1.11 33.998 0.054 6.95 1.47 14.17
12/24/2021 10:45:00 AM 1.16 34.088 0.054 6.95 1.5 14.17
12/24/2021 11:00:00 AM 1.21 34.178 0.054 6.97 1.47 14.17
12/24/2021 11:15:00 AM 1.27 34.286 0.054 6.97 1.49 14.16
12/24/2021 11:30:00 AM 1.32 34.376 0.054 6.98 1.46 14.15
12/24/2021 11:45:00 AM 1.39 34.502 0.054 6.99 1.45 14.14
12/24/2021 12:00:00 PM 1.45 34.61 0.054 7 1.44 14.11
12/24/2021 12:15:00 PM 1.53 34.754 0.054 7 1.38 14.1
12/24/2021 12:30:00 PM 1.59 34.862 0.053 7 1.42 14.04
12/24/2021 12:45:00 PM 1.65 34.97 0.053 7 1.41 14.02
12/24/2021 1:00:00 PM 1.7 35.06 0.053 7 1.43 13.96
12/24/2021 1:15:00 PM 1.73 35.114 0.053 7 1.4 13.94
12/24/2021 1:30:00 PM 1.74 35.132 0.053 7 1.5 13.92
12/24/2021 1:45:00 PM 1.74 35.132 0.053 6.99 1.48 13.91
12/24/2021 2:00:00 PM 1.76 35.168 0.054 6.99 1.5 13.89
12/24/2021 2:15:00 PM 1.78 35.204 0.054 6.99 1.55 13.88
12/24/2021 2:30:00 PM 1.8 35.24 0.054 6.99 1.59 13.87
12/24/2021 2:45:00 PM 1.81 35.258 0.054 6.99 1.52 13.84
12/24/2021 3:00:00 PM 1.82 35.276 0.054 6.98 1.52 13.82
12/24/2021 3:15:00 PM 1.82 35.276 0.054 6.98 1.51 13.82
12/24/2021 3:30:00 PM 1.81 35.258 0.054 6.97 1.48 13.8
12/24/2021 3:45:00 PM 1.81 35.258 0.054 6.96 1.48 13.77
12/24/2021 4:00:00 PM 1.81 35.258 0.054 6.96 1.53 13.74
12/24/2021 4:15:00 PM 1.81 35.258 0.054 6.94 1.49 13.73
12/24/2021 4:30:00 PM 1.81 35.258 0.054 6.94 1.53 13.67
12/24/2021 4:45:00 PM 1.8 35.24 0.054 6.92 1.53 13.6
12/24/2021 5:00:00 PM 1.79 35.222 0.054 6.9 1.54 13.56
12/24/2021 5:15:00 PM 1.78 35.204 0.054 6.89 1.58 13.53
12/24/2021 5:30:00 PM 1.76 35.168 0.054 6.89 1.58 13.51
12/24/2021 5:45:00 PM 1.75 35.15 0.055 6.88 1.56 13.52
12/24/2021 6:00:00 PM 1.73 35.114 0.055 6.88 1.52 13.51
12/24/2021 6:15:00 PM 1.72 35.096 0.055 6.87 1.51 13.49
12/24/2021 6:30:00 PM 1.71 35.078 0.055 6.87 1.5 13.51
12/24/2021 6:45:00 PM 1.7 35.06 0.055 6.87 1.5 13.51
12/24/2021 7:00:00 PM 1.7 35.06 0.055 6.87 1.58 13.5
12/24/2021 7:15:00 PM 1.7 35.06 0.055 6.86 1.68 13.5
12/24/2021 7:30:00 PM 1.7 35.06 0.055 6.87 1.51 13.5
12/24/2021 7:45:00 PM 1.7 35.06 0.055 6.87 1.46 13.49
12/24/2021 8:00:00 PM 1.7 35.06 0.055 6.86 1.55 13.49
12/24/2021 8:15:00 PM 1.7 35.06 0.055 6.86 1.53 13.48
12/24/2021 8:30:00 PM 1.71 35.078 0.055 6.87 1.53 13.48
12/24/2021 8:45:00 PM 1.71 35.078 0.055 6.87 1.43 13.48
12/24/2021 9:00:00 PM 1.71 35.078 0.055 6.86 1.51 13.48
12/24/2021 9:15:00 PM 1.7 35.06 0.055 6.86 1.56 13.48
12/24/2021 9:30:00 PM 1.7 35.06 0.055 6.86 1.53 13.48
12/24/2021 9:45:00 PM 1.7 35.06 0.055 6.86 1.54 13.47
12/24/2021 10:00:00 PM 1.71 35.078 0.055 6.86 1.52 13.47
12/24/2021 10:15:00 PM 1.71 35.078 0.055 6.86 1.49 13.48
12/24/2021 10:30:00 PM 1.72 35.096 0.055 6.86 1.5 13.46
12/24/2021 10:45:00 PM 1.73 35.114 0.055 6.86 1.52 13.47
12/24/2021 11:00:00 PM 1.74 35.132 0.055 6.86 1.66 13.46
12/24/2021 11:15:00 PM 1.75 35.15 0.055 6.85 1.57 13.45
12/24/2021 11:30:00 PM 1.77 35.186 0.055 6.85 1.54 13.45
12/24/2021 11:45:00 PM 1.78 35.204 0.055 6.85 1.52 13.44
12/25/2021 12:00:00 AM 1.79 35.222 0.055 6.85 1.52 13.42
12/25/2021 12:15:00 AM 1.81 35.258 0.055 6.85 1.54 13.41
12/25/2021 12:30:00 AM 1.82 35.276 0.055 6.85 1.54 13.42
12/25/2021 12:45:00 AM 1.83 35.294 0.055 6.85 1.54 13.41
12/25/2021 1:00:00 AM 1.85 35.33 0.055 6.85 1.54 13.39
12/25/2021 1:15:00 AM 1.86 35.348 0.055 6.85 1.52 13.39
12/25/2021 1:30:00 AM 1.87 35.366 0.055 6.85 1.59 13.38
12/25/2021 1:45:00 AM 1.88 35.384 0.055 6.85 1.54 13.36
12/25/2021 2:00:00 AM 1.9 35.42 0.055 6.86 1.57 13.36
12/25/2021 2:15:00 AM 1.91 35.438 0.055 6.86 1.51 13.35
12/25/2021 2:30:00 AM 1.92 35.456 0.055 6.86 1.59 13.34
12/25/2021 2:45:00 AM 1.93 35.474 0.055 6.85 1.57 13.32
12/25/2021 3:00:00 AM 1.94 35.492 0.055 6.85 1.51 13.32
12/25/2021 3:15:00 AM 1.96 35.528 0.055 6.85 1.55 13.31
12/25/2021 3:30:00 AM 1.97 35.546 0.055 6.85 1.54 13.3
12/25/2021 3:45:00 AM 1.98 35.564 0.055 6.85 1.53 13.3
12/25/2021 4:00:00 AM 1.98 35.564 0.055 6.85 1.57 13.29
12/25/2021 4:15:00 AM 1.99 35.582 0.055 6.85 1.55 13.28
12/25/2021 4:30:00 AM 2 35.6 0.055 6.85 1.56 13.28
12/25/2021 4:45:00 AM 2.01 35.618 0.055 6.85 1.47 13.27
12/25/2021 5:00:00 AM 2.02 35.636 0.055 6.85 1.5 13.26
12/25/2021 5:15:00 AM 2.03 35.654 0.055 6.85 1.56 13.25
12/25/2021 5:30:00 AM 2.04 35.672 0.055 6.85 1.53 13.24
12/25/2021 5:45:00 AM 2.05 35.69 0.055 6.85 1.59 13.24
12/25/2021 6:00:00 AM 2.06 35.708 0.055 6.85 1.53 13.23
12/25/2021 6:15:00 AM 2.07 35.726 0.055 6.85 1.52 13.23
12/25/2021 6:30:00 AM 2.08 35.744 0.054 6.85 1.53 13.22
12/25/2021 6:45:00 AM 2.09 35.762 0.054 6.85 1.55 13.21
12/25/2021 7:00:00 AM 2.1 35.78 0.054 6.84 1.5 13.21
12/25/2021 7:15:00 AM 2.11 35.798 0.054 6.85 1.55 13.21
12/25/2021 7:30:00 AM 2.12 35.816 0.054 6.84 1.56 13.2
12/25/2021 7:45:00 AM 2.12 35.816 0.054 6.84 1.56 13.2
12/25/2021 8:00:00 AM 2.13 35.834 0.054 6.85 1.51 13.2
12/25/2021 8:15:00 AM 2.15 35.87 0.054 6.85 1.57 13.23
12/25/2021 8:30:00 AM 2.16 35.888 0.054 6.86 1.64 13.23
12/25/2021 8:45:00 AM 2.18 35.924 0.054 6.86 1.62 13.25
12/25/2021 9:00:00 AM 2.19 35.942 0.054 6.87 1.58 13.26
12/25/2021 9:15:00 AM 2.21 35.978 0.054 6.87 1.56 13.28
12/25/2021 9:30:00 AM 2.23 36.014 0.054 6.88 1.54 13.29
12/25/2021 9:45:00 AM 2.25 36.05 0.054 6.89 1.58 13.3
12/25/2021 10:00:00 AM 2.27 36.086 0.054 6.89 1.59 13.3
12/25/2021 10:15:00 AM 2.29 36.122 0.054 6.89 1.59 13.29
12/25/2021 10:30:00 AM 2.31 36.158 0.054 6.9 1.68 13.32
12/25/2021 10:45:00 AM 2.34 36.212 0.054 6.91 1.57 13.35
12/25/2021 11:00:00 AM 2.37 36.266 0.054 6.92 1.53 13.36
12/25/2021 11:15:00 AM 2.4 36.32 0.054 6.94 1.56 13.37
12/25/2021 11:30:00 AM 2.44 36.392 0.054 6.95 1.57 13.4
12/25/2021 11:45:00 AM 2.48 36.464 0.054 6.95 1.59 13.39
12/25/2021 12:00:00 PM 2.51 36.518 0.054 6.95 1.67 13.35
12/25/2021 12:15:00 PM 2.54 36.572 0.054 6.95 1.62 13.33
12/25/2021 12:30:00 PM 2.57 36.626 0.054 6.96 1.56 13.35
12/25/2021 12:45:00 PM 2.61 36.698 0.054 6.96 1.59 13.35
12/25/2021 1:00:00 PM 2.66 36.788 0.054 6.98 1.59 13.35
12/25/2021 1:15:00 PM 2.71 36.878 0.054 6.99 1.67 13.34
12/25/2021 1:30:00 PM 2.75 36.95 0.054 7 1.58 13.33
12/25/2021 1:45:00 PM 2.8 37.04 0.054 7 1.64 13.32
12/25/2021 2:00:00 PM 2.83 37.094 0.054 7.01 1.63 13.28
12/25/2021 2:15:00 PM 2.87 37.166 0.054 7 1.61 13.23
12/25/2021 2:30:00 PM 2.9 37.22 0.054 7 1.59 13.2
12/25/2021 2:45:00 PM 2.93 37.274 0.054 6.99 1.7 13.18
12/25/2021 3:00:00 PM 2.97 37.346 0.054 6.99 1.62 13.14
12/25/2021 3:15:00 PM 3 37.4 0.054 6.98 1.66 13.12
12/25/2021 3:30:00 PM 3.02 37.436 0.054 6.97 1.71 13.08
12/25/2021 3:45:00 PM 3.04 37.472 0.054 6.97 1.69 13.05
12/25/2021 4:00:00 PM 3.05 37.49 0.055 6.96 1.73 12.99
12/25/2021 4:15:00 PM 3.07 37.526 0.055 6.95 1.74 12.94
12/25/2021 4:30:00 PM 3.08 37.544 0.055 6.93 1.8 12.91
12/25/2021 4:45:00 PM 3.09 37.562 0.055 6.92 1.82 12.89
12/25/2021 5:00:00 PM 3.1 37.58 0.055 6.91 1.73 12.87
12/25/2021 5:15:00 PM 3.11 37.598 0.055 6.9 1.78 12.85
12/25/2021 5:30:00 PM 3.12 37.616 0.055 6.9 1.79 12.84
12/25/2021 5:45:00 PM 3.13 37.634 0.055 6.9 1.72 12.84
12/25/2021 6:00:00 PM 3.13 37.634 0.055 6.9 1.77 12.83
12/25/2021 6:15:00 PM 3.14 37.652 0.055 6.89 1.88 12.83
12/25/2021 6:30:00 PM 3.15 37.67 0.055 6.89 1.85 12.82
12/25/2021 6:45:00 PM 3.15 37.67 0.055 6.89 1.84 12.83
12/25/2021 7:00:00 PM 3.16 37.688 0.055 6.88 1.77 12.83
12/25/2021 7:15:00 PM 3.15 37.67 0.055 6.88 1.83 12.82
12/25/2021 7:30:00 PM 3.16 37.688 0.055 6.88 1.83 12.82
12/25/2021 7:45:00 PM 3.16 37.688 0.055 6.88 1.75 12.82
12/25/2021 8:00:00 PM 3.16 37.688 0.055 6.87 1.79 12.83
12/25/2021 8:15:00 PM 3.17 37.706 0.055 6.87 1.82 12.83
12/25/2021 8:30:00 PM 3.17 37.706 0.055 6.87 1.8 12.83
12/25/2021 8:45:00 PM 3.17 37.706 0.055 6.87 1.87 12.83
12/25/2021 9:00:00 PM 3.18 37.724 0.055 6.87 1.82 12.83
12/25/2021 9:15:00 PM 3.19 37.742 0.055 6.87 1.89 12.83
12/25/2021 9:30:00 PM 3.2 37.76 0.055 6.86 1.92 12.83
12/25/2021 9:45:00 PM 3.2 37.76 0.055 6.86 1.93 12.83
12/25/2021 10:00:00 PM 3.21 37.778 0.055 6.85 1.86 12.83
12/25/2021 10:15:00 PM 3.21 37.778 0.055 6.86 1.79 12.83
12/25/2021 10:30:00 PM 3.22 37.796 0.055 6.85 1.82 12.83
12/25/2021 10:45:00 PM 3.22 37.796 0.055 6.85 1.83 12.83
12/25/2021 11:00:00 PM 3.23 37.814 0.055 6.85 1.93 12.83
12/25/2021 11:15:00 PM 3.23 37.814 0.055 6.85 1.81 12.84
12/25/2021 11:30:00 PM 3.24 37.832 0.055 6.85 1.82 12.84
12/25/2021 11:45:00 PM 3.24 37.832 0.055 6.84 1.89 12.84
12/26/2021 12:00:00 AM 3.24 37.832 0.055 6.85 1.82 12.84
12/26/2021 12:15:00 AM 3.24 37.832 0.055 6.85 1.82 12.84
12/26/2021 12:30:00 AM 3.26 37.868 0.055 6.85 1.81 12.84
12/26/2021 12:45:00 AM 3.27 37.886 0.055 6.85 1.8 12.84
12/26/2021 1:00:00 AM 3.29 37.922 0.055 6.85 1.82 12.84
12/26/2021 1:15:00 AM 3.3 37.94 0.055 6.86 1.77 12.84
12/26/2021 1:30:00 AM 3.3 37.94 0.055 6.86 1.78 12.84
12/26/2021 1:45:00 AM 3.31 37.958 0.055 6.87 1.78 12.83
12/26/2021 2:00:00 AM 3.31 37.958 0.055 6.86 1.73 12.84
12/26/2021 2:15:00 AM 3.31 37.958 0.055 6.86 1.75 12.84
12/26/2021 2:30:00 AM 3.29 37.922 0.055 6.87 1.76 12.84
12/26/2021 2:45:00 AM 3.28 37.904 0.055 6.87 1.7 12.85
12/26/2021 3:00:00 AM 3.27 37.886 0.055 6.87 1.77 12.86
12/26/2021 3:15:00 AM 3.26 37.868 0.055 6.87 1.82 12.86
12/26/2021 3:30:00 AM 3.26 37.868 0.055 6.87 1.81 12.87
12/26/2021 3:45:00 AM 3.26 37.868 0.055 6.86 1.86 12.87
12/26/2021 4:00:00 AM 3.27 37.886 0.055 6.86 1.72 12.87
12/26/2021 4:15:00 AM 3.28 37.904 0.055 6.87 3.23 12.87
12/26/2021 4:30:00 AM 3.28 37.904 0.054 6.86 1.76 12.87
12/26/2021 4:45:00 AM 3.29 37.922 0.054 6.86 1.73 12.88
12/26/2021 5:00:00 AM 3.3 37.94 0.054 6.86 1.75 12.87
12/26/2021 5:15:00 AM 3.3 37.94 0.054 6.86 1.72 12.87
12/26/2021 5:30:00 AM 3.31 37.958 0.054 6.86 1.72 12.87
12/26/2021 5:45:00 AM 3.31 37.958 0.054 6.86 1.72 12.88
12/26/2021 6:00:00 AM 3.32 37.976 0.054 6.86 1.7 12.88
12/26/2021 6:15:00 AM 3.31 37.958 0.054 6.86 1.71 12.88
12/26/2021 6:30:00 AM 3.31 37.958 0.054 6.87 1.73 12.89
12/26/2021 6:45:00 AM 3.31 37.958 0.054 6.86 1.71 12.89
12/26/2021 7:00:00 AM 3.3 37.94 0.054 6.87 1.73 12.89
12/26/2021 7:15:00 AM 3.29 37.922 0.054 6.86 1.69 12.9
12/26/2021 7:30:00 AM 3.29 37.922 0.054 6.86 1.74 12.91
12/26/2021 7:45:00 AM 3.28 37.904 0.054 6.87 1.7 12.93
12/26/2021 8:00:00 AM 3.28 37.904 0.054 6.87 1.72 12.97
12/26/2021 8:15:00 AM 3.28 37.904 0.054 6.89 1.72 13.03
12/26/2021 8:30:00 AM 3.29 37.922 0.054 6.91 1.72 13.08
12/26/2021 8:45:00 AM 3.29 37.922 0.054 6.91 1.71 13.11
12/26/2021 9:00:00 AM 3.3 37.94 0.054 6.93 1.73 13.15
12/26/2021 9:15:00 AM 3.31 37.958 0.054 6.94 1.71 13.18
12/26/2021 9:30:00 AM 3.33 37.994 0.053 6.95 1.73 13.21
12/26/2021 9:45:00 AM 3.36 38.048 0.053 6.96 1.71 13.22
12/26/2021 10:00:00 AM 3.39 38.102 0.053 6.97 1.72 13.23
12/26/2021 10:15:00 AM 3.41 38.138 0.053 6.98 1.72 13.22
12/26/2021 10:30:00 AM 3.43 38.174 0.053 6.98 1.69 13.22
12/26/2021 10:45:00 AM 3.47 38.246 0.053 6.99 1.66 13.22
12/26/2021 11:00:00 AM 3.55 38.39 0.053 7 1.68 13.24
12/26/2021 11:15:00 AM 3.66 38.588 0.053 7.01 1.69 13.23
12/26/2021 11:30:00 AM 3.76 38.768 0.053 7.02 1.68 13.21
12/26/2021 11:45:00 AM 3.86 38.948 0.053 7.03 1.66 13.18
12/26/2021 12:00:00 PM 3.95 39.11 0.053 7.03 1.69 13.14
12/26/2021 12:15:00 PM 4.03 39.254 0.053 7.03 1.65 13.1
12/26/2021 12:30:00 PM 4.08 39.344 0.053 7.04 1.72 13.06
12/26/2021 12:45:00 PM 4.11 39.398 0.053 7.04 1.76 13.06
12/26/2021 1:00:00 PM 4.12 39.416 0.053 7.03 1.64 13.03
12/26/2021 1:15:00 PM 4.12 39.416 0.053 7.04 1.65 13.04
12/26/2021 1:30:00 PM 4.11 39.398 0.053 7.04 1.68 13.04
12/26/2021 1:45:00 PM 4.1 39.38 0.053 7.04 1.68 13.04
12/26/2021 2:00:00 PM 4.1 39.38 0.053 7.04 1.66 13.03
12/26/2021 2:15:00 PM 4.09 39.362 0.053 7.03 1.68 12.99
12/26/2021 2:30:00 PM 4.07 39.326 0.053 7.02 1.66 12.95
12/26/2021 2:45:00 PM 4.08 39.344 0.053 7.02 1.63 12.97
12/26/2021 3:00:00 PM 4.08 39.344 0.053 7.02 1.67 12.99
12/26/2021 3:15:00 PM 4.06 39.308 0.053 7.01 1.61 12.93
12/26/2021 3:30:00 PM 4.06 39.308 0.053 7 1.68 12.93
12/26/2021 3:45:00 PM 4.04 39.272 0.053 7 1.66 12.9
12/26/2021 4:00:00 PM 4.03 39.254 0.053 6.98 1.63 12.87
12/26/2021 4:15:00 PM 4.01 39.218 0.053 6.97 1.72 12.84
12/26/2021 4:30:00 PM 3.98 39.164 0.053 6.95 1.7 12.8
12/26/2021 4:45:00 PM 3.94 39.092 0.053 6.94 1.64 12.78
12/26/2021 5:00:00 PM 3.91 39.038 0.053 6.92 1.68 12.75
12/26/2021 5:15:00 PM 3.87 38.966 0.053 6.91 1.76 12.76
12/26/2021 5:30:00 PM 3.84 38.912 0.053 6.9 1.69 12.76
12/26/2021 5:45:00 PM 3.8 38.84 0.054 6.9 1.68 12.77
12/26/2021 6:00:00 PM 3.76 38.768 0.054 6.89 1.67 12.79
12/26/2021 6:15:00 PM 3.72 38.696 0.054 6.89 1.69 12.8
12/26/2021 6:30:00 PM 3.68 38.624 0.054 6.88 1.72 12.81
12/26/2021 6:45:00 PM 3.64 38.552 0.054 6.88 1.77 12.83
12/26/2021 7:00:00 PM 3.61 38.498 0.054 6.88 1.72 12.84
12/26/2021 7:15:00 PM 3.57 38.426 0.054 6.88 1.74 12.85
12/26/2021 7:30:00 PM 3.53 38.354 0.054 6.88 1.72 12.86
12/26/2021 7:45:00 PM 3.49 38.282 0.054 6.88 1.66 12.88
12/26/2021 8:00:00 PM 3.44 38.192 0.054 6.88 1.68 12.89
12/26/2021 8:15:00 PM 3.4 38.12 0.054 6.87 1.77 12.91
12/26/2021 8:30:00 PM 3.35 38.03 0.054 6.88 1.71 12.93
12/26/2021 8:45:00 PM 3.3 37.94 0.054 6.88 1.7 12.95
12/26/2021 9:00:00 PM 3.26 37.868 0.054 6.87 1.68 12.96
12/26/2021 9:15:00 PM 3.22 37.796 0.054 6.88 1.79 12.98
12/26/2021 9:30:00 PM 3.18 37.724 0.054 6.87 1.67 13
12/26/2021 9:45:00 PM 3.14 37.652 0.054 6.87 1.69 13.01
12/26/2021 10:00:00 PM 3.09 37.562 0.054 6.87 1.72 13.03
12/26/2021 10:15:00 PM 3.06 37.508 0.054 6.86 1.73 13.04
12/26/2021 10:30:00 PM 3.04 37.472 0.054 6.87 1.78 13.06
12/26/2021 10:45:00 PM 3.02 37.436 0.054 6.87 1.7 13.06
12/26/2021 11:00:00 PM 3 37.4 0.054 6.86 1.66 13.07
12/26/2021 11:15:00 PM 2.99 37.382 0.054 6.87 1.74 13.08
12/26/2021 11:30:00 PM 2.98 37.364 0.055 6.87 1.76 13.08
12/26/2021 11:45:00 PM 2.99 37.382 0.055 6.87 1.68 13.08
12/27/2021 12:00:00 AM 2.99 37.382 0.055 6.87 1.65 13.08
12/27/2021 12:15:00 AM 2.99 37.382 0.055 6.87 1.73 13.08
12/27/2021 12:30:00 AM 2.97 37.346 0.055 6.86 1.69 13.08
12/27/2021 12:45:00 AM 2.95 37.31 0.055 6.86 1.7 13.09
12/27/2021 1:00:00 AM 2.92 37.256 0.055 6.86 1.72 13.09
12/27/2021 1:15:00 AM 2.89 37.202 0.055 6.86 1.67 13.1
12/27/2021 1:30:00 AM 2.87 37.166 0.055 6.87 1.71 13.11
12/27/2021 1:45:00 AM 2.83 37.094 0.055 6.87 1.71 13.12
12/27/2021 2:00:00 AM 2.79 37.022 0.055 6.86 1.66 13.12
12/27/2021 2:15:00 AM 2.75 36.95 0.055 6.86 1.65 13.14
12/27/2021 2:30:00 AM 2.71 36.878 0.055 6.86 1.67 13.15
12/27/2021 2:45:00 AM 2.68 36.824 0.055 6.86 1.72 13.17
12/27/2021 3:00:00 AM 2.64 36.752 0.055 6.86 1.71 13.19
12/27/2021 3:15:00 AM 2.6 36.68 0.055 6.86 1.73 13.2
12/27/2021 3:30:00 AM 2.56 36.608 0.055 6.86 1.67 13.22
12/27/2021 3:45:00 AM 2.52 36.536 0.055 6.86 1.66 13.23
12/27/2021 4:00:00 AM 2.48 36.464 0.055 6.85 1.68 13.25
12/27/2021 4:15:00 AM 2.46 36.428 0.055 6.86 1.72 13.26
12/27/2021 4:30:00 AM 2.43 36.374 0.055 6.85 1.7 13.27
12/27/2021 4:45:00 AM 2.41 36.338 0.055 6.85 1.69 13.28
12/27/2021 5:00:00 AM 2.38 36.284 0.055 6.85 1.71 13.29
12/27/2021 5:15:00 AM 2.37 36.266 0.055 6.85 1.67 13.3
12/27/2021 5:30:00 AM 2.35 36.23 0.055 6.85 1.75 13.3
12/27/2021 5:45:00 AM 2.33 36.194 0.055 6.85 1.64 13.3
12/27/2021 6:00:00 AM 2.31 36.158 0.055 6.85 1.67 13.31
12/27/2021 6:15:00 AM 2.3 36.14 0.055 6.85 1.74 13.31
12/27/2021 6:30:00 AM 2.29 36.122 0.055 6.85 1.68 13.31
12/27/2021 6:45:00 AM 2.27 36.086 0.055 6.85 1.62 13.32
12/27/2021 7:00:00 AM 2.26 36.068 0.055 6.85 1.66 13.32
12/27/2021 7:15:00 AM 2.25 36.05 0.055 6.85 1.71 13.32
12/27/2021 7:30:00 AM 2.24 36.032 0.055 6.85 1.69 13.32
12/27/2021 7:45:00 AM 2.23 36.014 0.055 6.85 1.66 13.33
12/27/2021 8:00:00 AM 2.23 36.014 0.055 6.85 1.63 13.35
12/27/2021 8:15:00 AM 2.23 36.014 0.055 6.86 1.63 13.37
12/27/2021 8:30:00 AM 2.23 36.014 0.055 6.86 1.64 13.4
12/27/2021 8:45:00 AM 2.23 36.014 0.055 6.87 1.63 13.42
12/27/2021 9:00:00 AM 2.23 36.014 0.055 6.88 1.61 13.44
12/27/2021 9:15:00 AM 2.23 36.014 0.055 6.89 1.56 13.47
12/27/2021 9:30:00 AM 2.24 36.032 0.055 6.9 1.67 13.51
12/27/2021 9:45:00 AM 2.24 36.032 0.055 6.9 1.66 13.5
12/27/2021 10:00:00 AM 2.24 36.032 0.055 6.9 1.63 13.49
12/27/2021 10:15:00 AM 2.24 36.032 0.055 6.9 1.61 13.51
12/27/2021 10:30:00 AM 2.26 36.068 0.055 6.92 1.61 13.58
12/27/2021 10:45:00 AM 2.24 36.032 0.055 6.93 1.63 13.57
12/27/2021 11:00:00 AM 2.25 36.05 0.054 6.94 1.62 13.63
12/27/2021 11:15:00 AM 2.28 36.104 0.054 6.96 1.6 13.68
12/27/2021 11:30:00 AM 2.33 36.194 0.054 6.98 1.66 13.71
12/27/2021 11:45:00 AM 2.39 36.302 0.054 7 1.63 13.73
12/27/2021 12:00:00 PM 2.44 36.392 0.054 7.01 1.62 13.72
12/27/2021 12:15:00 PM 2.47 36.446 0.054 7.01 1.62 13.71
12/27/2021 12:30:00 PM 2.5 36.5 0.054 7.02 1.64 13.69
12/27/2021 12:45:00 PM 2.54 36.572 0.054 7.02 1.64 13.67
12/27/2021 1:00:00 PM 2.57 36.626 0.054 7.03 1.6 13.65
12/27/2021 1:15:00 PM 2.58 36.644 0.054 7.01 1.66 13.57
12/27/2021 1:30:00 PM 2.59 36.662 0.054 7 1.61 13.5
12/27/2021 1:45:00 PM 2.58 36.644 0.054 6.98 1.62 13.46
12/27/2021 2:00:00 PM 2.44 36.392 0.054 6.98 1.61 13.47
12/27/2021 2:15:00 PM 2.35 36.23 0.054 6.98 1.6 13.52
12/27/2021 2:30:00 PM 2.36 36.248 0.054 6.98 1.64 13.52
12/27/2021 2:45:00 PM 2.38 36.284 0.054 6.97 1.68 13.47
12/27/2021 3:00:00 PM 2.4 36.32 0.054 6.95 1.64 13.44
12/27/2021 3:15:00 PM 2.4 36.32 0.054 6.95 1.6 13.44
12/27/2021 3:30:00 PM 2.39 36.302 0.054 6.95 1.62 13.42
12/27/2021 3:45:00 PM 2.4 36.32 0.054 6.93 1.67 13.39
12/27/2021 4:00:00 PM 2.4 36.32 0.054 6.93 1.69 13.34
12/27/2021 4:15:00 PM 2.41 36.338 0.054 6.91 1.65 13.3
12/27/2021 4:30:00 PM 2.42 36.356 0.054 6.91 1.6 13.28
12/27/2021 4:45:00 PM 2.42 36.356 0.055 6.9 1.6 13.25
12/27/2021 5:00:00 PM 2.42 36.356 0.055 6.89 1.61 13.23
12/27/2021 5:15:00 PM 2.42 36.356 0.055 6.89 1.7 13.22
12/27/2021 5:30:00 PM 2.42 36.356 0.055 6.89 1.7 13.21
12/27/2021 5:45:00 PM 2.42 36.356 0.055 6.88 1.65 13.21
12/27/2021 6:00:00 PM 2.42 36.356 0.055 6.88 1.64 13.2
12/27/2021 6:15:00 PM 2.42 36.356 0.055 6.88 1.62 13.2
12/27/2021 6:30:00 PM 2.41 36.338 0.055 6.88 1.61 13.19
12/27/2021 6:45:00 PM 2.41 36.338 0.055 6.88 1.61 13.19
12/27/2021 7:00:00 PM 2.41 36.338 0.055 6.87 1.68 13.19
12/27/2021 7:15:00 PM 2.41 36.338 0.055 6.87 1.61 13.2
12/27/2021 7:30:00 PM 2.41 36.338 0.055 6.87 1.61 13.19
12/27/2021 7:45:00 PM 2.41 36.338 0.055 6.87 1.61 13.19
12/27/2021 8:00:00 PM 2.4 36.32 0.055 6.87 1.64 13.19
12/27/2021 8:15:00 PM 2.38 36.284 0.055 6.87 1.63 13.2
12/27/2021 8:30:00 PM 2.33 36.194 0.055 6.86 1.71 13.21
12/27/2021 8:45:00 PM 2.3 36.14 0.055 6.86 1.76 13.22
12/27/2021 9:00:00 PM 2.3 36.14 0.055 6.86 1.8 13.22
12/27/2021 9:15:00 PM 2.31 36.158 0.055 6.86 1.83 13.21
12/27/2021 9:30:00 PM 2.32 36.176 0.055 6.86 1.82 13.21
12/27/2021 9:45:00 PM 2.31 36.158 0.055 6.86 1.86 13.21
12/27/2021 10:00:00 PM 2.31 36.158 0.055 6.86 1.83 13.2
12/27/2021 10:15:00 PM 2.32 36.176 0.055 6.85 1.88 13.19
12/27/2021 10:30:00 PM 2.33 36.194 0.055 6.86 1.88 13.2
12/27/2021 10:45:00 PM 2.34 36.212 0.055 6.86 1.92 13.19
12/27/2021 11:00:00 PM 2.35 36.23 0.055 6.86 1.96 13.19
12/27/2021 11:15:00 PM 2.36 36.248 0.055 6.86 1.88 13.18
12/27/2021 11:30:00 PM 2.36 36.248 0.055 6.86 1.88 13.18
12/27/2021 11:45:00 PM 2.37 36.266 0.055 6.86 1.93 13.17
12/28/2021 12:00:00 AM 2.38 36.284 0.055 6.86 1.93 13.17
12/28/2021 12:15:00 AM 2.39 36.302 0.055 6.86 1.93 13.17
12/28/2021 12:30:00 AM 2.39 36.302 0.055 6.86 1.9 13.17
12/28/2021 12:45:00 AM 2.39 36.302 0.055 6.86 1.89 13.16
12/28/2021 1:00:00 AM 2.4 36.32 0.055 6.86 1.96 13.16
12/28/2021 1:15:00 AM 2.4 36.32 0.056 6.86 2.09 13.16
12/28/2021 1:30:00 AM 2.4 36.32 0.056 6.86 2.04 13.16
12/28/2021 1:45:00 AM 2.41 36.338 0.056 6.86 1.96 13.16
12/28/2021 2:00:00 AM 2.41 36.338 0.056 6.86 1.88 13.16
12/28/2021 2:15:00 AM 2.41 36.338 0.056 6.86 1.93 13.16
12/28/2021 2:30:00 AM 2.41 36.338 0.056 6.87 1.92 13.16
12/28/2021 2:45:00 AM 2.42 36.356 0.056 6.86 1.94 13.16
12/28/2021 3:00:00 AM 2.42 36.356 0.056 6.85 1.9 13.16
12/28/2021 3:15:00 AM 2.42 36.356 0.056 6.85 1.95 13.16
12/28/2021 3:30:00 AM 2.43 36.374 0.056 6.86 1.87 13.16
12/28/2021 3:45:00 AM 2.43 36.374 0.056 6.86 1.9 13.16
12/28/2021 4:00:00 AM 2.43 36.374 0.056 6.86 1.8 13.16
12/28/2021 4:15:00 AM 2.44 36.392 0.056 6.86 1.83 13.16
12/28/2021 4:30:00 AM 2.44 36.392 0.056 6.86 1.81 13.16
12/28/2021 4:45:00 AM 2.44 36.392 0.056 6.86 1.81 13.15
12/28/2021 5:00:00 AM 2.45 36.41 0.056 6.86 1.8 13.16
12/28/2021 5:15:00 AM 2.45 36.41 0.056 6.86 1.85 13.15
12/28/2021 5:30:00 AM 2.45 36.41 0.056 6.86 1.82 13.15
12/28/2021 5:45:00 AM 2.46 36.428 0.056 6.86 1.83 13.16
12/28/2021 6:00:00 AM 2.46 36.428 0.056 6.86 1.75 13.16
12/28/2021 6:15:00 AM 2.46 36.428 0.056 6.85 1.79 13.16
12/28/2021 6:30:00 AM 2.47 36.446 0.056 6.86 1.78 13.16
12/28/2021 6:45:00 AM 2.47 36.446 0.056 6.86 1.79 13.17
12/28/2021 7:00:00 AM 2.47 36.446 0.056 6.85 1.78 13.17
12/28/2021 7:15:00 AM 2.48 36.464 0.056 6.86 1.79 13.17
12/28/2021 7:30:00 AM 2.48 36.464 0.056 6.86 1.78 13.18
12/28/2021 7:45:00 AM 2.48 36.464 0.056 6.85 1.82 13.19
12/28/2021 8:00:00 AM 2.49 36.482 0.056 6.87 1.71 13.21
12/28/2021 8:15:00 AM 2.49 36.482 0.056 6.87 1.76 13.24
12/28/2021 8:30:00 AM 2.5 36.5 0.056 6.88 1.78 13.28
12/28/2021 8:45:00 AM 2.52 36.536 0.056 6.9 1.75 13.33
12/28/2021 9:00:00 AM 2.54 36.572 0.056 6.91 1.74 13.38
12/28/2021 9:15:00 AM 2.56 36.608 0.056 6.93 1.77 13.41
12/28/2021 9:30:00 AM 2.59 36.662 0.056 6.94 1.77 13.45
12/28/2021 9:45:00 AM 2.62 36.716 0.055 6.95 1.75 13.49
12/28/2021 10:00:00 AM 2.64 36.752 0.055 6.97 1.76 13.49
12/28/2021 10:15:00 AM 2.65 36.77 0.055 6.97 1.77 13.49
12/28/2021 10:30:00 AM 2.7 36.86 0.055 7 1.68 13.54
12/28/2021 10:45:00 AM 2.77 36.986 0.055 7.01 1.72 13.56
12/28/2021 11:00:00 AM 2.8 37.04 0.055 7.02 1.8 13.55
12/28/2021 11:15:00 AM 2.85 37.13 0.055 7.03 1.73 13.55
12/28/2021 11:30:00 AM 2.91 37.238 0.055 7.03 1.69 13.54
12/28/2021 11:45:00 AM 2.95 37.31 0.055 7.04 1.78 13.53
12/28/2021 12:00:00 PM 2.99 37.382 0.055 7.04 1.72 13.5
12/28/2021 12:15:00 PM 3.01 37.418 0.055 7.04 1.72 13.46
12/28/2021 12:30:00 PM 3.02 37.436 0.055 7.03 1.69 13.42
12/28/2021 12:45:00 PM 3.04 37.472 0.055 7.02 1.73 13.39
12/28/2021 1:00:00 PM 3.06 37.508 0.055 7.02 1.68 13.38
12/28/2021 1:15:00 PM 3.08 37.544 0.055 7.02 1.74 13.33
12/28/2021 1:30:00 PM 3.09 37.562 0.055 7.01 1.68 13.3
12/28/2021 1:45:00 PM 3.1 37.58 0.055 7.01 1.69 13.29
12/28/2021 2:00:00 PM 3.11 37.598 0.055 6.99 1.71 13.25
12/28/2021 2:15:00 PM 3.12 37.616 0.055 6.99 1.68 13.23
12/28/2021 2:30:00 PM 3.14 37.652 0.055 6.99 1.68 13.23
12/28/2021 2:45:00 PM 3.17 37.706 0.055 7 1.71 13.26
12/28/2021 3:00:00 PM 3.19 37.742 0.055 7 1.68 13.23
12/28/2021 3:15:00 PM 3.2 37.76 0.055 6.99 1.63 13.2
12/28/2021 3:30:00 PM 3.2 37.76 0.055 6.97 1.73 13.13
12/28/2021 3:45:00 PM 3.21 37.778 0.055 6.96 1.75 13.07
12/28/2021 4:00:00 PM 3.21 37.778 0.055 6.94 1.79 13.03
12/28/2021 4:15:00 PM 3.21 37.778 0.055 6.92 1.74 13.01
12/28/2021 4:30:00 PM 3.2 37.76 0.055 6.91 1.76 12.99
12/28/2021 4:45:00 PM 3.2 37.76 0.055 6.91 1.7 12.98
12/28/2021 5:00:00 PM 3.2 37.76 0.055 6.89 1.69 12.96
12/28/2021 5:15:00 PM 3.19 37.742 0.055 6.89 1.7 12.95
12/28/2021 5:30:00 PM 3.18 37.724 0.056 6.89 1.75 12.94
12/28/2021 5:45:00 PM 3.18 37.724 0.056 6.88 1.78 12.94
12/28/2021 6:00:00 PM 3.17 37.706 0.056 6.89 1.76 12.93
12/28/2021 6:15:00 PM 3.17 37.706 0.056 6.88 1.68 12.93
12/28/2021 6:30:00 PM 3.17 37.706 0.056 6.88 1.72 12.93
12/28/2021 6:45:00 PM 3.16 37.688 0.056 6.88 1.75 12.92
12/28/2021 7:00:00 PM 3.16 37.688 0.056 6.88 1.82 12.92
12/28/2021 7:15:00 PM 3.16 37.688 0.056 6.88 1.84 12.92
12/28/2021 7:30:00 PM 3.15 37.67 0.056 6.88 1.93 12.91
12/28/2021 7:45:00 PM 3.15 37.67 0.056 6.88 2 12.91
12/28/2021 8:00:00 PM 3.15 37.67 0.056 6.88 2.04 12.91
12/28/2021 8:15:00 PM 3.14 37.652 0.056 6.88 2.27 12.92
12/28/2021 8:30:00 PM 3.14 37.652 0.056 6.88 2.2 12.92
12/28/2021 8:45:00 PM 3.14 37.652 0.056 6.88 2.39 12.93
12/28/2021 9:00:00 PM 3.13 37.634 0.056 6.88 2.37 12.93
12/28/2021 9:15:00 PM 3.1 37.58 0.056 6.88 2.44 12.93
12/28/2021 9:30:00 PM 3.08 37.544 0.056 6.88 2.49 12.94
12/28/2021 9:45:00 PM 3.07 37.526 0.056 6.88 2.55 12.95
12/28/2021 10:00:00 PM 3.07 37.526 0.056 6.87 2.56 12.94
12/28/2021 10:15:00 PM 3.07 37.526 0.056 6.87 2.54 12.94
12/28/2021 10:30:00 PM 3.07 37.526 0.056 6.86 2.52 12.93
12/28/2021 10:45:00 PM 3.06 37.508 0.056 6.87 2.51 12.94
12/28/2021 11:00:00 PM 3.06 37.508 0.055 6.87 2.58 12.94
12/28/2021 11:15:00 PM 3.05 37.49 0.055 6.86 2.68 12.95
12/28/2021 11:30:00 PM 3.05 37.49 0.055 6.86 2.7 12.95
12/28/2021 11:45:00 PM 3.05 37.49 0.055 6.86 2.68 12.94
12/29/2021 12:00:00 AM 3.06 37.508 0.055 6.86 2.69 12.94
12/29/2021 12:15:00 AM 3.06 37.508 0.055 6.86 2.77 12.94
12/29/2021 12:30:00 AM 3.06 37.508 0.055 6.87 3.02 12.93
12/29/2021 12:45:00 AM 3.07 37.526 0.055 6.87 2.9 12.93
12/29/2021 1:00:00 AM 3.07 37.526 0.055 6.87 2.98 12.93
12/29/2021 1:15:00 AM 3.07 37.526 0.055 6.88 2.94 12.92
12/29/2021 1:30:00 AM 3.08 37.544 0.055 6.87 2.78 12.92
12/29/2021 1:45:00 AM 3.08 37.544 0.056 6.87 2.9 12.92
12/29/2021 2:00:00 AM 3.09 37.562 0.056 6.87 2.83 12.92
12/29/2021 2:15:00 AM 3.09 37.562 0.056 6.87 2.92 12.92
12/29/2021 2:30:00 AM 3.1 37.58 0.056 6.87 3.05 12.91
12/29/2021 2:45:00 AM 3.11 37.598 0.056 6.87 3.22 12.91
12/29/2021 3:00:00 AM 3.11 37.598 0.056 6.87 3.49 12.91
12/29/2021 3:15:00 AM 3.12 37.616 0.056 6.88 3.26 12.91
12/29/2021 3:30:00 AM 3.12 37.616 0.056 6.88 3.18 12.91
12/29/2021 3:45:00 AM 3.12 37.616 0.056 6.87 3.16 12.92
12/29/2021 4:00:00 AM 3.13 37.634 0.056 6.88 3.11 12.91
12/29/2021 4:15:00 AM 3.13 37.634 0.056 6.88 2.95 12.91
12/29/2021 4:30:00 AM 3.14 37.652 0.056 6.88 2.74 12.91
12/29/2021 4:45:00 AM 3.14 37.652 0.056 6.89 2.75 12.9
12/29/2021 5:00:00 AM 3.15 37.67 0.056 6.88 2.6 12.9
12/29/2021 5:15:00 AM 3.15 37.67 0.056 6.88 2.57 12.9
12/29/2021 5:30:00 AM 3.15 37.67 0.056 6.89 2.69 12.89
12/29/2021 5:45:00 AM 3.16 37.688 0.056 6.88 2.68 12.9
12/29/2021 6:00:00 AM 3.16 37.688 0.056 6.88 2.43 12.9
12/29/2021 6:15:00 AM 3.17 37.706 0.056 6.88 2.42 12.9
12/29/2021 6:30:00 AM 3.17 37.706 0.056 6.88 2.34 12.9
12/29/2021 6:45:00 AM 3.18 37.724 0.056 6.88 2.28 12.9
12/29/2021 7:00:00 AM 3.18 37.724 0.056 6.88 2.26 12.9
12/29/2021 7:15:00 AM 3.18 37.724 0.056 6.87 2.38 12.9
12/29/2021 7:30:00 AM 3.19 37.742 0.056 6.87 2.31 12.91
12/29/2021 7:45:00 AM 3.19 37.742 0.056 6.87 2.37 12.92
12/29/2021 8:00:00 AM 3.19 37.742 0.056 6.88 2.2 12.93
12/29/2021 8:15:00 AM 3.2 37.76 0.056 6.88 2.27 12.95
12/29/2021 8:30:00 AM 3.21 37.778 0.056 6.88 2.23 12.97
12/29/2021 8:45:00 AM 3.22 37.796 0.056 6.89 2.15 13
12/29/2021 9:00:00 AM 3.23 37.814 0.056 6.9 2.19 13.03
12/29/2021 9:15:00 AM 3.25 37.85 0.056 6.91 2.2 13.06
12/29/2021 9:30:00 AM 3.26 37.868 0.056 6.92 2.2 13.09
12/29/2021 9:45:00 AM 3.29 37.922 0.056 6.94 2.17 13.13
12/29/2021 10:00:00 AM 3.31 37.958 0.056 6.94 2.27 13.16
12/29/2021 10:15:00 AM 3.35 38.03 0.056 6.96 2.23 13.21
12/29/2021 10:30:00 AM 3.4 38.12 0.056 6.98 2.17 13.26
12/29/2021 10:45:00 AM 3.45 38.21 0.056 7 2.17 13.28
12/29/2021 11:00:00 AM 3.5 38.3 0.056 7.02 2.11 13.29
12/29/2021 11:15:00 AM 3.53 38.354 0.056 7.03 2.2 13.28
12/29/2021 11:30:00 AM 3.57 38.426 0.055 7.03 2.09 13.27
12/29/2021 11:45:00 AM 3.6 38.48 0.055 7.03 2.04 13.24
12/29/2021 12:00:00 PM 3.64 38.552 0.055 7.03 2.02 13.21
12/29/2021 12:15:00 PM 3.68 38.624 0.055 7.04 2.05 13.21
12/29/2021 12:30:00 PM 3.72 38.696 0.055 7.05 2.02 13.19
12/29/2021 12:45:00 PM 3.76 38.768 0.055 7.05 2.01 13.19
12/29/2021 1:00:00 PM 3.8 38.84 0.055 7.06 2.07 13.18
12/29/2021 1:15:00 PM 3.83 38.894 0.055 7.06 1.95 13.16
12/29/2021 1:30:00 PM 3.86 38.948 0.055 7.06 1.96 13.14
12/29/2021 1:45:00 PM 3.89 39.002 0.055 7.06 1.95 13.13
12/29/2021 2:00:00 PM 3.91 39.038 0.055 7.05 2.02 13.1
12/29/2021 2:15:00 PM 3.93 39.074 0.055 7.05 1.92 13.06
12/29/2021 2:30:00 PM 3.95 39.11 0.055 7.03 1.88 13.02
12/29/2021 2:45:00 PM 3.96 39.128 0.055 7.02 1.94 12.98
12/29/2021 3:00:00 PM 3.98 39.164 0.055 7.01 1.89 12.97
12/29/2021 3:15:00 PM 3.99 39.182 0.055 7 1.98 12.95
12/29/2021 3:30:00 PM 4 39.2 0.055 7 1.92 12.92
12/29/2021 3:45:00 PM 4 39.2 0.055 6.98 1.93 12.87
12/29/2021 4:00:00 PM 4.01 39.218 0.056 6.97 1.88 12.84
12/29/2021 4:15:00 PM 4.01 39.218 0.056 6.96 1.9 12.79
12/29/2021 4:30:00 PM 4.01 39.218 0.056 6.94 1.87 12.77
12/29/2021 4:45:00 PM 4.02 39.236 0.056 6.93 1.87 12.74
12/29/2021 5:00:00 PM 4.02 39.236 0.056 6.92 1.89 12.71
12/29/2021 5:15:00 PM 4.02 39.236 0.056 6.91 1.9 12.69
12/29/2021 5:30:00 PM 4.02 39.236 0.056 6.9 1.89 12.68
12/29/2021 5:45:00 PM 4.02 39.236 0.056 6.89 1.88 12.68
12/29/2021 6:00:00 PM 4.02 39.236 0.056 6.89 1.8 12.67
12/29/2021 6:15:00 PM 4.02 39.236 0.056 6.88 1.86 12.67
12/29/2021 6:30:00 PM 4.02 39.236 0.056 6.88 1.86 12.66
12/29/2021 6:45:00 PM 4.02 39.236 0.056 6.88 1.88 12.67
12/29/2021 7:00:00 PM 4.01 39.218 0.056 6.87 1.93 12.67
12/29/2021 7:15:00 PM 4.01 39.218 0.056 6.88 1.94 12.67
12/29/2021 7:30:00 PM 4.01 39.218 0.056 6.87 1.88 12.67
12/29/2021 7:45:00 PM 4 39.2 0.056 6.87 1.96 12.68
12/29/2021 8:00:00 PM 4 39.2 0.056 6.87 2.07 12.68
12/29/2021 8:15:00 PM 3.99 39.182 0.056 6.87 2.01 12.68
12/29/2021 8:30:00 PM 3.98 39.164 0.056 6.86 2.02 12.69
12/29/2021 8:45:00 PM 3.97 39.146 0.056 6.86 2.05 12.68
12/29/2021 9:00:00 PM 3.97 39.146 0.056 6.86 2.19 12.68
12/29/2021 9:15:00 PM 3.95 39.11 0.056 6.86 2.11 12.68
12/29/2021 9:30:00 PM 3.94 39.092 0.056 6.86 2.09 12.68
12/29/2021 9:45:00 PM 3.94 39.092 0.056 6.86 2.17 12.69
12/29/2021 10:00:00 PM 3.93 39.074 0.056 6.86 2.2 12.69
12/29/2021 10:15:00 PM 3.94 39.092 0.056 6.86 2.18 12.69
12/29/2021 10:30:00 PM 3.94 39.092 0.056 6.86 2.22 12.69
12/29/2021 10:45:00 PM 3.93 39.074 0.056 6.86 2.24 12.7
12/29/2021 11:00:00 PM 3.93 39.074 0.056 6.86 2.28 12.7
12/29/2021 11:15:00 PM 3.93 39.074 0.056 6.86 2.33 12.7
12/29/2021 11:30:00 PM 3.94 39.092 0.056 6.86 2.36 12.71
12/29/2021 11:45:00 PM 3.94 39.092 0.056 6.85 2.32 12.7
12/30/2021 12:00:00 AM 3.94 39.092 0.056 6.85 2.31 12.69
12/30/2021 12:15:00 AM 3.94 39.092 0.056 6.85 2.3 12.7
12/30/2021 12:30:00 AM 3.94 39.092 0.056 6.85 2.38 12.69
12/30/2021 12:45:00 AM 3.94 39.092 0.056 6.85 2.34 12.69
12/30/2021 1:00:00 AM 3.95 39.11 0.056 6.85 2.35 12.69
12/30/2021 1:15:00 AM 3.95 39.11 0.056 6.85 2.41 12.69
12/30/2021 1:30:00 AM 3.95 39.11 0.056 6.85 2.49 12.69
12/30/2021 1:45:00 AM 3.96 39.128 0.056 6.85 2.46 12.68
12/30/2021 2:00:00 AM 3.96 39.128 0.056 6.85 2.54 12.69
12/30/2021 2:15:00 AM 3.97 39.146 0.056 6.85 2.6 12.67
12/30/2021 2:30:00 AM 3.97 39.146 0.056 6.84 2.67 12.67
12/30/2021 2:45:00 AM 3.97 39.146 0.056 6.85 2.77 12.67
12/30/2021 3:00:00 AM 3.98 39.164 0.056 6.85 2.87 12.67
12/30/2021 3:15:00 AM 3.98 39.164 0.056 6.85 2.95 12.66
12/30/2021 3:30:00 AM 3.99 39.182 0.056 6.84 3.02 12.66
12/30/2021 3:45:00 AM 3.99 39.182 0.056 6.85 2.98 12.66
12/30/2021 4:00:00 AM 3.99 39.182 0.056 6.84 3 12.66
12/30/2021 4:15:00 AM 4 39.2 0.056 6.84 2.94 12.65
12/30/2021 4:30:00 AM 4 39.2 0.056 6.84 2.99 12.65
12/30/2021 4:45:00 AM 4.01 39.218 0.056 6.84 2.74 12.66
12/30/2021 5:00:00 AM 4.01 39.218 0.056 6.84 2.61 12.65
12/30/2021 5:15:00 AM 4.01 39.218 0.056 6.83 2.5 12.64
12/30/2021 5:30:00 AM 4.02 39.236 0.056 6.83 2.44 12.65
12/30/2021 5:45:00 AM 4.02 39.236 0.056 6.84 2.47 12.65
12/30/2021 6:00:00 AM 4.03 39.254 0.056 6.84 2.23 12.64
12/30/2021 6:15:00 AM 4.03 39.254 0.056 6.83 2.24 12.64
12/30/2021 6:30:00 AM 4.04 39.272 0.056 6.83 2.2 12.64
12/30/2021 6:45:00 AM 4.04 39.272 0.056 6.84 2.23 12.64
12/30/2021 7:00:00 AM 4.05 39.29 0.056 6.83 2.16 12.65
12/30/2021 7:15:00 AM 4.05 39.29 0.056 6.83 2.14 12.64
12/30/2021 7:30:00 AM 4.06 39.308 0.056 6.83 2.07 12.63
12/30/2021 7:45:00 AM 4.06 39.308 0.056 6.83 2.08 12.64
12/30/2021 8:00:00 AM 4.07 39.326 0.056 6.83 2.09 12.65
12/30/2021 8:15:00 AM 4.08 39.344 0.056 6.83 2.08 12.66
12/30/2021 8:30:00 AM 4.08 39.344 0.056 6.83 1.96 12.67
12/30/2021 8:45:00 AM 4.09 39.362 0.056 6.84 2.04 12.69
12/30/2021 9:00:00 AM 4.1 39.38 0.056 6.84 2 12.69
12/30/2021 9:15:00 AM 4.11 39.398 0.056 6.85 1.93 12.71
12/30/2021 9:30:00 AM 4.12 39.416 0.056 6.85 1.99 12.73
12/30/2021 9:45:00 AM 4.13 39.434 0.056 6.85 1.98 12.73
12/30/2021 10:00:00 AM 4.15 39.47 0.056 6.86 1.88 12.75
12/30/2021 10:15:00 AM 4.16 39.488 0.055 6.86 1.93 12.78
12/30/2021 10:30:00 AM 4.18 39.524 0.055 6.87 1.93 12.8
12/30/2021 10:45:00 AM 4.2 39.56 0.055 6.88 1.87 12.81
12/30/2021 11:00:00 AM 4.21 39.578 0.055 6.89 1.89 12.82
12/30/2021 11:15:00 AM 4.23 39.614 0.055 6.89 2 12.83
12/30/2021 11:30:00 AM 4.26 39.668 0.055 6.9 1.88 12.87
12/30/2021 11:45:00 AM 4.29 39.722 0.055 6.92 1.98 12.9
12/30/2021 12:00:00 PM 4.31 39.758 0.055 6.93 1.92 12.9
12/30/2021 12:15:00 PM 4.34 39.812 0.055 6.93 1.95 12.87
12/30/2021 12:30:00 PM 4.35 39.83 0.055 6.93 1.88 12.84
12/30/2021 12:45:00 PM 4.37 39.866 0.055 6.93 1.96 12.81
12/30/2021 1:00:00 PM 4.41 39.938 0.055 6.94 1.92 12.86
12/30/2021 1:15:00 PM 4.44 39.992 0.055 6.96 1.88 12.88
12/30/2021 1:30:00 PM 4.47 40.046 0.055 6.97 1.93 12.87
12/30/2021 1:45:00 PM 4.49 40.082 0.055 6.97 1.89 12.85
12/30/2021 2:00:00 PM 4.5 40.1 0.055 6.97 1.92 12.8
12/30/2021 2:15:00 PM 4.52 40.136 0.055 6.96 1.96 12.76
12/30/2021 2:30:00 PM 4.53 40.154 0.055 6.95 1.93 12.74
12/30/2021 2:45:00 PM 4.55 40.19 0.056 6.95 1.93 12.71
12/30/2021 3:00:00 PM 4.56 40.208 0.056 6.93 1.9 12.66
12/30/2021 3:15:00 PM 4.57 40.226 0.056 6.92 1.99 12.62
12/30/2021 3:30:00 PM 4.58 40.244 0.056 6.91 1.93 12.58
12/30/2021 3:45:00 PM 4.6 40.28 0.056 6.9 1.97 12.57
12/30/2021 4:00:00 PM 4.61 40.298 0.056 6.89 1.96 12.55
12/30/2021 4:15:00 PM 4.62 40.316 0.056 6.88 2.07 12.53
12/30/2021 4:30:00 PM 4.63 40.334 0.057 6.88 2.06 12.5
12/30/2021 4:45:00 PM 4.64 40.352 0.057 6.87 2.21 12.48
12/30/2021 5:00:00 PM 4.64 40.352 0.057 6.86 2.21 12.46
12/30/2021 5:15:00 PM 4.66 40.388 0.057 6.86 2.24 12.46
12/30/2021 5:30:00 PM 4.67 40.406 0.057 6.86 2.4 12.45
12/30/2021 5:45:00 PM 4.68 40.424 0.057 6.85 2.34 12.44
12/30/2021 6:00:00 PM 4.68 40.424 0.057 6.85 2.34 12.44
12/30/2021 6:15:00 PM 4.69 40.442 0.057 6.84 2.32 12.44
12/30/2021 6:30:00 PM 4.69 40.442 0.057 6.84 2.31 12.43
12/30/2021 6:45:00 PM 4.7 40.46 0.057 6.83 2.34 12.43
12/30/2021 7:00:00 PM 4.71 40.478 0.057 6.84 2.31 12.43
12/30/2021 7:15:00 PM 4.71 40.478 0.057 6.83 2.3 12.43
12/30/2021 7:30:00 PM 4.72 40.496 0.057 6.84 2.24 12.42
12/30/2021 7:45:00 PM 4.73 40.514 0.057 6.84 2.22 12.42
12/30/2021 8:00:00 PM 4.73 40.514 0.058 6.83 2.36 12.42
12/30/2021 8:15:00 PM 4.74 40.532 0.058 6.83 2.38 12.42
12/30/2021 8:30:00 PM 4.74 40.532 0.058 6.84 2.46 12.42
12/30/2021 8:45:00 PM 4.75 40.55 0.058 6.83 2.55 12.42
12/30/2021 9:00:00 PM 4.75 40.55 0.058 6.83 2.83 12.42
12/30/2021 9:15:00 PM 4.76 40.568 0.058 6.82 2.81 12.42
12/30/2021 9:30:00 PM 4.76 40.568 0.058 6.83 2.96 12.42
12/30/2021 9:45:00 PM 4.77 40.586 0.058 6.82 2.84 12.42
12/30/2021 10:00:00 PM 4.77 40.586 0.058 6.83 3.07 12.41
12/30/2021 10:15:00 PM 4.78 40.604 0.058 6.82 3.12 12.42
12/30/2021 10:30:00 PM 4.79 40.622 0.058 6.82 2.95 12.41
12/30/2021 10:45:00 PM 4.8 40.64 0.058 6.82 2.79 12.41
12/30/2021 11:00:00 PM 4.8 40.64 0.058 6.82 2.83 12.4
12/30/2021 11:15:00 PM 4.81 40.658 0.058 6.82 2.73 12.4
12/30/2021 11:30:00 PM 4.82 40.676 0.058 6.82 2.67 12.39
12/30/2021 11:45:00 PM 4.83 40.694 0.058 6.82 2.61 12.39
12/31/2021 12:00:00 AM 4.83 40.694 0.058 6.81 2.53 12.39
12/31/2021 12:15:00 AM 4.84 40.712 0.058 6.82 2.51 12.39
12/31/2021 12:30:00 AM 4.85 40.73 0.058 6.82 2.45 12.39
12/31/2021 12:45:00 AM 4.86 40.748 0.058 6.82 2.46 12.38
12/31/2021 1:00:00 AM 4.86 40.748 0.058 6.81 2.41 12.38
12/31/2021 1:15:00 AM 4.87 40.766 0.058 6.81 2.4 12.38
12/31/2021 1:30:00 AM 4.88 40.784 0.058 6.82 2.37 12.37
12/31/2021 1:45:00 AM 4.88 40.784 0.058 6.81 2.33 12.37
12/31/2021 2:00:00 AM 4.89 40.802 0.058 6.82 2.41 12.37
12/31/2021 2:15:00 AM 4.9 40.82 0.058 6.81 2.38 12.37
12/31/2021 2:30:00 AM 4.9 40.82 0.058 6.81 2.38 12.36
12/31/2021 2:45:00 AM 4.91 40.838 0.058 6.81 2.45 12.37
12/31/2021 3:00:00 AM 4.91 40.838 0.058 6.81 2.44 12.36
12/31/2021 3:15:00 AM 4.92 40.856 0.058 6.81 2.41 12.36
12/31/2021 3:30:00 AM 4.93 40.874 0.058 6.81 2.44 12.35
12/31/2021 3:45:00 AM 4.93 40.874 0.058 6.8 2.41 12.35
12/31/2021 4:00:00 AM 4.94 40.892 0.058 6.81 2.46 12.35
12/31/2021 4:15:00 AM 4.94 40.892 0.058 6.8 2.31 12.34
12/31/2021 4:30:00 AM 4.95 40.91 0.058 6.8 2.3 12.34
12/31/2021 4:45:00 AM 4.95 40.91 0.058 6.79 2.33 12.34
12/31/2021 5:00:00 AM 4.96 40.928 0.058 6.79 2.33 12.34
12/31/2021 5:15:00 AM 4.96 40.928 0.058 6.79 2.14 12.34
12/31/2021 5:30:00 AM 4.97 40.946 0.058 6.8 2.22 12.33
12/31/2021 5:45:00 AM 4.97 40.946 0.058 6.79 2.29 12.33
12/31/2021 6:00:00 AM 4.98 40.964 0.058 6.79 2.26 12.34
12/31/2021 6:15:00 AM 4.98 40.964 0.058 6.8 2.5 12.34
12/31/2021 6:30:00 AM 4.99 40.982 0.058 6.79 2.24 12.33
12/31/2021 6:45:00 AM 4.99 40.982 0.058 6.79 2.16 12.33
12/31/2021 7:00:00 AM 5 41 0.058 6.79 2.18 12.33
12/31/2021 7:15:00 AM 5.01 41.018 0.058 6.79 2.26 12.33
12/31/2021 7:30:00 AM 5.01 41.018 0.058 6.79 2.3 12.33
12/31/2021 7:45:00 AM 5.02 41.036 0.058 6.79 2.24 12.33
12/31/2021 8:00:00 AM 5.03 41.054 0.058 6.79 2.18 12.34
12/31/2021 8:15:00 AM 5.04 41.072 0.058 6.79 2.18 12.37
12/31/2021 8:30:00 AM 5.05 41.09 0.058 6.8 2.21 12.39
12/31/2021 8:45:00 AM 5.06 41.108 0.058 6.81 2.15 12.41
12/31/2021 9:00:00 AM 5.08 41.144 0.058 6.81 2.09 12.44
12/31/2021 9:15:00 AM 5.09 41.162 0.058 6.82 2.14 12.45
12/31/2021 9:30:00 AM 5.11 41.198 0.058 6.83 2.06 12.48
12/31/2021 9:45:00 AM 5.14 41.252 0.058 6.85 2.17 12.53
12/31/2021 10:00:00 AM 5.16 41.288 0.058 6.85 2.19 12.54
12/31/2021 10:15:00 AM 5.17 41.306 0.058 6.86 2.04 12.53
12/31/2021 10:30:00 AM 5.2 41.36 0.058 6.88 2.07 12.51
12/31/2021 10:45:00 AM 5.24 41.432 0.058 6.9 2.09 12.55
12/31/2021 11:00:00 AM 5.28 41.504 0.058 6.92 2.06 12.59
12/31/2021 11:15:00 AM 5.31 41.558 0.057 6.94 1.99 12.57
12/31/2021 11:30:00 AM 5.36 41.648 0.057 6.96 1.96 12.59
12/31/2021 11:45:00 AM 5.42 41.756 0.057 6.99 2.02 12.62
12/31/2021 12:00:00 PM 5.45 41.81 0.057 6.99 1.99 12.61
12/31/2021 12:15:00 PM 5.49 41.882 0.057 7 2.09 12.6
12/31/2021 12:30:00 PM 5.53 41.954 0.057 7.01 2.03 12.59
12/31/2021 12:45:00 PM 5.57 42.026 0.057 7.02 1.94 12.55
12/31/2021 1:00:00 PM 5.61 42.098 0.057 7.01 1.97 12.5
12/31/2021 1:15:00 PM 5.65 42.17 0.057 7.01 2.02 12.48
12/31/2021 1:30:00 PM 5.7 42.26 0.057 7.02 2 12.49
12/31/2021 1:45:00 PM 5.74 42.332 0.057 7.03 1.91 12.51
12/31/2021 2:00:00 PM 5.78 42.404 0.057 7.03 1.94 12.49
12/31/2021 2:15:00 PM 5.82 42.476 0.057 7.03 1.99 12.46
12/31/2021 2:30:00 PM 5.83 42.494 0.057 7.01 2.01 12.38
12/31/2021 2:45:00 PM 5.86 42.548 0.057 7 2.05 12.35
12/31/2021 3:00:00 PM 5.88 42.584 0.057 6.99 2.03 12.33
12/31/2021 3:15:00 PM 5.91 42.638 0.057 6.99 2.01 12.34
12/31/2021 3:30:00 PM 5.93 42.674 0.057 6.98 2 12.29
12/31/2021 3:45:00 PM 5.94 42.692 0.057 6.97 1.97 12.24
12/31/2021 4:00:00 PM 5.95 42.71 0.057 6.95 1.96 12.19
12/31/2021 4:15:00 PM 5.95 42.71 0.057 6.94 1.99 12.17
12/31/2021 4:30:00 PM 5.94 42.692 0.057 6.93 2.01 12.15
12/31/2021 4:45:00 PM 5.94 42.692 0.057 6.91 1.98 12.1
12/31/2021 5:00:00 PM 5.94 42.692 0.057 6.9 2.01 12.07
12/31/2021 5:15:00 PM 5.94 42.692 0.057 6.88 2.03 12.05
12/31/2021 5:30:00 PM 5.93 42.674 0.058 6.88 2.07 12.04
12/31/2021 5:45:00 PM 5.92 42.656 0.058 6.87 2.03 12.04
12/31/2021 6:00:00 PM 5.91 42.638 0.058 6.86 2.06 12.03
12/31/2021 6:15:00 PM 5.9 42.62 0.058 6.86 2.01 12.04
12/31/2021 6:30:00 PM 5.9 42.62 0.058 6.85 2.08 12.04
12/31/2021 6:45:00 PM 5.89 42.602 0.058 6.85 2.09 12.04
12/31/2021 7:00:00 PM 5.89 42.602 0.058 6.84 2.01 12.04
12/31/2021 7:15:00 PM 5.88 42.584 0.058 6.84 2.04 12.04
12/31/2021 7:30:00 PM 5.87 42.566 0.058 6.84 2.09 12.05
12/31/2021 7:45:00 PM 5.87 42.566 0.058 6.83 2 12.05
12/31/2021 8:00:00 PM 5.87 42.566 0.058 6.84 2.08 12.05
12/31/2021 8:15:00 PM 5.86 42.548 0.058 6.83 2.09 12.05
12/31/2021 8:30:00 PM 5.86 42.548 0.058 6.83 2.09 12.04
12/31/2021 8:45:00 PM 5.86 42.548 0.058 6.83 2.07 12.04
12/31/2021 9:00:00 PM 5.86 42.548 0.058 6.82 2.03 12.04
12/31/2021 9:15:00 PM 5.86 42.548 0.058 6.82 2.03 12.04
12/31/2021 9:30:00 PM 5.86 42.548 0.058 6.82 2.07 12.04
12/31/2021 9:45:00 PM 5.86 42.548 0.058 6.82 2.03 12.04
12/31/2021 10:00:00 PM 5.85 42.53 0.058 6.82 2.05 12.04
12/31/2021 10:15:00 PM 5.85 42.53 0.059 6.81 2.05 12.04
12/31/2021 10:30:00 PM 5.85 42.53 0.058 6.82 2.05 12.04
12/31/2021 10:45:00 PM 5.85 42.53 0.059 6.81 2.07 12.04
12/31/2021 11:00:00 PM 5.86 42.548 0.059 6.81 2.09 12.03
12/31/2021 11:15:00 PM 5.86 42.548 0.059 6.81 2.05 12.03
12/31/2021 11:30:00 PM 5.86 42.548 0.059 6.81 2.11 12.03
12/31/2021 11:45:00 PM 5.86 42.548 0.059 6.81 1.97 12.02
1/1/2022 12:00:00 AM 5.86 42.548 0.059 6.8 2.07 12.02
1/1/2022 12:15:00 AM 5.87 42.566 0.059 6.81 2.04 12.02
1/1/2022 12:30:00 AM 5.87 42.566 0.059 6.81 2.02 12.02
1/1/2022 12:45:00 AM 5.87 42.566 0.059 6.8 2 12.02
1/1/2022 1:00:00 AM 5.87 42.566 0.059 6.8 1.97 12.01
1/1/2022 1:15:00 AM 5.88 42.584 0.059 6.8 1.98 12.01
1/1/2022 1:30:00 AM 5.88 42.584 0.059 6.8 2.04 12.01
1/1/2022 1:45:00 AM 5.88 42.584 0.059 6.81 1.98 12.01
1/1/2022 2:00:00 AM 5.88 42.584 0.059 6.8 2.05 12.01
1/1/2022 2:15:00 AM 5.89 42.602 0.059 6.8 1.98 12.01
1/1/2022 2:30:00 AM 5.89 42.602 0.059 6.8 1.97 12.01
1/1/2022 2:45:00 AM 5.89 42.602 0.059 6.8 1.98 12.01
1/1/2022 3:00:00 AM 5.9 42.62 0.059 6.8 2.09 12
1/1/2022 3:15:00 AM 5.9 42.62 0.059 6.8 1.98 12
1/1/2022 3:30:00 AM 5.9 42.62 0.059 6.8 2.02 11.99
1/1/2022 3:45:00 AM 5.9 42.62 0.059 6.8 2.06 12
1/1/2022 4:00:00 AM 5.9 42.62 0.059 6.8 1.99 11.99
1/1/2022 4:15:00 AM 5.91 42.638 0.059 6.8 2.01 11.99
1/1/2022 4:30:00 AM 5.91 42.638 0.059 6.8 1.98 11.99
1/1/2022 4:45:00 AM 5.91 42.638 0.059 6.79 2 11.99
1/1/2022 5:00:00 AM 5.91 42.638 0.059 6.79 1.94 11.99
1/1/2022 5:15:00 AM 5.91 42.638 0.059 6.79 1.98 11.98
1/1/2022 5:30:00 AM 5.92 42.656 0.059 6.79 1.96 11.98
1/1/2022 5:45:00 AM 5.92 42.656 0.059 6.79 1.92 11.98
1/1/2022 6:00:00 AM 5.92 42.656 0.059 6.8 1.97 11.98
1/1/2022 6:15:00 AM 5.92 42.656 0.059 6.79 1.93 11.98
1/1/2022 6:30:00 AM 5.93 42.674 0.059 6.79 2.01 11.98
1/1/2022 6:45:00 AM 5.93 42.674 0.059 6.79 1.93 11.98
1/1/2022 7:00:00 AM 5.93 42.674 0.059 6.79 1.99 11.98
1/1/2022 7:15:00 AM 5.93 42.674 0.059 6.79 1.95 11.98
1/1/2022 7:30:00 AM 5.93 42.674 0.059 6.78 2.01 11.97
1/1/2022 7:45:00 AM 5.94 42.692 0.059 6.79 1.93 11.98
1/1/2022 8:00:00 AM 5.94 42.692 0.059 6.78 1.96 11.99
1/1/2022 8:15:00 AM 5.94 42.692 0.059 6.79 1.95 12
1/1/2022 8:30:00 AM 5.95 42.71 0.059 6.8 2.04 12.01
1/1/2022 8:45:00 AM 5.96 42.728 0.059 6.8 1.93 12.02
1/1/2022 9:00:00 AM 5.96 42.728 0.059 6.8 1.96 12.04
1/1/2022 9:15:00 AM 5.97 42.746 0.059 6.82 1.97 12.06
1/1/2022 9:30:00 AM 5.98 42.764 0.059 6.81 1.91 12.06
1/1/2022 9:45:00 AM 5.99 42.782 0.059 6.82 1.9 12.1
1/1/2022 10:00:00 AM 6.01 42.818 0.059 6.83 1.88 12.13
1/1/2022 10:15:00 AM 6.02 42.836 0.059 6.84 1.95 12.13
1/1/2022 10:30:00 AM 6.03 42.854 0.059 6.84 1.86 12.13
1/1/2022 10:45:00 AM 6.05 42.89 0.059 6.85 1.86 12.16
1/1/2022 11:00:00 AM 6.07 42.926 0.058 6.87 1.87 12.22
1/1/2022 11:15:00 AM 6.09 42.962 0.058 6.89 1.93 12.24
1/1/2022 11:30:00 AM 6.11 42.998 0.058 6.9 1.87 12.25
1/1/2022 11:45:00 AM 6.13 43.034 0.058 6.9 1.97 12.23
1/1/2022 12:00:00 PM 6.15 43.07 0.058 6.9 1.91 12.21
1/1/2022 12:15:00 PM 6.17 43.106 0.058 6.9 1.9 12.2
1/1/2022 12:30:00 PM 6.19 43.142 0.058 6.91 1.87 12.21
1/1/2022 12:45:00 PM 6.21 43.178 0.058 6.91 1.89 12.23
1/1/2022 1:00:00 PM 6.24 43.232 0.058 6.93 1.91 12.27
1/1/2022 1:15:00 PM 6.27 43.286 0.058 6.95 1.92 12.28
1/1/2022 1:30:00 PM 6.3 43.34 0.058 6.95 1.91 12.24
1/1/2022 1:45:00 PM 6.32 43.376 0.058 6.95 1.92 12.21
1/1/2022 2:00:00 PM 6.34 43.412 0.058 6.95 1.87 12.19
1/1/2022 2:15:00 PM 6.37 43.466 0.058 6.95 1.88 12.2
1/1/2022 2:30:00 PM 6.39 43.502 0.058 6.96 1.91 12.2
1/1/2022 2:45:00 PM 6.41 43.538 0.058 6.95 1.83 12.18
1/1/2022 3:00:00 PM 6.42 43.556 0.058 6.95 1.93 12.17
1/1/2022 3:15:00 PM 6.43 43.574 0.058 6.94 1.85 12.12
1/1/2022 3:30:00 PM 6.44 43.592 0.058 6.93 1.84 12.08
1/1/2022 3:45:00 PM 6.44 43.592 0.058 6.92 1.87 12.03
1/1/2022 4:00:00 PM 6.44 43.592 0.058 6.9 1.91 11.97
1/1/2022 4:15:00 PM 6.45 43.61 0.058 6.89 1.92 11.91
1/1/2022 4:30:00 PM 6.45 43.61 0.058 6.88 1.93 11.87
1/1/2022 4:45:00 PM 6.45 43.61 0.058 6.86 1.92 11.84
1/1/2022 5:00:00 PM 6.45 43.61 0.058 6.85 1.93 11.82
1/1/2022 5:15:00 PM 6.44 43.592 0.058 6.84 1.95 11.81
1/1/2022 5:30:00 PM 6.44 43.592 0.058 6.84 1.99 11.8
1/1/2022 5:45:00 PM 6.44 43.592 0.058 6.83 1.95 11.79
1/1/2022 6:00:00 PM 6.44 43.592 0.058 6.82 2.06 11.79
1/1/2022 6:15:00 PM 6.44 43.592 0.058 6.82 1.94 11.79
1/1/2022 6:30:00 PM 6.44 43.592 0.058 6.82 1.99 11.79
1/1/2022 6:45:00 PM 6.44 43.592 0.058 6.81 2.03 11.78
1/1/2022 7:00:00 PM 6.44 43.592 0.058 6.81 1.99 11.78
1/1/2022 7:15:00 PM 6.44 43.592 0.058 6.81 2.01 11.78
1/1/2022 7:30:00 PM 6.44 43.592 0.058 6.81 2.28 11.78
1/1/2022 7:45:00 PM 6.45 43.61 0.058 6.81 2.04 11.78
1/1/2022 8:00:00 PM 6.45 43.61 0.058 6.81 2.03 11.78
1/1/2022 8:15:00 PM 6.46 43.628 0.058 6.81 2.14 11.77
1/1/2022 8:30:00 PM 6.46 43.628 0.058 6.81 2.15 11.77
1/1/2022 8:45:00 PM 6.47 43.646 0.057 6.81 2.16 11.76
1/1/2022 9:00:00 PM 6.47 43.646 0.057 6.81 2.34 11.76
1/1/2022 9:15:00 PM 6.48 43.664 0.057 6.81 2.46 11.76
1/1/2022 9:30:00 PM 6.48 43.664 0.057 6.81 2.61 11.75
1/1/2022 9:45:00 PM 6.48 43.664 0.058 6.81 2.99 11.75
1/1/2022 10:00:00 PM 6.49 43.682 0.058 6.81 2.89 11.74
1/1/2022 10:15:00 PM 6.49 43.682 0.058 6.82 3.21 11.74
1/1/2022 10:30:00 PM 6.5 43.7 0.058 6.83 3.22 11.73
1/1/2022 10:45:00 PM 6.51 43.718 0.058 6.84 3.13 11.73
1/1/2022 11:00:00 PM 6.51 43.718 0.058 6.84 3.28 11.73
1/1/2022 11:15:00 PM 6.51 43.718 0.058 6.85 3.59 11.73
1/1/2022 11:30:00 PM 6.51 43.718 0.058 6.85 3.48 11.73
1/1/2022 11:45:00 PM 6.51 43.718 0.058 6.84 3.51 11.72
1/2/2022 12:00:00 AM 6.52 43.736 0.058 6.85 3.53 11.72
1/2/2022 12:15:00 AM 6.52 43.736 0.058 6.84 3.46 11.72
1/2/2022 12:30:00 AM 6.53 43.754 0.058 6.85 3.48 11.73
1/2/2022 12:45:00 AM 6.53 43.754 0.058 6.84 3.33 11.73
1/2/2022 1:00:00 AM 6.54 43.772 0.058 6.84 3.34 11.73
1/2/2022 1:15:00 AM 6.54 43.772 0.058 6.84 3.29 11.73
1/2/2022 1:30:00 AM 6.55 43.79 0.058 6.85 3.43 11.73
1/2/2022 1:45:00 AM 6.56 43.808 0.058 6.84 3.36 11.73
1/2/2022 2:00:00 AM 6.56 43.808 0.058 6.84 3.3 11.73
1/2/2022 2:15:00 AM 6.56 43.808 0.058 6.84 3.45 11.73
1/2/2022 2:30:00 AM 6.57 43.826 0.058 6.83 3.5 11.72
1/2/2022 2:45:00 AM 6.58 43.844 0.058 6.84 3.83 11.71
1/2/2022 3:00:00 AM 6.59 43.862 0.058 6.85 3.49 11.72
1/2/2022 3:15:00 AM 6.59 43.862 0.058 6.85 3.45 11.71
1/2/2022 3:30:00 AM 6.6 43.88 0.058 6.85 3.75 11.71
1/2/2022 3:45:00 AM 6.6 43.88 0.058 6.85 3.67 11.72
1/2/2022 4:00:00 AM 6.59 43.862 0.058 6.86 4.04 11.72
1/2/2022 4:15:00 AM 6.59 43.862 0.057 6.87 4.27 11.72
1/2/2022 4:30:00 AM 6.58 43.844 0.057 6.88 4.27 11.72
1/2/2022 4:45:00 AM 6.58 43.844 0.057 6.87 4.38 11.72
1/2/2022 5:00:00 AM 6.57 43.826 0.057 6.89 4.34 11.72
1/2/2022 5:15:00 AM 6.57 43.826 0.057 6.88 4.33 11.73
1/2/2022 5:30:00 AM 6.56 43.808 0.057 6.87 4.2 11.73
1/2/2022 5:45:00 AM 6.56 43.808 0.057 6.87 4.15 11.73
1/2/2022 6:00:00 AM 6.55 43.79 0.057 6.88 4.06 11.73
1/2/2022 6:15:00 AM 6.55 43.79 0.057 6.87 3.9 11.73
1/2/2022 6:30:00 AM 6.54 43.772 0.057 6.87 3.68 11.73
1/2/2022 6:45:00 AM 6.53 43.754 0.057 6.87 3.66 11.73
1/2/2022 7:00:00 AM 6.52 43.736 0.057 6.87 3.59 11.74
1/2/2022 7:15:00 AM 6.51 43.718 0.057 6.88 3.66 11.75
1/2/2022 7:30:00 AM 6.5 43.7 0.057 6.88 3.45 11.75
1/2/2022 7:45:00 AM 6.49 43.682 0.057 6.87 3.58 11.76
1/2/2022 8:00:00 AM 6.48 43.664 0.057 6.86 3.51 11.77
1/2/2022 8:15:00 AM 6.47 43.646 0.057 6.88 3.33 11.79
1/2/2022 8:30:00 AM 6.46 43.628 0.057 6.89 3.35 11.8
1/2/2022 8:45:00 AM 6.45 43.61 0.057 6.87 3.31 11.81
1/2/2022 9:00:00 AM 6.43 43.574 0.057 6.88 3.22 11.83
1/2/2022 9:15:00 AM 6.42 43.556 0.057 6.88 3.28 11.86
1/2/2022 9:30:00 AM 6.41 43.538 0.057 6.88 3.16 11.88
1/2/2022 9:45:00 AM 6.4 43.52 0.057 6.88 3.19 11.89
1/2/2022 10:00:00 AM 6.39 43.502 0.056 6.89 3.2 11.93
1/2/2022 10:15:00 AM 6.38 43.484 0.056 6.9 3.04 11.94
1/2/2022 10:30:00 AM 6.37 43.466 0.056 6.9 3.14 11.97
1/2/2022 10:45:00 AM 6.37 43.466 0.056 6.92 2.94 12.02
1/2/2022 11:00:00 AM 6.36 43.448 0.056 6.92 2.96 12.01
1/2/2022 11:15:00 AM 6.36 43.448 0.056 6.92 2.9 12.03
1/2/2022 11:30:00 AM 6.36 43.448 0.056 6.93 3.08 12.06
1/2/2022 11:45:00 AM 6.37 43.466 0.056 6.93 3.05 12.08
1/2/2022 12:00:00 PM 6.36 43.448 0.056 6.93 2.96 12.06
1/2/2022 12:15:00 PM 6.35 43.43 0.056 6.93 2.86 12.05
1/2/2022 12:30:00 PM 6.35 43.43 0.056 6.94 2.69 12.08
1/2/2022 12:45:00 PM 6.35 43.43 0.056 6.95 2.81 12.1
1/2/2022 1:00:00 PM 6.36 43.448 0.056 6.96 2.79 12.13
1/2/2022 1:15:00 PM 6.34 43.412 0.056 6.96 2.77 12.11
1/2/2022 1:30:00 PM 6.32 43.376 0.056 6.96 2.72 12.11
1/2/2022 1:45:00 PM 6.31 43.358 0.056 6.95 2.74 12.09
1/2/2022 2:00:00 PM 6.28 43.304 0.056 6.95 2.81 12.09
1/2/2022 2:15:00 PM 6.24 43.232 0.056 6.94 2.72 12.08
1/2/2022 2:30:00 PM 6.21 43.178 0.056 6.93 2.7 12.07
1/2/2022 2:45:00 PM 6.17 43.106 0.056 6.93 2.73 12.08
1/2/2022 3:00:00 PM 6.14 43.052 0.056 6.93 2.64 12.08
1/2/2022 3:15:00 PM 6.1 42.98 0.056 6.92 2.69 12.07
1/2/2022 3:30:00 PM 6.06 42.908 0.056 6.91 2.66 12.08
1/2/2022 3:45:00 PM 6.02 42.836 0.056 6.91 2.61 12.08
1/2/2022 4:00:00 PM 5.96 42.728 0.056 6.89 2.73 12.09
1/2/2022 4:15:00 PM 5.9 42.62 0.056 6.88 2.62 12.09
1/2/2022 4:30:00 PM 5.84 42.512 0.056 6.88 2.61 12.09
1/2/2022 4:45:00 PM 5.78 42.404 0.056 6.87 2.59 12.09
1/2/2022 5:00:00 PM 5.71 42.278 0.056 6.86 2.72 12.11
1/2/2022 5:15:00 PM 5.64 42.152 0.056 6.86 2.64 12.13
1/2/2022 5:30:00 PM 5.56 42.008 0.056 6.86 2.52 12.15
1/2/2022 5:45:00 PM 5.5 41.9 0.056 6.86 2.64 12.18
1/2/2022 6:00:00 PM 5.44 41.792 0.056 6.85 2.79 12.2
1/2/2022 6:15:00 PM 5.38 41.684 0.057 6.85 2.62 12.22
1/2/2022 6:30:00 PM 5.31 41.558 0.057 6.85 2.59 12.24
1/2/2022 6:45:00 PM 5.25 41.45 0.057 6.85 2.64 12.26
1/2/2022 7:00:00 PM 5.2 41.36 0.057 6.85 2.64 12.29
1/2/2022 7:15:00 PM 5.13 41.234 0.057 6.85 2.52 12.31
1/2/2022 7:30:00 PM 5.06 41.108 0.057 6.84 2.44 12.34
1/2/2022 7:45:00 PM 4.98 40.964 0.057 6.84 2.59 12.36
1/2/2022 8:00:00 PM 4.91 40.838 0.057 6.85 2.54 12.38
1/2/2022 8:15:00 PM 4.86 40.748 0.057 6.84 2.51 12.4
1/2/2022 8:30:00 PM 4.8 40.64 0.057 6.85 2.53 12.42
1/2/2022 8:45:00 PM 4.75 40.55 0.057 6.84 2.43 12.44
1/2/2022 9:00:00 PM 4.68 40.424 0.057 6.84 2.4 12.47
1/2/2022 9:15:00 PM 4.62 40.316 0.057 6.84 2.78 12.49
1/2/2022 9:30:00 PM 4.55 40.19 0.057 6.84 2.45 12.51
1/2/2022 9:45:00 PM 4.49 40.082 0.057 6.84 2.55 12.53
1/2/2022 10:00:00 PM 4.43 39.974 0.057 6.84 2.35 12.55
1/2/2022 10:15:00 PM 4.36 39.848 0.057 6.84 2.37 12.57
1/2/2022 10:30:00 PM 4.3 39.74 0.057 6.83 2.42 12.6
1/2/2022 10:45:00 PM 4.25 39.65 0.057 6.84 2.51 12.62
1/2/2022 11:00:00 PM 4.19 39.542 0.057 6.83 2.43 12.64
1/2/2022 11:15:00 PM 4.14 39.452 0.057 6.84 2.42 12.66
1/2/2022 11:30:00 PM 4.08 39.344 0.057 6.83 2.45 12.68
1/2/2022 11:45:00 PM 4.04 39.272 0.057 6.83 2.47 12.7
1/3/2022 12:00:00 AM 3.99 39.182 0.058 6.83 2.41 12.71
1/3/2022 12:15:00 AM 3.95 39.11 0.058 6.83 2.36 12.73
1/3/2022 12:30:00 AM 3.9 39.02 0.058 6.83 2.36 12.75
1/3/2022 12:45:00 AM 3.86 38.948 0.058 6.83 2.42 12.77
1/3/2022 1:00:00 AM 3.82 38.876 0.058 6.83 2.37 12.79
1/3/2022 1:15:00 AM 3.78 38.804 0.058 6.83 2.35 12.8
1/3/2022 1:30:00 AM 3.75 38.75 0.058 6.84 2.43 12.83
1/3/2022 1:45:00 AM 3.7 38.66 0.058 6.83 2.34 12.85
1/3/2022 2:00:00 AM 3.65 38.57 0.058 6.83 2.34 12.87
1/3/2022 2:15:00 AM 3.61 38.498 0.058 6.83 2.31 12.89
1/3/2022 2:30:00 AM 3.57 38.426 0.058 6.83 2.24 12.9
1/3/2022 2:45:00 AM 3.52 38.336 0.058 6.82 2.32 12.92
1/3/2022 3:00:00 AM 3.48 38.264 0.058 6.81 2.22 12.93
1/3/2022 3:15:00 AM 3.43 38.174 0.058 6.79 2.23 12.95
1/3/2022 3:30:00 AM 3.39 38.102 0.058 6.79 2.24 12.96
1/3/2022 3:45:00 AM 3.33 37.994 0.058 6.76 2.23 12.98
1/3/2022 4:00:00 AM 3.27 37.886 0.058 6.76 2.33 13
1/3/2022 4:15:00 AM 3.22 37.796 0.058 6.78 2.29 13.02
1/3/2022 4:30:00 AM 3.16 37.688 0.058 6.78 2.25 13.04
1/3/2022 4:45:00 AM 3.1 37.58 0.058 6.78 2.26 13.06
1/3/2022 5:00:00 AM 3.03 37.454 0.058 6.78 2.27 13.08
1/3/2022 5:15:00 AM 2.96 37.328 0.058 6.78 2.21 13.11
1/3/2022 5:30:00 AM 2.9 37.22 0.058 6.78 2.24 13.13
1/3/2022 5:45:00 AM 2.84 37.112 0.058 6.79 2.25 13.15
1/3/2022 6:00:00 AM 2.78 37.004 0.058 6.79 2.24 13.17
1/3/2022 6:15:00 AM 2.73 36.914 0.058 6.78 2.2 13.19
1/3/2022 6:30:00 AM 2.68 36.824 0.058 6.78 2.23 13.21
1/3/2022 6:45:00 AM 2.63 36.734 0.058 6.79 2.15 13.23
1/3/2022 7:00:00 AM 2.58 36.644 0.058 6.78 2.11 13.25
1/3/2022 7:15:00 AM 2.52 36.536 0.059 6.78 2.1 13.27
1/3/2022 7:30:00 AM 2.47 36.446 0.059 6.78 2.12 13.29
1/3/2022 7:45:00 AM 2.42 36.356 0.059 6.78 2.19 13.32
1/3/2022 8:00:00 AM 2.37 36.266 0.059 6.78 2.16 13.35
1/3/2022 8:15:00 AM 2.32 36.176 0.059 6.78 2.17 13.38
1/3/2022 8:30:00 AM 2.28 36.104 0.059 6.79 2.12 13.42
1/3/2022 8:45:00 AM 2.24 36.032 0.059 6.8 2.13 13.46
1/3/2022 9:00:00 AM 2.2 35.96 0.059 6.81 2.11 13.5
1/3/2022 9:15:00 AM 2.16 35.888 0.059 6.81 2.06 13.54
1/3/2022 9:30:00 AM 2.13 35.834 0.059 6.83 2.09 13.57
1/3/2022 9:45:00 AM 2.1 35.78 0.059 6.84 2.19 13.63
1/3/2022 10:00:00 AM 2.07 35.726 0.059 6.85 2.08 13.66
1/3/2022 10:15:00 AM 2.05 35.69 0.059 6.86 2.11 13.69
1/3/2022 10:30:00 AM 2.02 35.636 0.059 6.86 2.08 13.71
1/3/2022 10:45:00 AM 2 35.6 0.059 6.87 2.08 13.74
1/3/2022 11:00:00 AM 1.98 35.564 0.059 6.88 2.11 13.77
1/3/2022 11:15:00 AM 1.96 35.528 0.059 6.9 2.1 13.79
1/3/2022 11:30:00 AM 1.94 35.492 0.059 6.9 2.07 13.8
1/3/2022 11:45:00 AM 1.92 35.456 0.059 6.91 2.09 13.82
1/3/2022 12:00:00 PM 1.91 35.438 0.059 6.92 2.06 13.83
1/3/2022 12:15:00 PM 1.9 35.42 0.059 6.93 2.07 13.85
1/3/2022 12:30:00 PM 1.9 35.42 0.059 6.93 2.1 13.86
1/3/2022 12:45:00 PM 1.88 35.384 0.059 6.93 2.16 13.85
1/3/2022 1:00:00 PM 1.88 35.384 0.059 6.94 2.04 13.85
1/3/2022 1:15:00 PM 1.87 35.366 0.059 6.93 2.18 13.86
1/3/2022 1:30:00 PM 1.86 35.348 0.059 6.94 2.18 13.86
1/3/2022 1:45:00 PM 1.86 35.348 0.059 6.95 2 13.87
1/3/2022 2:00:00 PM 1.87 35.366 0.059 6.94 2.13 13.87
1/3/2022 2:15:00 PM 1.85 35.33 0.059 6.95 2.12 13.88
1/3/2022 2:30:00 PM 1.84 35.312 0.059 6.95 2.03 13.88
1/3/2022 2:45:00 PM 1.82 35.276 0.059 6.95 2.05 13.89
1/3/2022 3:00:00 PM 1.81 35.258 0.059 6.95 2.1 13.87
1/3/2022 3:15:00 PM 1.8 35.24 0.059 6.94 1.97 13.87
1/3/2022 3:30:00 PM 1.78 35.204 0.059 6.92 2.03 13.86
1/3/2022 3:45:00 PM 1.74 35.132 0.059 6.92 2 13.86
1/3/2022 4:00:00 PM 1.7 35.06 0.059 6.91 1.99 13.84
1/3/2022 4:15:00 PM 1.66 34.988 0.059 6.9 1.98 13.81
1/3/2022 4:30:00 PM 1.61 34.898 0.059 6.88 2.02 13.79
1/3/2022 4:45:00 PM 1.55 34.79 0.059 6.86 2.02 13.77
1/3/2022 5:00:00 PM 1.49 34.682 0.06 6.85 2 13.75
1/3/2022 5:15:00 PM 1.43 34.574 0.06 6.83 2 13.73
1/3/2022 5:30:00 PM 1.37 34.466 0.06 6.82 2.07 13.74
1/3/2022 5:45:00 PM 1.31 34.358 0.06 6.82 2.12 13.76
1/3/2022 6:00:00 PM 1.25 34.25 0.06 6.81 2.2 13.78
1/3/2022 6:15:00 PM 1.19 34.142 0.06 6.8 2.2 13.8
1/3/2022 6:30:00 PM 1.13 34.034 0.06 6.8 2.4 13.83
1/3/2022 6:45:00 PM 1.06 33.908 0.06 6.8 2.4 13.86
1/3/2022 7:00:00 PM 0.99 33.782 0.06 6.79 2.33 13.89
1/3/2022 7:15:00 PM 0.94 33.692 0.06 6.79 2.31 13.91
1/3/2022 7:30:00 PM 0.88 33.584 0.06 6.79 2.36 13.94
1/3/2022 7:45:00 PM 0.82 33.476 0.06 6.79 2.45 13.97
1/3/2022 8:00:00 PM 0.77 33.386 0.06 6.79 2.22 13.99
1/3/2022 8:15:00 PM 0.71 33.278 0.06 6.79 2.35 14.02
1/3/2022 8:30:00 PM 0.66 33.188 0.06 6.79 2.19 14.05
1/3/2022 8:45:00 PM 0.61 33.098 0.06 6.79 2.2 14.07
1/3/2022 9:00:00 PM 0.56 33.008 0.06 6.8 2.15 14.09
1/3/2022 9:15:00 PM 0.52 32.936 0.06 6.79 2.17 14.12
1/3/2022 9:30:00 PM 0.47 32.846 0.06 6.79 2.2 14.13
1/3/2022 9:45:00 PM 0.42 32.756 0.06 6.79 2.14 14.15
1/3/2022 10:00:00 PM 0.38 32.684 0.061 6.79 2.13 14.17
1/3/2022 10:15:00 PM 0.33 32.594 0.061 6.79 2.06 14.19
1/3/2022 10:30:00 PM 0.29 32.522 0.061 6.79 2.1 14.21
1/3/2022 10:45:00 PM 0.25 32.45 0.061 6.78 2.06 14.22
1/3/2022 11:00:00 PM 0.21 32.378 0.061 6.79 2.06 14.25
1/3/2022 11:15:00 PM 0.17 32.306 0.061 6.78 2.08 14.27
1/3/2022 11:30:00 PM 0.13 32.234 0.061 6.78 2.03 14.28
1/3/2022 11:45:00 PM 0.09 32.162 0.061 6.78 2.02 14.3
1/4/2022 12:00:00 AM 0.05 32.09 0.061 6.79 1.98 14.31
1/4/2022 12:15:00 AM 0.02 32.036 0.061 6.79 2.02 14.33
1/4/2022 12:30:00 AM -0.01 31.982 0.061 6.79 1.97 14.34
1/4/2022 12:45:00 AM -0.04 31.928 0.061 6.79 2.02 14.35
1/4/2022 1:00:00 AM -0.06 31.892 0.061 6.79 2 14.36
1/4/2022 1:15:00 AM -0.09 31.838 0.061 6.79 2.02 14.37
1/4/2022 1:30:00 AM -0.12 31.784 0.061 6.79 1.97 14.39
1/4/2022 1:45:00 AM -0.14 31.748 0.062 6.79 2.04 14.4
1/4/2022 2:00:00 AM -0.13 31.766 0.062 6.79 1.99 14.42
1/4/2022 2:15:00 AM -0.12 31.784 0.062 6.8 2.02 14.43
1/4/2022 2:30:00 AM -0.12 31.784 0.062 6.8 2.17 14.43
1/4/2022 2:45:00 AM -0.12 31.784 0.063 6.8 2.15 14.44
1/4/2022 3:00:00 AM -0.12 31.784 0.063 6.81 2.15 14.44
1/4/2022 3:15:00 AM -0.12 31.784 0.063 6.81 2.15 14.45
1/4/2022 3:30:00 AM -0.12 31.784 0.063 6.81 2.18 14.45
1/4/2022 3:45:00 AM -0.12 31.784 0.063 6.82 2.09 14.45
1/4/2022 4:00:00 AM -0.12 31.784 0.063 6.82 2.08 14.45
1/4/2022 4:15:00 AM -0.12 31.784 0.063 6.82 2.13 14.45
1/4/2022 4:30:00 AM -0.12 31.784 0.063 6.82 2.11 14.45
1/4/2022 4:45:00 AM -0.12 31.784 0.063 6.81 2.11 14.45
1/4/2022 5:00:00 AM -0.12 31.784 0.063 6.81 2.25 14.45
1/4/2022 5:15:00 AM -0.12 31.784 0.063 6.8 2.22 14.45
1/4/2022 5:30:00 AM -0.12 31.784 0.063 6.81 2.44 14.45
1/4/2022 5:45:00 AM -0.12 31.784 0.063 6.81 2.46 14.45
1/4/2022 6:00:00 AM -0.12 31.784 0.063 6.82 2.58 14.45
1/4/2022 6:15:00 AM -0.12 31.784 0.063 6.8 2.62 14.45
1/4/2022 6:30:00 AM -0.12 31.784 0.063 6.8 2.72 14.45
1/4/2022 6:45:00 AM -0.12 31.784 0.063 6.8 2.68 14.45
1/4/2022 7:00:00 AM -0.12 31.784 0.064 6.8 2.62 14.46
1/4/2022 7:15:00 AM -0.12 31.784 0.064 6.81 2.66 14.46
1/4/2022 7:30:00 AM -0.12 31.784 0.064 6.81 2.51 14.47
1/4/2022 7:45:00 AM -0.11 31.802 0.063 6.82 2.45 14.48
1/4/2022 8:00:00 AM -0.11 31.802 0.063 6.82 2.46 14.51
1/4/2022 8:15:00 AM -0.11 31.802 0.063 6.82 2.44 14.54
1/4/2022 8:30:00 AM -0.11 31.802 0.063 6.84 2.43 14.57
1/4/2022 8:45:00 AM -0.11 31.802 0.062 6.84 2.48 14.61
1/4/2022 9:00:00 AM -0.11 31.802 0.062 6.85 2.42 14.63
1/4/2022 9:15:00 AM -0.11 31.802 0.062 6.86 2.07 14.66